<?xml version="1.0" encoding="UTF-8" standalone="no" ?>
<gpx xmlns="http://www.topografix.com/GPX/1/1" xmlns:xsi="http://www.w3.org/2001/XMLSchema-instance" xsi:schemaLocation="http://www.topografix.com/GPX/1/1 http://www.topografix.com/GPX/1/1/gpx.xsd" version="1.1" creator="VisuGPX - https://www.visugpx.com">
  <metadata>
    <name>basses Selves</name>
    <desc><![CDATA[Balade facile entre pistes et sentiers en sous bois
Départ au cimetière de Broves en Seillans
]]></desc>
  </metadata>
  <trk>
    <name><![CDATA[basses Selves_1]]></name>
    <trkseg>
      <trkpt lat="43.59057" lon="6.64052">
        <ele>269.5</ele>
        <time>2022-09-13T12:50:07Z</time>
      </trkpt>
      <trkpt lat="43.59058" lon="6.64046">
        <ele>270.8</ele>
        <time>2022-09-13T12:50:39Z</time>
      </trkpt>
      <trkpt lat="43.59055" lon="6.64041">
        <ele>271.8</ele>
        <time>2022-09-13T12:50:50Z</time>
      </trkpt>
      <trkpt lat="43.59052" lon="6.64035">
        <ele>272.6</ele>
        <time>2022-09-13T12:50:58Z</time>
      </trkpt>
      <trkpt lat="43.59048" lon="6.64032">
        <ele>273</ele>
        <time>2022-09-13T12:51:02Z</time>
      </trkpt>
      <trkpt lat="43.59045" lon="6.64028">
        <ele>272.1</ele>
        <time>2022-09-13T12:51:08Z</time>
      </trkpt>
      <trkpt lat="43.59041" lon="6.64023">
        <ele>272</ele>
        <time>2022-09-13T12:51:14Z</time>
      </trkpt>
      <trkpt lat="43.59037" lon="6.64018">
        <ele>272.1</ele>
        <time>2022-09-13T12:51:19Z</time>
      </trkpt>
      <trkpt lat="43.59032" lon="6.64014">
        <ele>272</ele>
        <time>2022-09-13T12:51:23Z</time>
      </trkpt>
      <trkpt lat="43.59029" lon="6.64009">
        <ele>272.4</ele>
        <time>2022-09-13T12:51:27Z</time>
      </trkpt>
      <trkpt lat="43.59025" lon="6.64004">
        <ele>272.3</ele>
        <time>2022-09-13T12:51:32Z</time>
      </trkpt>
      <trkpt lat="43.59022" lon="6.63998">
        <ele>272.2</ele>
        <time>2022-09-13T12:51:37Z</time>
      </trkpt>
      <trkpt lat="43.59021" lon="6.63993">
        <ele>271.3</ele>
        <time>2022-09-13T12:51:41Z</time>
      </trkpt>
      <trkpt lat="43.59018" lon="6.63987">
        <ele>269</ele>
        <time>2022-09-13T12:51:48Z</time>
      </trkpt>
      <trkpt lat="43.59014" lon="6.63982">
        <ele>268.5</ele>
        <time>2022-09-13T12:51:53Z</time>
      </trkpt>
      <trkpt lat="43.59011" lon="6.63977">
        <ele>268.7</ele>
        <time>2022-09-13T12:51:58Z</time>
      </trkpt>
      <trkpt lat="43.59009" lon="6.63971">
        <ele>268</ele>
        <time>2022-09-13T12:52:03Z</time>
      </trkpt>
      <trkpt lat="43.59005" lon="6.63964">
        <ele>267.4</ele>
        <time>2022-09-13T12:52:09Z</time>
      </trkpt>
      <trkpt lat="43.59002" lon="6.63959">
        <ele>267</ele>
        <time>2022-09-13T12:52:14Z</time>
      </trkpt>
      <trkpt lat="43.58999" lon="6.63954">
        <ele>266.6</ele>
        <time>2022-09-13T12:52:20Z</time>
      </trkpt>
      <trkpt lat="43.58996" lon="6.63949">
        <ele>265.9</ele>
        <time>2022-09-13T12:52:25Z</time>
      </trkpt>
      <trkpt lat="43.58992" lon="6.63943">
        <ele>265.9</ele>
        <time>2022-09-13T12:52:30Z</time>
      </trkpt>
      <trkpt lat="43.58988" lon="6.6394">
        <ele>267.3</ele>
        <time>2022-09-13T12:52:36Z</time>
      </trkpt>
      <trkpt lat="43.58985" lon="6.63935">
        <ele>268.5</ele>
        <time>2022-09-13T12:52:41Z</time>
      </trkpt>
      <trkpt lat="43.58981" lon="6.6393">
        <ele>269.3</ele>
        <time>2022-09-13T12:52:46Z</time>
      </trkpt>
      <trkpt lat="43.58976" lon="6.63926">
        <ele>269.8</ele>
        <time>2022-09-13T12:52:51Z</time>
      </trkpt>
      <trkpt lat="43.58972" lon="6.63923">
        <ele>269.9</ele>
        <time>2022-09-13T12:52:56Z</time>
      </trkpt>
      <trkpt lat="43.58968" lon="6.63921">
        <ele>270</ele>
        <time>2022-09-13T12:53:00Z</time>
      </trkpt>
      <trkpt lat="43.58963" lon="6.63919">
        <ele>269.8</ele>
        <time>2022-09-13T12:53:04Z</time>
      </trkpt>
      <trkpt lat="43.58959" lon="6.63916">
        <ele>269.6</ele>
        <time>2022-09-13T12:53:08Z</time>
      </trkpt>
      <trkpt lat="43.58956" lon="6.63912">
        <ele>269.4</ele>
        <time>2022-09-13T12:53:12Z</time>
      </trkpt>
      <trkpt lat="43.58951" lon="6.63909">
        <ele>269.2</ele>
        <time>2022-09-13T12:53:16Z</time>
      </trkpt>
      <trkpt lat="43.58947" lon="6.63905">
        <ele>269.2</ele>
        <time>2022-09-13T12:53:20Z</time>
      </trkpt>
      <trkpt lat="43.58943" lon="6.63903">
        <ele>269.5</ele>
        <time>2022-09-13T12:53:24Z</time>
      </trkpt>
      <trkpt lat="43.58938" lon="6.639">
        <ele>269.5</ele>
        <time>2022-09-13T12:53:29Z</time>
      </trkpt>
      <trkpt lat="43.58941" lon="6.63896">
        <ele>268.8</ele>
        <time>2022-09-13T12:53:37Z</time>
      </trkpt>
      <trkpt lat="43.58945" lon="6.63896">
        <ele>268.5</ele>
        <time>2022-09-13T12:53:42Z</time>
      </trkpt>
      <trkpt lat="43.58951" lon="6.63897">
        <ele>268.3</ele>
        <time>2022-09-13T12:53:48Z</time>
      </trkpt>
      <trkpt lat="43.58955" lon="6.63901">
        <ele>268.5</ele>
        <time>2022-09-13T12:53:54Z</time>
      </trkpt>
      <trkpt lat="43.5896" lon="6.63903">
        <ele>268.9</ele>
        <time>2022-09-13T12:53:59Z</time>
      </trkpt>
      <trkpt lat="43.58964" lon="6.63907">
        <ele>269.6</ele>
        <time>2022-09-13T12:54:04Z</time>
      </trkpt>
      <trkpt lat="43.58968" lon="6.63912">
        <ele>270.5</ele>
        <time>2022-09-13T12:54:08Z</time>
      </trkpt>
      <trkpt lat="43.58971" lon="6.63917">
        <ele>271.2</ele>
        <time>2022-09-13T12:54:12Z</time>
      </trkpt>
      <trkpt lat="43.58976" lon="6.6392">
        <ele>271.9</ele>
        <time>2022-09-13T12:54:16Z</time>
      </trkpt>
      <trkpt lat="43.58979" lon="6.63924">
        <ele>272</ele>
        <time>2022-09-13T12:54:20Z</time>
      </trkpt>
      <trkpt lat="43.58984" lon="6.63928">
        <ele>271.9</ele>
        <time>2022-09-13T12:54:24Z</time>
      </trkpt>
      <trkpt lat="43.58988" lon="6.63933">
        <ele>272</ele>
        <time>2022-09-13T12:54:28Z</time>
      </trkpt>
      <trkpt lat="43.58992" lon="6.63937">
        <ele>272.2</ele>
        <time>2022-09-13T12:54:32Z</time>
      </trkpt>
      <trkpt lat="43.58995" lon="6.63942">
        <ele>272.2</ele>
        <time>2022-09-13T12:54:36Z</time>
      </trkpt>
      <trkpt lat="43.58998" lon="6.63947">
        <ele>272.4</ele>
        <time>2022-09-13T12:54:40Z</time>
      </trkpt>
      <trkpt lat="43.59001" lon="6.63951">
        <ele>272.9</ele>
        <time>2022-09-13T12:54:45Z</time>
      </trkpt>
      <trkpt lat="43.59005" lon="6.63956">
        <ele>273.1</ele>
        <time>2022-09-13T12:54:49Z</time>
      </trkpt>
      <trkpt lat="43.59009" lon="6.63961">
        <ele>272.3</ele>
        <time>2022-09-13T12:54:53Z</time>
      </trkpt>
      <trkpt lat="43.59012" lon="6.63965">
        <ele>272</ele>
        <time>2022-09-13T12:54:57Z</time>
      </trkpt>
      <trkpt lat="43.59015" lon="6.6397">
        <ele>271.6</ele>
        <time>2022-09-13T12:55:01Z</time>
      </trkpt>
      <trkpt lat="43.5902" lon="6.63971">
        <ele>271.7</ele>
        <time>2022-09-13T12:55:06Z</time>
      </trkpt>
      <trkpt lat="43.59025" lon="6.63969">
        <ele>271.6</ele>
        <time>2022-09-13T12:55:13Z</time>
      </trkpt>
      <trkpt lat="43.59028" lon="6.63963">
        <ele>271.7</ele>
        <time>2022-09-13T12:55:19Z</time>
      </trkpt>
      <trkpt lat="43.59029" lon="6.63956">
        <ele>271.9</ele>
        <time>2022-09-13T12:55:24Z</time>
      </trkpt>
      <trkpt lat="43.59031" lon="6.63949">
        <ele>272</ele>
        <time>2022-09-13T12:55:29Z</time>
      </trkpt>
      <trkpt lat="43.59032" lon="6.63943">
        <ele>272.5</ele>
        <time>2022-09-13T12:55:34Z</time>
      </trkpt>
      <trkpt lat="43.59034" lon="6.63937">
        <ele>272.4</ele>
        <time>2022-09-13T12:55:39Z</time>
      </trkpt>
      <trkpt lat="43.59037" lon="6.63932">
        <ele>272.6</ele>
        <time>2022-09-13T12:55:44Z</time>
      </trkpt>
      <trkpt lat="43.5904" lon="6.63926">
        <ele>272.1</ele>
        <time>2022-09-13T12:55:49Z</time>
      </trkpt>
      <trkpt lat="43.59043" lon="6.63919">
        <ele>271.5</ele>
        <time>2022-09-13T12:55:54Z</time>
      </trkpt>
      <trkpt lat="43.59045" lon="6.63912">
        <ele>271.8</ele>
        <time>2022-09-13T12:55:59Z</time>
      </trkpt>
      <trkpt lat="43.59047" lon="6.63907">
        <ele>271.8</ele>
        <time>2022-09-13T12:56:04Z</time>
      </trkpt>
      <trkpt lat="43.59051" lon="6.63902">
        <ele>271.8</ele>
        <time>2022-09-13T12:56:09Z</time>
      </trkpt>
      <trkpt lat="43.59053" lon="6.63896">
        <ele>271.4</ele>
        <time>2022-09-13T12:56:13Z</time>
      </trkpt>
      <trkpt lat="43.59056" lon="6.63891">
        <ele>270.8</ele>
        <time>2022-09-13T12:56:17Z</time>
      </trkpt>
      <trkpt lat="43.59059" lon="6.63886">
        <ele>270.3</ele>
        <time>2022-09-13T12:56:21Z</time>
      </trkpt>
      <trkpt lat="43.59062" lon="6.63881">
        <ele>269.5</ele>
        <time>2022-09-13T12:56:25Z</time>
      </trkpt>
      <trkpt lat="43.59066" lon="6.63876">
        <ele>268.8</ele>
        <time>2022-09-13T12:56:29Z</time>
      </trkpt>
      <trkpt lat="43.5907" lon="6.63873">
        <ele>268.7</ele>
        <time>2022-09-13T12:56:34Z</time>
      </trkpt>
      <trkpt lat="43.59075" lon="6.6387">
        <ele>269.4</ele>
        <time>2022-09-13T12:56:42Z</time>
      </trkpt>
      <trkpt lat="43.59079" lon="6.63866">
        <ele>269.3</ele>
        <time>2022-09-13T12:56:47Z</time>
      </trkpt>
      <trkpt lat="43.59083" lon="6.63862">
        <ele>269.1</ele>
        <time>2022-09-13T12:56:51Z</time>
      </trkpt>
      <trkpt lat="43.59087" lon="6.63858">
        <ele>269.3</ele>
        <time>2022-09-13T12:56:56Z</time>
      </trkpt>
      <trkpt lat="43.5909" lon="6.63852">
        <ele>269.1</ele>
        <time>2022-09-13T12:57:01Z</time>
      </trkpt>
      <trkpt lat="43.59091" lon="6.63846">
        <ele>270.7</ele>
        <time>2022-09-13T12:57:07Z</time>
      </trkpt>
      <trkpt lat="43.59094" lon="6.6384">
        <ele>271</ele>
        <time>2022-09-13T12:57:12Z</time>
      </trkpt>
      <trkpt lat="43.59096" lon="6.63834">
        <ele>270.9</ele>
        <time>2022-09-13T12:57:17Z</time>
      </trkpt>
      <trkpt lat="43.59099" lon="6.63829">
        <ele>270.8</ele>
        <time>2022-09-13T12:57:21Z</time>
      </trkpt>
      <trkpt lat="43.59103" lon="6.63824">
        <ele>270.6</ele>
        <time>2022-09-13T12:57:26Z</time>
      </trkpt>
      <trkpt lat="43.59107" lon="6.63821">
        <ele>271</ele>
        <time>2022-09-13T12:57:31Z</time>
      </trkpt>
      <trkpt lat="43.59111" lon="6.63818">
        <ele>271.6</ele>
        <time>2022-09-13T12:57:36Z</time>
      </trkpt>
      <trkpt lat="43.59116" lon="6.63815">
        <ele>272.4</ele>
        <time>2022-09-13T12:57:42Z</time>
      </trkpt>
      <trkpt lat="43.5912" lon="6.63811">
        <ele>272.1</ele>
        <time>2022-09-13T12:57:46Z</time>
      </trkpt>
      <trkpt lat="43.59125" lon="6.63807">
        <ele>271.5</ele>
        <time>2022-09-13T12:57:51Z</time>
      </trkpt>
      <trkpt lat="43.59129" lon="6.63802">
        <ele>271.3</ele>
        <time>2022-09-13T12:57:56Z</time>
      </trkpt>
      <trkpt lat="43.59132" lon="6.63796">
        <ele>271.4</ele>
        <time>2022-09-13T12:58:01Z</time>
      </trkpt>
      <trkpt lat="43.59134" lon="6.63791">
        <ele>271.7</ele>
        <time>2022-09-13T12:58:06Z</time>
      </trkpt>
      <trkpt lat="43.59136" lon="6.63784">
        <ele>272</ele>
        <time>2022-09-13T12:58:11Z</time>
      </trkpt>
      <trkpt lat="43.59139" lon="6.63778">
        <ele>272.1</ele>
        <time>2022-09-13T12:58:15Z</time>
      </trkpt>
      <trkpt lat="43.59142" lon="6.63773">
        <ele>272.3</ele>
        <time>2022-09-13T12:58:19Z</time>
      </trkpt>
      <trkpt lat="43.59144" lon="6.63767">
        <ele>272.8</ele>
        <time>2022-09-13T12:58:24Z</time>
      </trkpt>
      <trkpt lat="43.59148" lon="6.63762">
        <ele>272.8</ele>
        <time>2022-09-13T12:58:29Z</time>
      </trkpt>
      <trkpt lat="43.59152" lon="6.63758">
        <ele>272.9</ele>
        <time>2022-09-13T12:58:34Z</time>
      </trkpt>
      <trkpt lat="43.59156" lon="6.63754">
        <ele>273.3</ele>
        <time>2022-09-13T12:58:38Z</time>
      </trkpt>
      <trkpt lat="43.59159" lon="6.63749">
        <ele>273.2</ele>
        <time>2022-09-13T12:58:42Z</time>
      </trkpt>
      <trkpt lat="43.59162" lon="6.63744">
        <ele>273.1</ele>
        <time>2022-09-13T12:58:46Z</time>
      </trkpt>
      <trkpt lat="43.59165" lon="6.63739">
        <ele>272.4</ele>
        <time>2022-09-13T12:58:50Z</time>
      </trkpt>
      <trkpt lat="43.59167" lon="6.63733">
        <ele>271.9</ele>
        <time>2022-09-13T12:58:54Z</time>
      </trkpt>
      <trkpt lat="43.59168" lon="6.63727">
        <ele>272.4</ele>
        <time>2022-09-13T12:58:59Z</time>
      </trkpt>
      <trkpt lat="43.5917" lon="6.6372">
        <ele>272.9</ele>
        <time>2022-09-13T12:59:04Z</time>
      </trkpt>
      <trkpt lat="43.59169" lon="6.63714">
        <ele>273.5</ele>
        <time>2022-09-13T12:59:10Z</time>
      </trkpt>
      <trkpt lat="43.5917" lon="6.63706">
        <ele>274.4</ele>
        <time>2022-09-13T12:59:16Z</time>
      </trkpt>
      <trkpt lat="43.59173" lon="6.63701">
        <ele>274</ele>
        <time>2022-09-13T12:59:22Z</time>
      </trkpt>
      <trkpt lat="43.59176" lon="6.63695">
        <ele>273.8</ele>
        <time>2022-09-13T12:59:27Z</time>
      </trkpt>
      <trkpt lat="43.59178" lon="6.63689">
        <ele>273.9</ele>
        <time>2022-09-13T12:59:31Z</time>
      </trkpt>
      <trkpt lat="43.5918" lon="6.63683">
        <ele>274.1</ele>
        <time>2022-09-13T12:59:36Z</time>
      </trkpt>
      <trkpt lat="43.59183" lon="6.63677">
        <ele>274.1</ele>
        <time>2022-09-13T12:59:41Z</time>
      </trkpt>
      <trkpt lat="43.59187" lon="6.63674">
        <ele>273.1</ele>
        <time>2022-09-13T12:59:46Z</time>
      </trkpt>
      <trkpt lat="43.59191" lon="6.6367">
        <ele>270.3</ele>
        <time>2022-09-13T12:59:53Z</time>
      </trkpt>
      <trkpt lat="43.59195" lon="6.63667">
        <ele>269.4</ele>
        <time>2022-09-13T12:59:58Z</time>
      </trkpt>
      <trkpt lat="43.59198" lon="6.63662">
        <ele>269.5</ele>
        <time>2022-09-13T13:00:04Z</time>
      </trkpt>
      <trkpt lat="43.59203" lon="6.63659">
        <ele>271</ele>
        <time>2022-09-13T13:00:10Z</time>
      </trkpt>
      <trkpt lat="43.59207" lon="6.63656">
        <ele>272.3</ele>
        <time>2022-09-13T13:00:15Z</time>
      </trkpt>
      <trkpt lat="43.59212" lon="6.63652">
        <ele>273.4</ele>
        <time>2022-09-13T13:00:19Z</time>
      </trkpt>
      <trkpt lat="43.59216" lon="6.63649">
        <ele>273.7</ele>
        <time>2022-09-13T13:00:24Z</time>
      </trkpt>
      <trkpt lat="43.59221" lon="6.63645">
        <ele>274.2</ele>
        <time>2022-09-13T13:00:30Z</time>
      </trkpt>
      <trkpt lat="43.59223" lon="6.63639">
        <ele>275.1</ele>
        <time>2022-09-13T13:00:36Z</time>
      </trkpt>
      <trkpt lat="43.59224" lon="6.63632">
        <ele>275.9</ele>
        <time>2022-09-13T13:00:42Z</time>
      </trkpt>
      <trkpt lat="43.59223" lon="6.63626">
        <ele>277</ele>
        <time>2022-09-13T13:00:48Z</time>
      </trkpt>
      <trkpt lat="43.59222" lon="6.63619">
        <ele>277.5</ele>
        <time>2022-09-13T13:00:53Z</time>
      </trkpt>
      <trkpt lat="43.59221" lon="6.63612">
        <ele>277.9</ele>
        <time>2022-09-13T13:00:58Z</time>
      </trkpt>
      <trkpt lat="43.5922" lon="6.63605">
        <ele>277.8</ele>
        <time>2022-09-13T13:01:02Z</time>
      </trkpt>
      <trkpt lat="43.5922" lon="6.63598">
        <ele>277.7</ele>
        <time>2022-09-13T13:01:08Z</time>
      </trkpt>
      <trkpt lat="43.59218" lon="6.63592">
        <ele>277.6</ele>
        <time>2022-09-13T13:01:12Z</time>
      </trkpt>
      <trkpt lat="43.59218" lon="6.63584">
        <ele>276.9</ele>
        <time>2022-09-13T13:01:20Z</time>
      </trkpt>
      <trkpt lat="43.59218" lon="6.63578">
        <ele>277.7</ele>
        <time>2022-09-13T13:01:24Z</time>
      </trkpt>
      <trkpt lat="43.59219" lon="6.63571">
        <ele>278</ele>
        <time>2022-09-13T13:01:29Z</time>
      </trkpt>
      <trkpt lat="43.5922" lon="6.63564">
        <ele>278.8</ele>
        <time>2022-09-13T13:01:34Z</time>
      </trkpt>
      <trkpt lat="43.59222" lon="6.63558">
        <ele>279.1</ele>
        <time>2022-09-13T13:01:39Z</time>
      </trkpt>
      <trkpt lat="43.59224" lon="6.63552">
        <ele>279.3</ele>
        <time>2022-09-13T13:01:44Z</time>
      </trkpt>
      <trkpt lat="43.59226" lon="6.63545">
        <ele>280.3</ele>
        <time>2022-09-13T13:01:50Z</time>
      </trkpt>
      <trkpt lat="43.59228" lon="6.63539">
        <ele>280.6</ele>
        <time>2022-09-13T13:01:58Z</time>
      </trkpt>
      <trkpt lat="43.59227" lon="6.63532">
        <ele>281.8</ele>
        <time>2022-09-13T13:02:04Z</time>
      </trkpt>
      <trkpt lat="43.59228" lon="6.63526">
        <ele>283.4</ele>
        <time>2022-09-13T13:02:11Z</time>
      </trkpt>
      <trkpt lat="43.59232" lon="6.63521">
        <ele>283.5</ele>
        <time>2022-09-13T13:02:16Z</time>
      </trkpt>
      <trkpt lat="43.59235" lon="6.63517">
        <ele>282.7</ele>
        <time>2022-09-13T13:02:21Z</time>
      </trkpt>
      <trkpt lat="43.59238" lon="6.63511">
        <ele>282.6</ele>
        <time>2022-09-13T13:02:26Z</time>
      </trkpt>
      <trkpt lat="43.59241" lon="6.63506">
        <ele>282.2</ele>
        <time>2022-09-13T13:02:32Z</time>
      </trkpt>
      <trkpt lat="43.59243" lon="6.635">
        <ele>282.5</ele>
        <time>2022-09-13T13:02:39Z</time>
      </trkpt>
      <trkpt lat="43.59248" lon="6.63497">
        <ele>283.2</ele>
        <time>2022-09-13T13:02:44Z</time>
      </trkpt>
      <trkpt lat="43.59253" lon="6.63494">
        <ele>283.5</ele>
        <time>2022-09-13T13:02:48Z</time>
      </trkpt>
      <trkpt lat="43.59257" lon="6.63493">
        <ele>283.4</ele>
        <time>2022-09-13T13:02:53Z</time>
      </trkpt>
      <trkpt lat="43.59263" lon="6.63494">
        <ele>283.3</ele>
        <time>2022-09-13T13:02:58Z</time>
      </trkpt>
      <trkpt lat="43.59267" lon="6.63493">
        <ele>283.6</ele>
        <time>2022-09-13T13:03:03Z</time>
      </trkpt>
      <trkpt lat="43.59272" lon="6.63493">
        <ele>285</ele>
        <time>2022-09-13T13:03:12Z</time>
      </trkpt>
      <trkpt lat="43.59271" lon="6.63487">
        <ele>286</ele>
        <time>2022-09-13T13:03:22Z</time>
      </trkpt>
      <trkpt lat="43.5927" lon="6.6348">
        <ele>286.6</ele>
        <time>2022-09-13T13:03:29Z</time>
      </trkpt>
      <trkpt lat="43.59271" lon="6.63473">
        <ele>286.3</ele>
        <time>2022-09-13T13:03:37Z</time>
      </trkpt>
      <trkpt lat="43.59272" lon="6.63467">
        <ele>285.5</ele>
        <time>2022-09-13T13:03:42Z</time>
      </trkpt>
      <trkpt lat="43.59275" lon="6.63461">
        <ele>284.6</ele>
        <time>2022-09-13T13:03:48Z</time>
      </trkpt>
      <trkpt lat="43.59277" lon="6.63454">
        <ele>284</ele>
        <time>2022-09-13T13:03:53Z</time>
      </trkpt>
      <trkpt lat="43.59281" lon="6.63449">
        <ele>284.5</ele>
        <time>2022-09-13T13:04:00Z</time>
      </trkpt>
      <trkpt lat="43.59284" lon="6.63444">
        <ele>284.8</ele>
        <time>2022-09-13T13:04:07Z</time>
      </trkpt>
      <trkpt lat="43.59288" lon="6.6344">
        <ele>284.9</ele>
        <time>2022-09-13T13:04:12Z</time>
      </trkpt>
      <trkpt lat="43.59292" lon="6.63436">
        <ele>284.9</ele>
        <time>2022-09-13T13:04:18Z</time>
      </trkpt>
      <trkpt lat="43.59297" lon="6.63432">
        <ele>285</ele>
        <time>2022-09-13T13:04:23Z</time>
      </trkpt>
      <trkpt lat="43.59302" lon="6.6343">
        <ele>284.2</ele>
        <time>2022-09-13T13:04:30Z</time>
      </trkpt>
      <trkpt lat="43.59306" lon="6.63428">
        <ele>283.7</ele>
        <time>2022-09-13T13:04:36Z</time>
      </trkpt>
      <trkpt lat="43.59309" lon="6.63423">
        <ele>283.9</ele>
        <time>2022-09-13T13:04:41Z</time>
      </trkpt>
      <trkpt lat="43.59314" lon="6.63421">
        <ele>284.1</ele>
        <time>2022-09-13T13:04:47Z</time>
      </trkpt>
      <trkpt lat="43.59319" lon="6.6342">
        <ele>284.1</ele>
        <time>2022-09-13T13:04:53Z</time>
      </trkpt>
      <trkpt lat="43.59324" lon="6.63418">
        <ele>284.3</ele>
        <time>2022-09-13T13:04:58Z</time>
      </trkpt>
      <trkpt lat="43.59328" lon="6.63415">
        <ele>284.7</ele>
        <time>2022-09-13T13:05:04Z</time>
      </trkpt>
      <trkpt lat="43.59334" lon="6.63416">
        <ele>286.1</ele>
        <time>2022-09-13T13:05:11Z</time>
      </trkpt>
      <trkpt lat="43.59339" lon="6.63418">
        <ele>286.8</ele>
        <time>2022-09-13T13:05:15Z</time>
      </trkpt>
      <trkpt lat="43.59344" lon="6.63418">
        <ele>288.3</ele>
        <time>2022-09-13T13:05:20Z</time>
      </trkpt>
      <trkpt lat="43.59349" lon="6.63419">
        <ele>289.3</ele>
        <time>2022-09-13T13:05:28Z</time>
      </trkpt>
      <trkpt lat="43.59353" lon="6.63421">
        <ele>290.3</ele>
        <time>2022-09-13T13:05:33Z</time>
      </trkpt>
      <trkpt lat="43.59358" lon="6.63422">
        <ele>291.3</ele>
        <time>2022-09-13T13:05:38Z</time>
      </trkpt>
      <trkpt lat="43.59363" lon="6.63423">
        <ele>292.2</ele>
        <time>2022-09-13T13:05:42Z</time>
      </trkpt>
      <trkpt lat="43.59368" lon="6.63426">
        <ele>293</ele>
        <time>2022-09-13T13:05:47Z</time>
      </trkpt>
      <trkpt lat="43.59373" lon="6.63428">
        <ele>294.3</ele>
        <time>2022-09-13T13:05:53Z</time>
      </trkpt>
      <trkpt lat="43.59377" lon="6.63431">
        <ele>294.9</ele>
        <time>2022-09-13T13:05:59Z</time>
      </trkpt>
      <trkpt lat="43.59381" lon="6.63434">
        <ele>295.4</ele>
        <time>2022-09-13T13:06:05Z</time>
      </trkpt>
      <trkpt lat="43.59385" lon="6.63438">
        <ele>295.7</ele>
        <time>2022-09-13T13:06:11Z</time>
      </trkpt>
      <trkpt lat="43.59389" lon="6.63443">
        <ele>295.5</ele>
        <time>2022-09-13T13:06:17Z</time>
      </trkpt>
      <trkpt lat="43.59394" lon="6.63445">
        <ele>295.9</ele>
        <time>2022-09-13T13:06:22Z</time>
      </trkpt>
      <trkpt lat="43.59398" lon="6.6345">
        <ele>296.5</ele>
        <time>2022-09-13T13:06:28Z</time>
      </trkpt>
      <trkpt lat="43.59401" lon="6.63455">
        <ele>296.6</ele>
        <time>2022-09-13T13:06:35Z</time>
      </trkpt>
      <trkpt lat="43.59405" lon="6.6346">
        <ele>296.7</ele>
        <time>2022-09-13T13:06:40Z</time>
      </trkpt>
      <trkpt lat="43.5941" lon="6.63463">
        <ele>297.4</ele>
        <time>2022-09-13T13:06:44Z</time>
      </trkpt>
      <trkpt lat="43.59415" lon="6.63467">
        <ele>297.8</ele>
        <time>2022-09-13T13:06:49Z</time>
      </trkpt>
      <trkpt lat="43.5942" lon="6.63469">
        <ele>298.1</ele>
        <time>2022-09-13T13:06:55Z</time>
      </trkpt>
      <trkpt lat="43.59424" lon="6.63471">
        <ele>299.6</ele>
        <time>2022-09-13T13:07:01Z</time>
      </trkpt>
      <trkpt lat="43.59429" lon="6.63474">
        <ele>300.5</ele>
        <time>2022-09-13T13:07:05Z</time>
      </trkpt>
      <trkpt lat="43.59433" lon="6.63479">
        <ele>300.5</ele>
        <time>2022-09-13T13:07:10Z</time>
      </trkpt>
      <trkpt lat="43.59437" lon="6.63482">
        <ele>300.5</ele>
        <time>2022-09-13T13:07:15Z</time>
      </trkpt>
      <trkpt lat="43.59441" lon="6.63484">
        <ele>300.7</ele>
        <time>2022-09-13T13:07:19Z</time>
      </trkpt>
      <trkpt lat="43.59446" lon="6.63487">
        <ele>301.2</ele>
        <time>2022-09-13T13:07:25Z</time>
      </trkpt>
      <trkpt lat="43.59449" lon="6.63491">
        <ele>301.6</ele>
        <time>2022-09-13T13:07:30Z</time>
      </trkpt>
      <trkpt lat="43.59454" lon="6.63493">
        <ele>302.2</ele>
        <time>2022-09-13T13:07:35Z</time>
      </trkpt>
      <trkpt lat="43.59459" lon="6.63495">
        <ele>302.2</ele>
        <time>2022-09-13T13:07:40Z</time>
      </trkpt>
      <trkpt lat="43.59464" lon="6.63497">
        <ele>302.1</ele>
        <time>2022-09-13T13:07:45Z</time>
      </trkpt>
      <trkpt lat="43.59468" lon="6.63501">
        <ele>301.4</ele>
        <time>2022-09-13T13:07:50Z</time>
      </trkpt>
      <trkpt lat="43.59472" lon="6.63505">
        <ele>300.9</ele>
        <time>2022-09-13T13:07:54Z</time>
      </trkpt>
      <trkpt lat="43.59476" lon="6.6351">
        <ele>300.3</ele>
        <time>2022-09-13T13:07:58Z</time>
      </trkpt>
      <trkpt lat="43.59479" lon="6.63514">
        <ele>300</ele>
        <time>2022-09-13T13:08:02Z</time>
      </trkpt>
      <trkpt lat="43.59483" lon="6.63519">
        <ele>299.4</ele>
        <time>2022-09-13T13:08:06Z</time>
      </trkpt>
      <trkpt lat="43.59487" lon="6.63524">
        <ele>299.4</ele>
        <time>2022-09-13T13:08:10Z</time>
      </trkpt>
      <trkpt lat="43.59491" lon="6.6353">
        <ele>299</ele>
        <time>2022-09-13T13:08:15Z</time>
      </trkpt>
      <trkpt lat="43.59494" lon="6.63535">
        <ele>298.8</ele>
        <time>2022-09-13T13:08:19Z</time>
      </trkpt>
      <trkpt lat="43.59497" lon="6.63541">
        <ele>298.9</ele>
        <time>2022-09-13T13:08:24Z</time>
      </trkpt>
      <trkpt lat="43.595" lon="6.63546">
        <ele>298.5</ele>
        <time>2022-09-13T13:08:28Z</time>
      </trkpt>
      <trkpt lat="43.59503" lon="6.63552">
        <ele>297.7</ele>
        <time>2022-09-13T13:08:32Z</time>
      </trkpt>
      <trkpt lat="43.59506" lon="6.63557">
        <ele>297.1</ele>
        <time>2022-09-13T13:08:36Z</time>
      </trkpt>
      <trkpt lat="43.59509" lon="6.63563">
        <ele>297.1</ele>
        <time>2022-09-13T13:08:41Z</time>
      </trkpt>
      <trkpt lat="43.59511" lon="6.63568">
        <ele>297.4</ele>
        <time>2022-09-13T13:08:46Z</time>
      </trkpt>
      <trkpt lat="43.59513" lon="6.63574">
        <ele>295.2</ele>
        <time>2022-09-13T13:09:03Z</time>
      </trkpt>
      <trkpt lat="43.59517" lon="6.63577">
        <ele>295.1</ele>
        <time>2022-09-13T13:09:09Z</time>
      </trkpt>
      <trkpt lat="43.5952" lon="6.63582">
        <ele>295.3</ele>
        <time>2022-09-13T13:09:14Z</time>
      </trkpt>
      <trkpt lat="43.59523" lon="6.63587">
        <ele>295.8</ele>
        <time>2022-09-13T13:09:19Z</time>
      </trkpt>
      <trkpt lat="43.59528" lon="6.63591">
        <ele>296.3</ele>
        <time>2022-09-13T13:09:24Z</time>
      </trkpt>
      <trkpt lat="43.59532" lon="6.63595">
        <ele>296.5</ele>
        <time>2022-09-13T13:09:29Z</time>
      </trkpt>
      <trkpt lat="43.59536" lon="6.63599">
        <ele>296.2</ele>
        <time>2022-09-13T13:09:33Z</time>
      </trkpt>
      <trkpt lat="43.5954" lon="6.63603">
        <ele>296.3</ele>
        <time>2022-09-13T13:09:38Z</time>
      </trkpt>
      <trkpt lat="43.59544" lon="6.63606">
        <ele>296.7</ele>
        <time>2022-09-13T13:09:44Z</time>
      </trkpt>
      <trkpt lat="43.59548" lon="6.6361">
        <ele>297.1</ele>
        <time>2022-09-13T13:09:50Z</time>
      </trkpt>
      <trkpt lat="43.59553" lon="6.63612">
        <ele>298</ele>
        <time>2022-09-13T13:09:55Z</time>
      </trkpt>
      <trkpt lat="43.59557" lon="6.63617">
        <ele>298.3</ele>
        <time>2022-09-13T13:10:00Z</time>
      </trkpt>
      <trkpt lat="43.59561" lon="6.63622">
        <ele>298.6</ele>
        <time>2022-09-13T13:10:05Z</time>
      </trkpt>
      <trkpt lat="43.59564" lon="6.63627">
        <ele>299.4</ele>
        <time>2022-09-13T13:10:11Z</time>
      </trkpt>
      <trkpt lat="43.59568" lon="6.6363">
        <ele>300.3</ele>
        <time>2022-09-13T13:10:15Z</time>
      </trkpt>
      <trkpt lat="43.59573" lon="6.63628">
        <ele>298.5</ele>
        <time>2022-09-13T13:10:27Z</time>
      </trkpt>
      <trkpt lat="43.59575" lon="6.63622">
        <ele>298.3</ele>
        <time>2022-09-13T13:10:32Z</time>
      </trkpt>
      <trkpt lat="43.59577" lon="6.63615">
        <ele>297.8</ele>
        <time>2022-09-13T13:10:37Z</time>
      </trkpt>
      <trkpt lat="43.5958" lon="6.63609">
        <ele>297.7</ele>
        <time>2022-09-13T13:10:42Z</time>
      </trkpt>
      <trkpt lat="43.59584" lon="6.63604">
        <ele>297.9</ele>
        <time>2022-09-13T13:10:47Z</time>
      </trkpt>
      <trkpt lat="43.59587" lon="6.63599">
        <ele>298.2</ele>
        <time>2022-09-13T13:11:08Z</time>
      </trkpt>
      <trkpt lat="43.5959" lon="6.63594">
        <ele>299.3</ele>
        <time>2022-09-13T13:11:14Z</time>
      </trkpt>
      <trkpt lat="43.59592" lon="6.63589">
        <ele>299.2</ele>
        <time>2022-09-13T13:11:18Z</time>
      </trkpt>
      <trkpt lat="43.59595" lon="6.63584">
        <ele>299.2</ele>
        <time>2022-09-13T13:11:22Z</time>
      </trkpt>
      <trkpt lat="43.59599" lon="6.63578">
        <ele>299.1</ele>
        <time>2022-09-13T13:11:27Z</time>
      </trkpt>
      <trkpt lat="43.59603" lon="6.63574">
        <ele>299.6</ele>
        <time>2022-09-13T13:11:32Z</time>
      </trkpt>
      <trkpt lat="43.59606" lon="6.63569">
        <ele>299.7</ele>
        <time>2022-09-13T13:11:36Z</time>
      </trkpt>
      <trkpt lat="43.5961" lon="6.63564">
        <ele>299.5</ele>
        <time>2022-09-13T13:11:41Z</time>
      </trkpt>
      <trkpt lat="43.59614" lon="6.63559">
        <ele>299.1</ele>
        <time>2022-09-13T13:11:46Z</time>
      </trkpt>
      <trkpt lat="43.59618" lon="6.63554">
        <ele>299.1</ele>
        <time>2022-09-13T13:11:51Z</time>
      </trkpt>
      <trkpt lat="43.59622" lon="6.63549">
        <ele>299.6</ele>
        <time>2022-09-13T13:11:56Z</time>
      </trkpt>
      <trkpt lat="43.59626" lon="6.63547">
        <ele>300.2</ele>
        <time>2022-09-13T13:12:00Z</time>
      </trkpt>
      <trkpt lat="43.59631" lon="6.63544">
        <ele>300.5</ele>
        <time>2022-09-13T13:12:05Z</time>
      </trkpt>
      <trkpt lat="43.59636" lon="6.63545">
        <ele>300.3</ele>
        <time>2022-09-13T13:12:10Z</time>
      </trkpt>
      <trkpt lat="43.59641" lon="6.63545">
        <ele>299.7</ele>
        <time>2022-09-13T13:12:15Z</time>
      </trkpt>
      <trkpt lat="43.59646" lon="6.63545">
        <ele>298.6</ele>
        <time>2022-09-13T13:12:20Z</time>
      </trkpt>
      <trkpt lat="43.59651" lon="6.63546">
        <ele>297.5</ele>
        <time>2022-09-13T13:12:25Z</time>
      </trkpt>
      <trkpt lat="43.59656" lon="6.63547">
        <ele>296.2</ele>
        <time>2022-09-13T13:12:30Z</time>
      </trkpt>
      <trkpt lat="43.5966" lon="6.63548">
        <ele>295.2</ele>
        <time>2022-09-13T13:12:34Z</time>
      </trkpt>
      <trkpt lat="43.59665" lon="6.6355">
        <ele>294.4</ele>
        <time>2022-09-13T13:12:38Z</time>
      </trkpt>
      <trkpt lat="43.5967" lon="6.63551">
        <ele>293.8</ele>
        <time>2022-09-13T13:12:43Z</time>
      </trkpt>
      <trkpt lat="43.59675" lon="6.6355">
        <ele>293</ele>
        <time>2022-09-13T13:12:48Z</time>
      </trkpt>
      <trkpt lat="43.5968" lon="6.63548">
        <ele>292.6</ele>
        <time>2022-09-13T13:12:53Z</time>
      </trkpt>
      <trkpt lat="43.59684" lon="6.63546">
        <ele>292.4</ele>
        <time>2022-09-13T13:12:58Z</time>
      </trkpt>
      <trkpt lat="43.59689" lon="6.63545">
        <ele>292.3</ele>
        <time>2022-09-13T13:13:02Z</time>
      </trkpt>
      <trkpt lat="43.59694" lon="6.63542">
        <ele>291.8</ele>
        <time>2022-09-13T13:13:06Z</time>
      </trkpt>
      <trkpt lat="43.59698" lon="6.63538">
        <ele>292.1</ele>
        <time>2022-09-13T13:13:10Z</time>
      </trkpt>
      <trkpt lat="43.59702" lon="6.63533">
        <ele>291.8</ele>
        <time>2022-09-13T13:13:15Z</time>
      </trkpt>
      <trkpt lat="43.59707" lon="6.63529">
        <ele>291.8</ele>
        <time>2022-09-13T13:13:20Z</time>
      </trkpt>
      <trkpt lat="43.59711" lon="6.63527">
        <ele>291.6</ele>
        <time>2022-09-13T13:13:24Z</time>
      </trkpt>
      <trkpt lat="43.59715" lon="6.63524">
        <ele>291.5</ele>
        <time>2022-09-13T13:13:28Z</time>
      </trkpt>
      <trkpt lat="43.59719" lon="6.63521">
        <ele>291</ele>
        <time>2022-09-13T13:13:32Z</time>
      </trkpt>
      <trkpt lat="43.59723" lon="6.63518">
        <ele>290.3</ele>
        <time>2022-09-13T13:13:36Z</time>
      </trkpt>
      <trkpt lat="43.59727" lon="6.63515">
        <ele>290</ele>
        <time>2022-09-13T13:13:40Z</time>
      </trkpt>
      <trkpt lat="43.59732" lon="6.63511">
        <ele>289.5</ele>
        <time>2022-09-13T13:13:45Z</time>
      </trkpt>
      <trkpt lat="43.59736" lon="6.63508">
        <ele>289.2</ele>
        <time>2022-09-13T13:13:49Z</time>
      </trkpt>
      <trkpt lat="43.59739" lon="6.63505">
        <ele>289.2</ele>
        <time>2022-09-13T13:13:53Z</time>
      </trkpt>
      <trkpt lat="43.59744" lon="6.63501">
        <ele>288.9</ele>
        <time>2022-09-13T13:13:57Z</time>
      </trkpt>
      <trkpt lat="43.59748" lon="6.63497">
        <ele>288.4</ele>
        <time>2022-09-13T13:14:02Z</time>
      </trkpt>
      <trkpt lat="43.59753" lon="6.63494">
        <ele>287.8</ele>
        <time>2022-09-13T13:14:07Z</time>
      </trkpt>
      <trkpt lat="43.59757" lon="6.63491">
        <ele>287.4</ele>
        <time>2022-09-13T13:14:13Z</time>
      </trkpt>
      <trkpt lat="43.59761" lon="6.63488">
        <ele>287.3</ele>
        <time>2022-09-13T13:14:18Z</time>
      </trkpt>
      <trkpt lat="43.59765" lon="6.63485">
        <ele>286.7</ele>
        <time>2022-09-13T13:14:23Z</time>
      </trkpt>
      <trkpt lat="43.59769" lon="6.63481">
        <ele>285.8</ele>
        <time>2022-09-13T13:14:28Z</time>
      </trkpt>
      <trkpt lat="43.59774" lon="6.63477">
        <ele>284.9</ele>
        <time>2022-09-13T13:14:33Z</time>
      </trkpt>
      <trkpt lat="43.59778" lon="6.63474">
        <ele>285.3</ele>
        <time>2022-09-13T13:14:38Z</time>
      </trkpt>
      <trkpt lat="43.59782" lon="6.63471">
        <ele>285.3</ele>
        <time>2022-09-13T13:14:42Z</time>
      </trkpt>
      <trkpt lat="43.59787" lon="6.63466">
        <ele>284.8</ele>
        <time>2022-09-13T13:14:47Z</time>
      </trkpt>
      <trkpt lat="43.59791" lon="6.63463">
        <ele>284.6</ele>
        <time>2022-09-13T13:14:51Z</time>
      </trkpt>
      <trkpt lat="43.59794" lon="6.63459">
        <ele>284.1</ele>
        <time>2022-09-13T13:14:55Z</time>
      </trkpt>
      <trkpt lat="43.59798" lon="6.63455">
        <ele>284.3</ele>
        <time>2022-09-13T13:15:00Z</time>
      </trkpt>
      <trkpt lat="43.59803" lon="6.63452">
        <ele>284.5</ele>
        <time>2022-09-13T13:15:04Z</time>
      </trkpt>
      <trkpt lat="43.59808" lon="6.63448">
        <ele>284.4</ele>
        <time>2022-09-13T13:15:09Z</time>
      </trkpt>
      <trkpt lat="43.59813" lon="6.63446">
        <ele>283.8</ele>
        <time>2022-09-13T13:15:13Z</time>
      </trkpt>
      <trkpt lat="43.59818" lon="6.63444">
        <ele>282.9</ele>
        <time>2022-09-13T13:15:18Z</time>
      </trkpt>
      <trkpt lat="43.59823" lon="6.63442">
        <ele>282.5</ele>
        <time>2022-09-13T13:15:23Z</time>
      </trkpt>
      <trkpt lat="43.59828" lon="6.63439">
        <ele>282.4</ele>
        <time>2022-09-13T13:15:28Z</time>
      </trkpt>
      <trkpt lat="43.59833" lon="6.63437">
        <ele>282.2</ele>
        <time>2022-09-13T13:15:33Z</time>
      </trkpt>
      <trkpt lat="43.59838" lon="6.63435">
        <ele>281.6</ele>
        <time>2022-09-13T13:15:37Z</time>
      </trkpt>
      <trkpt lat="43.59842" lon="6.63432">
        <ele>281.4</ele>
        <time>2022-09-13T13:15:42Z</time>
      </trkpt>
      <trkpt lat="43.59847" lon="6.6343">
        <ele>281.5</ele>
        <time>2022-09-13T13:15:46Z</time>
      </trkpt>
      <trkpt lat="43.59851" lon="6.63428">
        <ele>281.3</ele>
        <time>2022-09-13T13:15:51Z</time>
      </trkpt>
      <trkpt lat="43.59856" lon="6.63426">
        <ele>280.6</ele>
        <time>2022-09-13T13:15:56Z</time>
      </trkpt>
      <trkpt lat="43.59861" lon="6.63422">
        <ele>280.5</ele>
        <time>2022-09-13T13:16:01Z</time>
      </trkpt>
      <trkpt lat="43.59865" lon="6.63419">
        <ele>280.1</ele>
        <time>2022-09-13T13:16:05Z</time>
      </trkpt>
      <trkpt lat="43.5987" lon="6.63416">
        <ele>279.1</ele>
        <time>2022-09-13T13:16:10Z</time>
      </trkpt>
      <trkpt lat="43.59874" lon="6.63414">
        <ele>278.8</ele>
        <time>2022-09-13T13:16:14Z</time>
      </trkpt>
      <trkpt lat="43.59879" lon="6.6341">
        <ele>278.4</ele>
        <time>2022-09-13T13:16:19Z</time>
      </trkpt>
      <trkpt lat="43.59883" lon="6.63406">
        <ele>278.3</ele>
        <time>2022-09-13T13:16:24Z</time>
      </trkpt>
      <trkpt lat="43.59886" lon="6.63401">
        <ele>278.7</ele>
        <time>2022-09-13T13:16:29Z</time>
      </trkpt>
      <trkpt lat="43.5989" lon="6.63397">
        <ele>279.2</ele>
        <time>2022-09-13T13:16:34Z</time>
      </trkpt>
      <trkpt lat="43.59894" lon="6.63393">
        <ele>279.7</ele>
        <time>2022-09-13T13:16:39Z</time>
      </trkpt>
      <trkpt lat="43.59899" lon="6.6339">
        <ele>279.5</ele>
        <time>2022-09-13T13:16:44Z</time>
      </trkpt>
      <trkpt lat="43.59904" lon="6.63388">
        <ele>278.9</ele>
        <time>2022-09-13T13:16:49Z</time>
      </trkpt>
      <trkpt lat="43.59909" lon="6.63386">
        <ele>278.8</ele>
        <time>2022-09-13T13:16:53Z</time>
      </trkpt>
      <trkpt lat="43.59914" lon="6.63384">
        <ele>278.5</ele>
        <time>2022-09-13T13:16:57Z</time>
      </trkpt>
      <trkpt lat="43.59919" lon="6.63384">
        <ele>278</ele>
        <time>2022-09-13T13:17:02Z</time>
      </trkpt>
      <trkpt lat="43.59924" lon="6.63384">
        <ele>277.7</ele>
        <time>2022-09-13T13:17:07Z</time>
      </trkpt>
      <trkpt lat="43.59929" lon="6.63382">
        <ele>278.1</ele>
        <time>2022-09-13T13:17:13Z</time>
      </trkpt>
      <trkpt lat="43.59933" lon="6.63381">
        <ele>279</ele>
        <time>2022-09-13T13:17:18Z</time>
      </trkpt>
      <trkpt lat="43.59939" lon="6.63379">
        <ele>279.4</ele>
        <time>2022-09-13T13:17:23Z</time>
      </trkpt>
      <trkpt lat="43.59943" lon="6.63379">
        <ele>279.5</ele>
        <time>2022-09-13T13:17:27Z</time>
      </trkpt>
      <trkpt lat="43.59948" lon="6.63379">
        <ele>279.2</ele>
        <time>2022-09-13T13:17:31Z</time>
      </trkpt>
      <trkpt lat="43.59953" lon="6.63378">
        <ele>279.2</ele>
        <time>2022-09-13T13:17:36Z</time>
      </trkpt>
      <trkpt lat="43.59958" lon="6.63378">
        <ele>279.2</ele>
        <time>2022-09-13T13:17:41Z</time>
      </trkpt>
      <trkpt lat="43.59963" lon="6.63379">
        <ele>278.5</ele>
        <time>2022-09-13T13:17:46Z</time>
      </trkpt>
      <trkpt lat="43.59968" lon="6.6338">
        <ele>278.2</ele>
        <time>2022-09-13T13:17:51Z</time>
      </trkpt>
      <trkpt lat="43.59973" lon="6.63379">
        <ele>278.1</ele>
        <time>2022-09-13T13:17:55Z</time>
      </trkpt>
      <trkpt lat="43.59978" lon="6.63379">
        <ele>278.1</ele>
        <time>2022-09-13T13:18:00Z</time>
      </trkpt>
      <trkpt lat="43.59984" lon="6.63379">
        <ele>278</ele>
        <time>2022-09-13T13:18:04Z</time>
      </trkpt>
      <trkpt lat="43.59988" lon="6.6338">
        <ele>278.7</ele>
        <time>2022-09-13T13:18:08Z</time>
      </trkpt>
      <trkpt lat="43.59993" lon="6.6338">
        <ele>279.1</ele>
        <time>2022-09-13T13:18:12Z</time>
      </trkpt>
      <trkpt lat="43.59998" lon="6.63383">
        <ele>278.7</ele>
        <time>2022-09-13T13:18:17Z</time>
      </trkpt>
      <trkpt lat="43.60003" lon="6.63383">
        <ele>278</ele>
        <time>2022-09-13T13:18:22Z</time>
      </trkpt>
      <trkpt lat="43.60008" lon="6.63385">
        <ele>277.3</ele>
        <time>2022-09-13T13:18:27Z</time>
      </trkpt>
      <trkpt lat="43.60013" lon="6.63387">
        <ele>277.1</ele>
        <time>2022-09-13T13:18:32Z</time>
      </trkpt>
      <trkpt lat="43.60017" lon="6.63389">
        <ele>276.5</ele>
        <time>2022-09-13T13:18:36Z</time>
      </trkpt>
      <trkpt lat="43.60023" lon="6.63391">
        <ele>275.7</ele>
        <time>2022-09-13T13:18:41Z</time>
      </trkpt>
      <trkpt lat="43.60028" lon="6.63392">
        <ele>274.8</ele>
        <time>2022-09-13T13:18:46Z</time>
      </trkpt>
      <trkpt lat="43.60032" lon="6.63393">
        <ele>274.4</ele>
        <time>2022-09-13T13:18:50Z</time>
      </trkpt>
      <trkpt lat="43.60038" lon="6.63394">
        <ele>274.7</ele>
        <time>2022-09-13T13:18:54Z</time>
      </trkpt>
      <trkpt lat="43.60042" lon="6.63397">
        <ele>274.7</ele>
        <time>2022-09-13T13:18:58Z</time>
      </trkpt>
      <trkpt lat="43.60047" lon="6.634">
        <ele>275.5</ele>
        <time>2022-09-13T13:19:02Z</time>
      </trkpt>
      <trkpt lat="43.60051" lon="6.63403">
        <ele>275.3</ele>
        <time>2022-09-13T13:19:06Z</time>
      </trkpt>
      <trkpt lat="43.60055" lon="6.63403">
        <ele>275.4</ele>
        <time>2022-09-13T13:19:11Z</time>
      </trkpt>
      <trkpt lat="43.6006" lon="6.63404">
        <ele>275.3</ele>
        <time>2022-09-13T13:19:15Z</time>
      </trkpt>
      <trkpt lat="43.60065" lon="6.63406">
        <ele>274.7</ele>
        <time>2022-09-13T13:19:20Z</time>
      </trkpt>
      <trkpt lat="43.60069" lon="6.63408">
        <ele>274.3</ele>
        <time>2022-09-13T13:19:25Z</time>
      </trkpt>
      <trkpt lat="43.60074" lon="6.63411">
        <ele>273.8</ele>
        <time>2022-09-13T13:19:29Z</time>
      </trkpt>
      <trkpt lat="43.60079" lon="6.63412">
        <ele>273.4</ele>
        <time>2022-09-13T13:19:33Z</time>
      </trkpt>
      <trkpt lat="43.60084" lon="6.63414">
        <ele>272.5</ele>
        <time>2022-09-13T13:19:38Z</time>
      </trkpt>
      <trkpt lat="43.60089" lon="6.63415">
        <ele>271.6</ele>
        <time>2022-09-13T13:19:44Z</time>
      </trkpt>
      <trkpt lat="43.60094" lon="6.63416">
        <ele>271.8</ele>
        <time>2022-09-13T13:19:49Z</time>
      </trkpt>
      <trkpt lat="43.60099" lon="6.6342">
        <ele>273.2</ele>
        <time>2022-09-13T13:19:54Z</time>
      </trkpt>
      <trkpt lat="43.60103" lon="6.63423">
        <ele>273.9</ele>
        <time>2022-09-13T13:20:00Z</time>
      </trkpt>
      <trkpt lat="43.60108" lon="6.63426">
        <ele>274.1</ele>
        <time>2022-09-13T13:20:06Z</time>
      </trkpt>
      <trkpt lat="43.60112" lon="6.6343">
        <ele>274.3</ele>
        <time>2022-09-13T13:20:11Z</time>
      </trkpt>
      <trkpt lat="43.60116" lon="6.63434">
        <ele>274.5</ele>
        <time>2022-09-13T13:20:18Z</time>
      </trkpt>
      <trkpt lat="43.60119" lon="6.6344">
        <ele>274.3</ele>
        <time>2022-09-13T13:20:25Z</time>
      </trkpt>
      <trkpt lat="43.60124" lon="6.63445">
        <ele>273.6</ele>
        <time>2022-09-13T13:20:30Z</time>
      </trkpt>
      <trkpt lat="43.60128" lon="6.63449">
        <ele>274.2</ele>
        <time>2022-09-13T13:20:35Z</time>
      </trkpt>
      <trkpt lat="43.60132" lon="6.63452">
        <ele>274.6</ele>
        <time>2022-09-13T13:20:41Z</time>
      </trkpt>
      <trkpt lat="43.60136" lon="6.63456">
        <ele>275</ele>
        <time>2022-09-13T13:20:47Z</time>
      </trkpt>
      <trkpt lat="43.6014" lon="6.6346">
        <ele>276.4</ele>
        <time>2022-09-13T13:20:55Z</time>
      </trkpt>
      <trkpt lat="43.60145" lon="6.63462">
        <ele>277.6</ele>
        <time>2022-09-13T13:21:02Z</time>
      </trkpt>
      <trkpt lat="43.6015" lon="6.63463">
        <ele>278.1</ele>
        <time>2022-09-13T13:21:09Z</time>
      </trkpt>
      <trkpt lat="43.60154" lon="6.63465">
        <ele>278.6</ele>
        <time>2022-09-13T13:21:14Z</time>
      </trkpt>
      <trkpt lat="43.60159" lon="6.63467">
        <ele>278.9</ele>
        <time>2022-09-13T13:21:19Z</time>
      </trkpt>
      <trkpt lat="43.60163" lon="6.6347">
        <ele>278.9</ele>
        <time>2022-09-13T13:21:23Z</time>
      </trkpt>
      <trkpt lat="43.60168" lon="6.63473">
        <ele>278.7</ele>
        <time>2022-09-13T13:21:27Z</time>
      </trkpt>
      <trkpt lat="43.60172" lon="6.63476">
        <ele>278.8</ele>
        <time>2022-09-13T13:21:32Z</time>
      </trkpt>
      <trkpt lat="43.60176" lon="6.63478">
        <ele>278.4</ele>
        <time>2022-09-13T13:21:37Z</time>
      </trkpt>
      <trkpt lat="43.60181" lon="6.6348">
        <ele>278</ele>
        <time>2022-09-13T13:21:42Z</time>
      </trkpt>
      <trkpt lat="43.60187" lon="6.63482">
        <ele>277.5</ele>
        <time>2022-09-13T13:21:48Z</time>
      </trkpt>
      <trkpt lat="43.60191" lon="6.63484">
        <ele>277.5</ele>
        <time>2022-09-13T13:21:53Z</time>
      </trkpt>
      <trkpt lat="43.60196" lon="6.63485">
        <ele>278.6</ele>
        <time>2022-09-13T13:22:00Z</time>
      </trkpt>
      <trkpt lat="43.60201" lon="6.63486">
        <ele>280.4</ele>
        <time>2022-09-13T13:22:07Z</time>
      </trkpt>
      <trkpt lat="43.60205" lon="6.63488">
        <ele>282.7</ele>
        <time>2022-09-13T13:25:59Z</time>
      </trkpt>
      <trkpt lat="43.60208" lon="6.63493">
        <ele>282.4</ele>
        <time>2022-09-13T13:28:54Z</time>
      </trkpt>
      <trkpt lat="43.60212" lon="6.63497">
        <ele>281.8</ele>
        <time>2022-09-13T13:29:02Z</time>
      </trkpt>
      <trkpt lat="43.60217" lon="6.63499">
        <ele>281.8</ele>
        <time>2022-09-13T13:29:13Z</time>
      </trkpt>
      <trkpt lat="43.60221" lon="6.63501">
        <ele>281.6</ele>
        <time>2022-09-13T13:29:22Z</time>
      </trkpt>
      <trkpt lat="43.60226" lon="6.63502">
        <ele>281.4</ele>
        <time>2022-09-13T13:29:30Z</time>
      </trkpt>
      <trkpt lat="43.6023" lon="6.63504">
        <ele>282.3</ele>
        <time>2022-09-13T13:29:36Z</time>
      </trkpt>
      <trkpt lat="43.60235" lon="6.63506">
        <ele>283.5</ele>
        <time>2022-09-13T13:29:44Z</time>
      </trkpt>
      <trkpt lat="43.60239" lon="6.63509">
        <ele>284.3</ele>
        <time>2022-09-13T13:29:50Z</time>
      </trkpt>
      <trkpt lat="43.60244" lon="6.63512">
        <ele>283.9</ele>
        <time>2022-09-13T13:29:56Z</time>
      </trkpt>
      <trkpt lat="43.60248" lon="6.63512">
        <ele>283.5</ele>
        <time>2022-09-13T13:30:02Z</time>
      </trkpt>
      <trkpt lat="43.60253" lon="6.63513">
        <ele>283.5</ele>
        <time>2022-09-13T13:30:12Z</time>
      </trkpt>
      <trkpt lat="43.6025" lon="6.63519">
        <ele>282</ele>
        <time>2022-09-13T13:30:24Z</time>
      </trkpt>
      <trkpt lat="43.60254" lon="6.63515">
        <ele>285.1</ele>
        <time>2022-09-13T13:30:46Z</time>
      </trkpt>
      <trkpt lat="43.6026" lon="6.63515">
        <ele>285.4</ele>
        <time>2022-09-13T13:30:51Z</time>
      </trkpt>
      <trkpt lat="43.60264" lon="6.63514">
        <ele>285.3</ele>
        <time>2022-09-13T13:30:55Z</time>
      </trkpt>
      <trkpt lat="43.60269" lon="6.63514">
        <ele>285.6</ele>
        <time>2022-09-13T13:31:00Z</time>
      </trkpt>
      <trkpt lat="43.60274" lon="6.63515">
        <ele>285.1</ele>
        <time>2022-09-13T13:31:05Z</time>
      </trkpt>
      <trkpt lat="43.60279" lon="6.63517">
        <ele>285.1</ele>
        <time>2022-09-13T13:31:11Z</time>
      </trkpt>
      <trkpt lat="43.60284" lon="6.63518">
        <ele>285.1</ele>
        <time>2022-09-13T13:31:16Z</time>
      </trkpt>
      <trkpt lat="43.6029" lon="6.63518">
        <ele>285.9</ele>
        <time>2022-09-13T13:31:21Z</time>
      </trkpt>
      <trkpt lat="43.60294" lon="6.63518">
        <ele>286.7</ele>
        <time>2022-09-13T13:31:25Z</time>
      </trkpt>
      <trkpt lat="43.60299" lon="6.63518">
        <ele>287.5</ele>
        <time>2022-09-13T13:31:29Z</time>
      </trkpt>
      <trkpt lat="43.60304" lon="6.63519">
        <ele>288.4</ele>
        <time>2022-09-13T13:31:33Z</time>
      </trkpt>
      <trkpt lat="43.6031" lon="6.63521">
        <ele>288.8</ele>
        <time>2022-09-13T13:31:37Z</time>
      </trkpt>
      <trkpt lat="43.60315" lon="6.63523">
        <ele>288.4</ele>
        <time>2022-09-13T13:31:41Z</time>
      </trkpt>
      <trkpt lat="43.6032" lon="6.63525">
        <ele>288</ele>
        <time>2022-09-13T13:31:46Z</time>
      </trkpt>
      <trkpt lat="43.60325" lon="6.63525">
        <ele>287.7</ele>
        <time>2022-09-13T13:31:50Z</time>
      </trkpt>
      <trkpt lat="43.6033" lon="6.63527">
        <ele>287.5</ele>
        <time>2022-09-13T13:31:54Z</time>
      </trkpt>
      <trkpt lat="43.60335" lon="6.63528">
        <ele>288.1</ele>
        <time>2022-09-13T13:31:58Z</time>
      </trkpt>
      <trkpt lat="43.60339" lon="6.63531">
        <ele>288</ele>
        <time>2022-09-13T13:32:03Z</time>
      </trkpt>
      <trkpt lat="43.60343" lon="6.63534">
        <ele>288.1</ele>
        <time>2022-09-13T13:32:07Z</time>
      </trkpt>
      <trkpt lat="43.60347" lon="6.63537">
        <ele>289</ele>
        <time>2022-09-13T13:32:11Z</time>
      </trkpt>
      <trkpt lat="43.60352" lon="6.6354">
        <ele>290.2</ele>
        <time>2022-09-13T13:32:16Z</time>
      </trkpt>
      <trkpt lat="43.60357" lon="6.63543">
        <ele>291.1</ele>
        <time>2022-09-13T13:32:21Z</time>
      </trkpt>
      <trkpt lat="43.60361" lon="6.63546">
        <ele>291.5</ele>
        <time>2022-09-13T13:32:25Z</time>
      </trkpt>
      <trkpt lat="43.60366" lon="6.63549">
        <ele>291.3</ele>
        <time>2022-09-13T13:32:29Z</time>
      </trkpt>
      <trkpt lat="43.60371" lon="6.63553">
        <ele>291.3</ele>
        <time>2022-09-13T13:32:34Z</time>
      </trkpt>
      <trkpt lat="43.60375" lon="6.63557">
        <ele>291.2</ele>
        <time>2022-09-13T13:32:39Z</time>
      </trkpt>
      <trkpt lat="43.60379" lon="6.6356">
        <ele>291.1</ele>
        <time>2022-09-13T13:32:45Z</time>
      </trkpt>
      <trkpt lat="43.60384" lon="6.63563">
        <ele>290.9</ele>
        <time>2022-09-13T13:32:51Z</time>
      </trkpt>
      <trkpt lat="43.60389" lon="6.63566">
        <ele>290.7</ele>
        <time>2022-09-13T13:32:56Z</time>
      </trkpt>
      <trkpt lat="43.60393" lon="6.63571">
        <ele>290.3</ele>
        <time>2022-09-13T13:33:01Z</time>
      </trkpt>
      <trkpt lat="43.60397" lon="6.63574">
        <ele>290.1</ele>
        <time>2022-09-13T13:33:05Z</time>
      </trkpt>
      <trkpt lat="43.60401" lon="6.63578">
        <ele>289.8</ele>
        <time>2022-09-13T13:33:10Z</time>
      </trkpt>
      <trkpt lat="43.60404" lon="6.63583">
        <ele>289.6</ele>
        <time>2022-09-13T13:33:16Z</time>
      </trkpt>
      <trkpt lat="43.60407" lon="6.63588">
        <ele>289.7</ele>
        <time>2022-09-13T13:33:21Z</time>
      </trkpt>
      <trkpt lat="43.6041" lon="6.63594">
        <ele>289.7</ele>
        <time>2022-09-13T13:33:27Z</time>
      </trkpt>
      <trkpt lat="43.6041" lon="6.63601">
        <ele>290.6</ele>
        <time>2022-09-13T13:33:36Z</time>
      </trkpt>
      <trkpt lat="43.6041" lon="6.63607">
        <ele>291.5</ele>
        <time>2022-09-13T13:33:43Z</time>
      </trkpt>
      <trkpt lat="43.60408" lon="6.63614">
        <ele>291.8</ele>
        <time>2022-09-13T13:33:51Z</time>
      </trkpt>
      <trkpt lat="43.60409" lon="6.6362">
        <ele>294.4</ele>
        <time>2022-09-13T13:34:03Z</time>
      </trkpt>
      <trkpt lat="43.60409" lon="6.63627">
        <ele>295.7</ele>
        <time>2022-09-13T13:34:12Z</time>
      </trkpt>
      <trkpt lat="43.60408" lon="6.63634">
        <ele>296.8</ele>
        <time>2022-09-13T13:34:18Z</time>
      </trkpt>
      <trkpt lat="43.60409" lon="6.6364">
        <ele>297.7</ele>
        <time>2022-09-13T13:34:23Z</time>
      </trkpt>
      <trkpt lat="43.6041" lon="6.63647">
        <ele>299.1</ele>
        <time>2022-09-13T13:34:30Z</time>
      </trkpt>
      <trkpt lat="43.60411" lon="6.63653">
        <ele>300.6</ele>
        <time>2022-09-13T13:34:37Z</time>
      </trkpt>
      <trkpt lat="43.60414" lon="6.6366">
        <ele>301.9</ele>
        <time>2022-09-13T13:34:44Z</time>
      </trkpt>
      <trkpt lat="43.60416" lon="6.63666">
        <ele>302.1</ele>
        <time>2022-09-13T13:34:51Z</time>
      </trkpt>
      <trkpt lat="43.60418" lon="6.63672">
        <ele>301.5</ele>
        <time>2022-09-13T13:34:56Z</time>
      </trkpt>
      <trkpt lat="43.6042" lon="6.63677">
        <ele>301.4</ele>
        <time>2022-09-13T13:35:02Z</time>
      </trkpt>
      <trkpt lat="43.60422" lon="6.63683">
        <ele>301.6</ele>
        <time>2022-09-13T13:35:09Z</time>
      </trkpt>
      <trkpt lat="43.60424" lon="6.63689">
        <ele>302.6</ele>
        <time>2022-09-13T13:35:16Z</time>
      </trkpt>
      <trkpt lat="43.60425" lon="6.63696">
        <ele>303</ele>
        <time>2022-09-13T13:35:22Z</time>
      </trkpt>
      <trkpt lat="43.60427" lon="6.63702">
        <ele>302.1</ele>
        <time>2022-09-13T13:35:28Z</time>
      </trkpt>
      <trkpt lat="43.60428" lon="6.63709">
        <ele>301.9</ele>
        <time>2022-09-13T13:35:35Z</time>
      </trkpt>
      <trkpt lat="43.6043" lon="6.63715">
        <ele>302.5</ele>
        <time>2022-09-13T13:35:41Z</time>
      </trkpt>
      <trkpt lat="43.60431" lon="6.63721">
        <ele>303.4</ele>
        <time>2022-09-13T13:35:47Z</time>
      </trkpt>
      <trkpt lat="43.60434" lon="6.63726">
        <ele>304.4</ele>
        <time>2022-09-13T13:35:55Z</time>
      </trkpt>
      <trkpt lat="43.60436" lon="6.63732">
        <ele>305.7</ele>
        <time>2022-09-13T13:36:05Z</time>
      </trkpt>
      <trkpt lat="43.60438" lon="6.63738">
        <ele>306.7</ele>
        <time>2022-09-13T13:36:11Z</time>
      </trkpt>
      <trkpt lat="43.6044" lon="6.63744">
        <ele>307.5</ele>
        <time>2022-09-13T13:36:19Z</time>
      </trkpt>
      <trkpt lat="43.60441" lon="6.63751">
        <ele>308.2</ele>
        <time>2022-09-13T13:36:26Z</time>
      </trkpt>
      <trkpt lat="43.60442" lon="6.63757">
        <ele>309.3</ele>
        <time>2022-09-13T13:36:32Z</time>
      </trkpt>
      <trkpt lat="43.60441" lon="6.63764">
        <ele>310.3</ele>
        <time>2022-09-13T13:36:39Z</time>
      </trkpt>
      <trkpt lat="43.6044" lon="6.63771">
        <ele>310.9</ele>
        <time>2022-09-13T13:36:45Z</time>
      </trkpt>
      <trkpt lat="43.6044" lon="6.63777">
        <ele>311.7</ele>
        <time>2022-09-13T13:36:51Z</time>
      </trkpt>
      <trkpt lat="43.60439" lon="6.63784">
        <ele>312.7</ele>
        <time>2022-09-13T13:36:57Z</time>
      </trkpt>
      <trkpt lat="43.60437" lon="6.63789">
        <ele>313.8</ele>
        <time>2022-09-13T13:37:03Z</time>
      </trkpt>
      <trkpt lat="43.60434" lon="6.63795">
        <ele>314.4</ele>
        <time>2022-09-13T13:37:08Z</time>
      </trkpt>
      <trkpt lat="43.60433" lon="6.63801">
        <ele>314.9</ele>
        <time>2022-09-13T13:37:14Z</time>
      </trkpt>
      <trkpt lat="43.60434" lon="6.63808">
        <ele>316.3</ele>
        <time>2022-09-13T13:37:22Z</time>
      </trkpt>
      <trkpt lat="43.60435" lon="6.63815">
        <ele>317.2</ele>
        <time>2022-09-13T13:37:29Z</time>
      </trkpt>
      <trkpt lat="43.60436" lon="6.63821">
        <ele>318.4</ele>
        <time>2022-09-13T13:37:36Z</time>
      </trkpt>
      <trkpt lat="43.60435" lon="6.63827">
        <ele>317.8</ele>
        <time>2022-09-13T13:37:44Z</time>
      </trkpt>
      <trkpt lat="43.60436" lon="6.63835">
        <ele>318.5</ele>
        <time>2022-09-13T13:37:55Z</time>
      </trkpt>
      <trkpt lat="43.60437" lon="6.63842">
        <ele>318.6</ele>
        <time>2022-09-13T13:38:01Z</time>
      </trkpt>
      <trkpt lat="43.60439" lon="6.63849">
        <ele>320.3</ele>
        <time>2022-09-13T13:38:06Z</time>
      </trkpt>
      <trkpt lat="43.60441" lon="6.63855">
        <ele>322.3</ele>
        <time>2022-09-13T13:38:11Z</time>
      </trkpt>
      <trkpt lat="43.60443" lon="6.63861">
        <ele>323.5</ele>
        <time>2022-09-13T13:38:15Z</time>
      </trkpt>
      <trkpt lat="43.60444" lon="6.63868">
        <ele>325</ele>
        <time>2022-09-13T13:38:20Z</time>
      </trkpt>
      <trkpt lat="43.60444" lon="6.63875">
        <ele>325.7</ele>
        <time>2022-09-13T13:38:25Z</time>
      </trkpt>
      <trkpt lat="43.60444" lon="6.63882">
        <ele>326.3</ele>
        <time>2022-09-13T13:38:29Z</time>
      </trkpt>
      <trkpt lat="43.60443" lon="6.63888">
        <ele>326.8</ele>
        <time>2022-09-13T13:38:33Z</time>
      </trkpt>
      <trkpt lat="43.60443" lon="6.63896">
        <ele>327.7</ele>
        <time>2022-09-13T13:38:38Z</time>
      </trkpt>
      <trkpt lat="43.60442" lon="6.63903">
        <ele>328.6</ele>
        <time>2022-09-13T13:38:43Z</time>
      </trkpt>
      <trkpt lat="43.60442" lon="6.63909">
        <ele>328.9</ele>
        <time>2022-09-13T13:38:47Z</time>
      </trkpt>
      <trkpt lat="43.60442" lon="6.63916">
        <ele>328.8</ele>
        <time>2022-09-13T13:38:51Z</time>
      </trkpt>
      <trkpt lat="43.60441" lon="6.63923">
        <ele>329</ele>
        <time>2022-09-13T13:38:57Z</time>
      </trkpt>
      <trkpt lat="43.60438" lon="6.63928">
        <ele>329</ele>
        <time>2022-09-13T13:39:02Z</time>
      </trkpt>
      <trkpt lat="43.60435" lon="6.63934">
        <ele>328.3</ele>
        <time>2022-09-13T13:39:07Z</time>
      </trkpt>
      <trkpt lat="43.60431" lon="6.63938">
        <ele>328.4</ele>
        <time>2022-09-13T13:39:12Z</time>
      </trkpt>
      <trkpt lat="43.60428" lon="6.63945">
        <ele>327.8</ele>
        <time>2022-09-13T13:39:17Z</time>
      </trkpt>
      <trkpt lat="43.60426" lon="6.63951">
        <ele>327.3</ele>
        <time>2022-09-13T13:39:21Z</time>
      </trkpt>
      <trkpt lat="43.60423" lon="6.63956">
        <ele>326.4</ele>
        <time>2022-09-13T13:39:25Z</time>
      </trkpt>
      <trkpt lat="43.6042" lon="6.63962">
        <ele>325.1</ele>
        <time>2022-09-13T13:39:29Z</time>
      </trkpt>
      <trkpt lat="43.60418" lon="6.63968">
        <ele>323.9</ele>
        <time>2022-09-13T13:39:34Z</time>
      </trkpt>
      <trkpt lat="43.60415" lon="6.63974">
        <ele>324</ele>
        <time>2022-09-13T13:39:38Z</time>
      </trkpt>
      <trkpt lat="43.60412" lon="6.6398">
        <ele>324</ele>
        <time>2022-09-13T13:39:43Z</time>
      </trkpt>
      <trkpt lat="43.60408" lon="6.63983">
        <ele>323.3</ele>
        <time>2022-09-13T13:39:48Z</time>
      </trkpt>
      <trkpt lat="43.60405" lon="6.63988">
        <ele>322.7</ele>
        <time>2022-09-13T13:39:54Z</time>
      </trkpt>
      <trkpt lat="43.60403" lon="6.63994">
        <ele>322.5</ele>
        <time>2022-09-13T13:40:00Z</time>
      </trkpt>
      <trkpt lat="43.60403" lon="6.64001">
        <ele>322.3</ele>
        <time>2022-09-13T13:40:04Z</time>
      </trkpt>
      <trkpt lat="43.60403" lon="6.64008">
        <ele>322</ele>
        <time>2022-09-13T13:40:09Z</time>
      </trkpt>
      <trkpt lat="43.60403" lon="6.64014">
        <ele>321.9</ele>
        <time>2022-09-13T13:40:13Z</time>
      </trkpt>
      <trkpt lat="43.60405" lon="6.6402">
        <ele>322.1</ele>
        <time>2022-09-13T13:40:18Z</time>
      </trkpt>
      <trkpt lat="43.60407" lon="6.64026">
        <ele>321.6</ele>
        <time>2022-09-13T13:40:23Z</time>
      </trkpt>
      <trkpt lat="43.6041" lon="6.64032">
        <ele>321.1</ele>
        <time>2022-09-13T13:40:28Z</time>
      </trkpt>
      <trkpt lat="43.60411" lon="6.64038">
        <ele>321.6</ele>
        <time>2022-09-13T13:40:33Z</time>
      </trkpt>
      <trkpt lat="43.60413" lon="6.64045">
        <ele>322.4</ele>
        <time>2022-09-13T13:40:39Z</time>
      </trkpt>
      <trkpt lat="43.60415" lon="6.6405">
        <ele>322.6</ele>
        <time>2022-09-13T13:40:43Z</time>
      </trkpt>
      <trkpt lat="43.60417" lon="6.64056">
        <ele>322.9</ele>
        <time>2022-09-13T13:40:47Z</time>
      </trkpt>
      <trkpt lat="43.60421" lon="6.64062">
        <ele>322.9</ele>
        <time>2022-09-13T13:40:51Z</time>
      </trkpt>
      <trkpt lat="43.60424" lon="6.64067">
        <ele>322.8</ele>
        <time>2022-09-13T13:40:55Z</time>
      </trkpt>
      <trkpt lat="43.60426" lon="6.64074">
        <ele>323.2</ele>
        <time>2022-09-13T13:41:00Z</time>
      </trkpt>
      <trkpt lat="43.60427" lon="6.6408">
        <ele>323.6</ele>
        <time>2022-09-13T13:41:05Z</time>
      </trkpt>
      <trkpt lat="43.60429" lon="6.64086">
        <ele>324.9</ele>
        <time>2022-09-13T13:41:10Z</time>
      </trkpt>
      <trkpt lat="43.60432" lon="6.64091">
        <ele>325.8</ele>
        <time>2022-09-13T13:41:15Z</time>
      </trkpt>
      <trkpt lat="43.60434" lon="6.64097">
        <ele>326.2</ele>
        <time>2022-09-13T13:41:20Z</time>
      </trkpt>
      <trkpt lat="43.60434" lon="6.64104">
        <ele>327</ele>
        <time>2022-09-13T13:41:26Z</time>
      </trkpt>
      <trkpt lat="43.60437" lon="6.6411">
        <ele>328.1</ele>
        <time>2022-09-13T13:41:33Z</time>
      </trkpt>
      <trkpt lat="43.6044" lon="6.64115">
        <ele>329.5</ele>
        <time>2022-09-13T13:41:39Z</time>
      </trkpt>
      <trkpt lat="43.60445" lon="6.64118">
        <ele>331.3</ele>
        <time>2022-09-13T13:41:45Z</time>
      </trkpt>
      <trkpt lat="43.60449" lon="6.64121">
        <ele>332.5</ele>
        <time>2022-09-13T13:41:50Z</time>
      </trkpt>
      <trkpt lat="43.60454" lon="6.64124">
        <ele>333.6</ele>
        <time>2022-09-13T13:41:58Z</time>
      </trkpt>
      <trkpt lat="43.60459" lon="6.6413">
        <ele>334.7</ele>
        <time>2022-09-13T13:42:03Z</time>
      </trkpt>
      <trkpt lat="43.60462" lon="6.64135">
        <ele>335.1</ele>
        <time>2022-09-13T13:42:07Z</time>
      </trkpt>
      <trkpt lat="43.60465" lon="6.64141">
        <ele>335</ele>
        <time>2022-09-13T13:42:12Z</time>
      </trkpt>
      <trkpt lat="43.60467" lon="6.64148">
        <ele>335.4</ele>
        <time>2022-09-13T13:42:16Z</time>
      </trkpt>
      <trkpt lat="43.60469" lon="6.64155">
        <ele>335.8</ele>
        <time>2022-09-13T13:42:20Z</time>
      </trkpt>
      <trkpt lat="43.60471" lon="6.64161">
        <ele>336.3</ele>
        <time>2022-09-13T13:42:24Z</time>
      </trkpt>
      <trkpt lat="43.60472" lon="6.64167">
        <ele>336.7</ele>
        <time>2022-09-13T13:42:28Z</time>
      </trkpt>
      <trkpt lat="43.60475" lon="6.64174">
        <ele>336.6</ele>
        <time>2022-09-13T13:42:33Z</time>
      </trkpt>
      <trkpt lat="43.60477" lon="6.64181">
        <ele>336.6</ele>
        <time>2022-09-13T13:42:38Z</time>
      </trkpt>
      <trkpt lat="43.60477" lon="6.64188">
        <ele>336.8</ele>
        <time>2022-09-13T13:42:43Z</time>
      </trkpt>
      <trkpt lat="43.60477" lon="6.64194">
        <ele>337</ele>
        <time>2022-09-13T13:42:47Z</time>
      </trkpt>
      <trkpt lat="43.60478" lon="6.64201">
        <ele>337.1</ele>
        <time>2022-09-13T13:42:51Z</time>
      </trkpt>
      <trkpt lat="43.60478" lon="6.64208">
        <ele>337</ele>
        <time>2022-09-13T13:42:55Z</time>
      </trkpt>
      <trkpt lat="43.60478" lon="6.64214">
        <ele>336.8</ele>
        <time>2022-09-13T13:42:59Z</time>
      </trkpt>
      <trkpt lat="43.60479" lon="6.64221">
        <ele>336.5</ele>
        <time>2022-09-13T13:43:04Z</time>
      </trkpt>
      <trkpt lat="43.60479" lon="6.64229">
        <ele>335.3</ele>
        <time>2022-09-13T13:43:09Z</time>
      </trkpt>
      <trkpt lat="43.60477" lon="6.64236">
        <ele>334.1</ele>
        <time>2022-09-13T13:43:14Z</time>
      </trkpt>
      <trkpt lat="43.60476" lon="6.64243">
        <ele>331.8</ele>
        <time>2022-09-13T13:43:19Z</time>
      </trkpt>
      <trkpt lat="43.60473" lon="6.6425">
        <ele>330.2</ele>
        <time>2022-09-13T13:43:24Z</time>
      </trkpt>
      <trkpt lat="43.6047" lon="6.64255">
        <ele>329.7</ele>
        <time>2022-09-13T13:43:29Z</time>
      </trkpt>
      <trkpt lat="43.60468" lon="6.64262">
        <ele>329.2</ele>
        <time>2022-09-13T13:43:34Z</time>
      </trkpt>
      <trkpt lat="43.60466" lon="6.64268">
        <ele>328.8</ele>
        <time>2022-09-13T13:43:39Z</time>
      </trkpt>
      <trkpt lat="43.60464" lon="6.64275">
        <ele>328.3</ele>
        <time>2022-09-13T13:43:44Z</time>
      </trkpt>
      <trkpt lat="43.60463" lon="6.6428">
        <ele>327.8</ele>
        <time>2022-09-13T13:43:48Z</time>
      </trkpt>
      <trkpt lat="43.60461" lon="6.64287">
        <ele>327.8</ele>
        <time>2022-09-13T13:43:53Z</time>
      </trkpt>
      <trkpt lat="43.6046" lon="6.64293">
        <ele>327.9</ele>
        <time>2022-09-13T13:43:58Z</time>
      </trkpt>
      <trkpt lat="43.60458" lon="6.643">
        <ele>328</ele>
        <time>2022-09-13T13:44:03Z</time>
      </trkpt>
      <trkpt lat="43.60455" lon="6.64305">
        <ele>328.3</ele>
        <time>2022-09-13T13:44:08Z</time>
      </trkpt>
      <trkpt lat="43.60452" lon="6.64309">
        <ele>327.5</ele>
        <time>2022-09-13T13:44:13Z</time>
      </trkpt>
      <trkpt lat="43.60448" lon="6.64313">
        <ele>326.9</ele>
        <time>2022-09-13T13:44:18Z</time>
      </trkpt>
      <trkpt lat="43.60444" lon="6.64319">
        <ele>326.4</ele>
        <time>2022-09-13T13:44:24Z</time>
      </trkpt>
      <trkpt lat="43.60441" lon="6.64324">
        <ele>325.5</ele>
        <time>2022-09-13T13:44:28Z</time>
      </trkpt>
      <trkpt lat="43.60439" lon="6.6433">
        <ele>324.7</ele>
        <time>2022-09-13T13:44:33Z</time>
      </trkpt>
      <trkpt lat="43.60435" lon="6.64334">
        <ele>323.2</ele>
        <time>2022-09-13T13:44:38Z</time>
      </trkpt>
      <trkpt lat="43.60432" lon="6.64339">
        <ele>322.7</ele>
        <time>2022-09-13T13:44:43Z</time>
      </trkpt>
      <trkpt lat="43.60429" lon="6.64345">
        <ele>322.9</ele>
        <time>2022-09-13T13:44:48Z</time>
      </trkpt>
      <trkpt lat="43.60426" lon="6.64351">
        <ele>323</ele>
        <time>2022-09-13T13:44:53Z</time>
      </trkpt>
      <trkpt lat="43.60423" lon="6.64356">
        <ele>322.8</ele>
        <time>2022-09-13T13:44:58Z</time>
      </trkpt>
      <trkpt lat="43.60419" lon="6.64361">
        <ele>321.9</ele>
        <time>2022-09-13T13:45:03Z</time>
      </trkpt>
      <trkpt lat="43.60416" lon="6.64367">
        <ele>320.8</ele>
        <time>2022-09-13T13:45:08Z</time>
      </trkpt>
      <trkpt lat="43.60413" lon="6.64372">
        <ele>320.3</ele>
        <time>2022-09-13T13:45:12Z</time>
      </trkpt>
      <trkpt lat="43.6041" lon="6.64377">
        <ele>320.4</ele>
        <time>2022-09-13T13:45:16Z</time>
      </trkpt>
      <trkpt lat="43.60407" lon="6.64382">
        <ele>319.9</ele>
        <time>2022-09-13T13:45:21Z</time>
      </trkpt>
      <trkpt lat="43.60404" lon="6.64387">
        <ele>319.6</ele>
        <time>2022-09-13T13:45:25Z</time>
      </trkpt>
      <trkpt lat="43.604" lon="6.64392">
        <ele>319.4</ele>
        <time>2022-09-13T13:45:30Z</time>
      </trkpt>
      <trkpt lat="43.60396" lon="6.64397">
        <ele>319</ele>
        <time>2022-09-13T13:45:35Z</time>
      </trkpt>
      <trkpt lat="43.60393" lon="6.64403">
        <ele>318.3</ele>
        <time>2022-09-13T13:45:40Z</time>
      </trkpt>
      <trkpt lat="43.60389" lon="6.64407">
        <ele>318.7</ele>
        <time>2022-09-13T13:45:44Z</time>
      </trkpt>
      <trkpt lat="43.60385" lon="6.64413">
        <ele>318.3</ele>
        <time>2022-09-13T13:45:48Z</time>
      </trkpt>
      <trkpt lat="43.60381" lon="6.64418">
        <ele>317.9</ele>
        <time>2022-09-13T13:45:52Z</time>
      </trkpt>
      <trkpt lat="43.60378" lon="6.64424">
        <ele>317.7</ele>
        <time>2022-09-13T13:45:56Z</time>
      </trkpt>
      <trkpt lat="43.60376" lon="6.64431">
        <ele>317.3</ele>
        <time>2022-09-13T13:46:01Z</time>
      </trkpt>
      <trkpt lat="43.60372" lon="6.64437">
        <ele>317</ele>
        <time>2022-09-13T13:46:06Z</time>
      </trkpt>
      <trkpt lat="43.60369" lon="6.64441">
        <ele>316.8</ele>
        <time>2022-09-13T13:46:10Z</time>
      </trkpt>
      <trkpt lat="43.60365" lon="6.64446">
        <ele>316.8</ele>
        <time>2022-09-13T13:46:15Z</time>
      </trkpt>
      <trkpt lat="43.60362" lon="6.64451">
        <ele>317.5</ele>
        <time>2022-09-13T13:46:22Z</time>
      </trkpt>
      <trkpt lat="43.60359" lon="6.64457">
        <ele>318.6</ele>
        <time>2022-09-13T13:46:26Z</time>
      </trkpt>
      <trkpt lat="43.60356" lon="6.64463">
        <ele>319.3</ele>
        <time>2022-09-13T13:46:30Z</time>
      </trkpt>
      <trkpt lat="43.60352" lon="6.64468">
        <ele>319.4</ele>
        <time>2022-09-13T13:46:35Z</time>
      </trkpt>
      <trkpt lat="43.60349" lon="6.64474">
        <ele>318.6</ele>
        <time>2022-09-13T13:46:39Z</time>
      </trkpt>
      <trkpt lat="43.60345" lon="6.64478">
        <ele>317.6</ele>
        <time>2022-09-13T13:46:43Z</time>
      </trkpt>
      <trkpt lat="43.60343" lon="6.64485">
        <ele>316.1</ele>
        <time>2022-09-13T13:46:48Z</time>
      </trkpt>
      <trkpt lat="43.6034" lon="6.6449">
        <ele>315.5</ele>
        <time>2022-09-13T13:46:53Z</time>
      </trkpt>
      <trkpt lat="43.60336" lon="6.64494">
        <ele>314.6</ele>
        <time>2022-09-13T13:46:58Z</time>
      </trkpt>
      <trkpt lat="43.60333" lon="6.64499">
        <ele>314.1</ele>
        <time>2022-09-13T13:47:02Z</time>
      </trkpt>
      <trkpt lat="43.6033" lon="6.64505">
        <ele>314</ele>
        <time>2022-09-13T13:47:06Z</time>
      </trkpt>
      <trkpt lat="43.60327" lon="6.6451">
        <ele>313.8</ele>
        <time>2022-09-13T13:47:10Z</time>
      </trkpt>
      <trkpt lat="43.60323" lon="6.64514">
        <ele>313.7</ele>
        <time>2022-09-13T13:47:15Z</time>
      </trkpt>
      <trkpt lat="43.60319" lon="6.64518">
        <ele>312.8</ele>
        <time>2022-09-13T13:47:20Z</time>
      </trkpt>
      <trkpt lat="43.60315" lon="6.6452">
        <ele>317.2</ele>
        <time>2022-09-13T13:48:27Z</time>
      </trkpt>
      <trkpt lat="43.60312" lon="6.64525">
        <ele>312.9</ele>
        <time>2022-09-13T13:51:09Z</time>
      </trkpt>
      <trkpt lat="43.60307" lon="6.64527">
        <ele>311.6</ele>
        <time>2022-09-13T13:51:15Z</time>
      </trkpt>
      <trkpt lat="43.60302" lon="6.64529">
        <ele>310.3</ele>
        <time>2022-09-13T13:51:21Z</time>
      </trkpt>
      <trkpt lat="43.60296" lon="6.64531">
        <ele>310.2</ele>
        <time>2022-09-13T13:51:28Z</time>
      </trkpt>
      <trkpt lat="43.60292" lon="6.64534">
        <ele>310.5</ele>
        <time>2022-09-13T13:51:32Z</time>
      </trkpt>
      <trkpt lat="43.60287" lon="6.64535">
        <ele>309.2</ele>
        <time>2022-09-13T13:51:36Z</time>
      </trkpt>
      <trkpt lat="43.60282" lon="6.64537">
        <ele>307.8</ele>
        <time>2022-09-13T13:51:40Z</time>
      </trkpt>
      <trkpt lat="43.60277" lon="6.64537">
        <ele>306.4</ele>
        <time>2022-09-13T13:51:45Z</time>
      </trkpt>
      <trkpt lat="43.60272" lon="6.64538">
        <ele>305</ele>
        <time>2022-09-13T13:51:50Z</time>
      </trkpt>
      <trkpt lat="43.60267" lon="6.64539">
        <ele>303.8</ele>
        <time>2022-09-13T13:51:55Z</time>
      </trkpt>
      <trkpt lat="43.60262" lon="6.6454">
        <ele>303.3</ele>
        <time>2022-09-13T13:52:00Z</time>
      </trkpt>
      <trkpt lat="43.60258" lon="6.64542">
        <ele>303.1</ele>
        <time>2022-09-13T13:52:04Z</time>
      </trkpt>
      <trkpt lat="43.60253" lon="6.64544">
        <ele>302.8</ele>
        <time>2022-09-13T13:52:08Z</time>
      </trkpt>
      <trkpt lat="43.60249" lon="6.64547">
        <ele>303</ele>
        <time>2022-09-13T13:52:13Z</time>
      </trkpt>
      <trkpt lat="43.60244" lon="6.64551">
        <ele>304</ele>
        <time>2022-09-13T13:52:18Z</time>
      </trkpt>
      <trkpt lat="43.6024" lon="6.64555">
        <ele>304.2</ele>
        <time>2022-09-13T13:52:23Z</time>
      </trkpt>
      <trkpt lat="43.60235" lon="6.64559">
        <ele>303.9</ele>
        <time>2022-09-13T13:52:29Z</time>
      </trkpt>
      <trkpt lat="43.6023" lon="6.64562">
        <ele>303.4</ele>
        <time>2022-09-13T13:52:34Z</time>
      </trkpt>
      <trkpt lat="43.60225" lon="6.64564">
        <ele>303.4</ele>
        <time>2022-09-13T13:52:40Z</time>
      </trkpt>
      <trkpt lat="43.6022" lon="6.64566">
        <ele>303.6</ele>
        <time>2022-09-13T13:52:44Z</time>
      </trkpt>
      <trkpt lat="43.60216" lon="6.64568">
        <ele>304</ele>
        <time>2022-09-13T13:52:48Z</time>
      </trkpt>
      <trkpt lat="43.60211" lon="6.64571">
        <ele>304.9</ele>
        <time>2022-09-13T13:52:53Z</time>
      </trkpt>
      <trkpt lat="43.60207" lon="6.64574">
        <ele>305.9</ele>
        <time>2022-09-13T13:52:57Z</time>
      </trkpt>
      <trkpt lat="43.60202" lon="6.64578">
        <ele>307.4</ele>
        <time>2022-09-13T13:53:02Z</time>
      </trkpt>
      <trkpt lat="43.60198" lon="6.64583">
        <ele>308.6</ele>
        <time>2022-09-13T13:53:06Z</time>
      </trkpt>
      <trkpt lat="43.60196" lon="6.64587">
        <ele>309.6</ele>
        <time>2022-09-13T13:53:09Z</time>
      </trkpt>
      <trkpt lat="43.60193" lon="6.64594">
        <ele>310.3</ele>
        <time>2022-09-13T13:53:13Z</time>
      </trkpt>
      <trkpt lat="43.6019" lon="6.64599">
        <ele>311.2</ele>
        <time>2022-09-13T13:53:17Z</time>
      </trkpt>
      <trkpt lat="43.60189" lon="6.64606">
        <ele>312.1</ele>
        <time>2022-09-13T13:53:22Z</time>
      </trkpt>
      <trkpt lat="43.60188" lon="6.64612">
        <ele>312</ele>
        <time>2022-09-13T13:53:27Z</time>
      </trkpt>
      <trkpt lat="43.60187" lon="6.64619">
        <ele>311.8</ele>
        <time>2022-09-13T13:53:31Z</time>
      </trkpt>
      <trkpt lat="43.60186" lon="6.64626">
        <ele>311</ele>
        <time>2022-09-13T13:53:35Z</time>
      </trkpt>
      <trkpt lat="43.60185" lon="6.64632">
        <ele>310.2</ele>
        <time>2022-09-13T13:53:39Z</time>
      </trkpt>
      <trkpt lat="43.60184" lon="6.64638">
        <ele>309.1</ele>
        <time>2022-09-13T13:53:43Z</time>
      </trkpt>
      <trkpt lat="43.60182" lon="6.64645">
        <ele>308.1</ele>
        <time>2022-09-13T13:53:48Z</time>
      </trkpt>
      <trkpt lat="43.6018" lon="6.64652">
        <ele>307.6</ele>
        <time>2022-09-13T13:53:52Z</time>
      </trkpt>
      <trkpt lat="43.60177" lon="6.64659">
        <ele>307.7</ele>
        <time>2022-09-13T13:53:56Z</time>
      </trkpt>
      <trkpt lat="43.60175" lon="6.64665">
        <ele>307.8</ele>
        <time>2022-09-13T13:54:00Z</time>
      </trkpt>
      <trkpt lat="43.60173" lon="6.64672">
        <ele>308</ele>
        <time>2022-09-13T13:54:04Z</time>
      </trkpt>
      <trkpt lat="43.60172" lon="6.64679">
        <ele>308.5</ele>
        <time>2022-09-13T13:54:08Z</time>
      </trkpt>
      <trkpt lat="43.6017" lon="6.64685">
        <ele>308.7</ele>
        <time>2022-09-13T13:54:12Z</time>
      </trkpt>
      <trkpt lat="43.60169" lon="6.64692">
        <ele>308.5</ele>
        <time>2022-09-13T13:54:16Z</time>
      </trkpt>
      <trkpt lat="43.60168" lon="6.64699">
        <ele>308.5</ele>
        <time>2022-09-13T13:54:20Z</time>
      </trkpt>
      <trkpt lat="43.60166" lon="6.64705">
        <ele>308.4</ele>
        <time>2022-09-13T13:54:24Z</time>
      </trkpt>
      <trkpt lat="43.60163" lon="6.64712">
        <ele>307.9</ele>
        <time>2022-09-13T13:54:29Z</time>
      </trkpt>
      <trkpt lat="43.60161" lon="6.64719">
        <ele>307.5</ele>
        <time>2022-09-13T13:54:33Z</time>
      </trkpt>
      <trkpt lat="43.6016" lon="6.64725">
        <ele>307.3</ele>
        <time>2022-09-13T13:54:37Z</time>
      </trkpt>
      <trkpt lat="43.60159" lon="6.64732">
        <ele>307.1</ele>
        <time>2022-09-13T13:54:41Z</time>
      </trkpt>
      <trkpt lat="43.60157" lon="6.64739">
        <ele>306.8</ele>
        <time>2022-09-13T13:54:45Z</time>
      </trkpt>
      <trkpt lat="43.60155" lon="6.64744">
        <ele>306.5</ele>
        <time>2022-09-13T13:54:49Z</time>
      </trkpt>
      <trkpt lat="43.60153" lon="6.6475">
        <ele>306.9</ele>
        <time>2022-09-13T13:54:53Z</time>
      </trkpt>
      <trkpt lat="43.60152" lon="6.64756">
        <ele>307.1</ele>
        <time>2022-09-13T13:54:57Z</time>
      </trkpt>
      <trkpt lat="43.6015" lon="6.64762">
        <ele>307.7</ele>
        <time>2022-09-13T13:55:01Z</time>
      </trkpt>
      <trkpt lat="43.60149" lon="6.64769">
        <ele>308.3</ele>
        <time>2022-09-13T13:55:05Z</time>
      </trkpt>
      <trkpt lat="43.60147" lon="6.64777">
        <ele>308.5</ele>
        <time>2022-09-13T13:55:10Z</time>
      </trkpt>
      <trkpt lat="43.60145" lon="6.64783">
        <ele>308.5</ele>
        <time>2022-09-13T13:55:15Z</time>
      </trkpt>
      <trkpt lat="43.60144" lon="6.6479">
        <ele>308.6</ele>
        <time>2022-09-13T13:55:19Z</time>
      </trkpt>
      <trkpt lat="43.60143" lon="6.64797">
        <ele>308.7</ele>
        <time>2022-09-13T13:55:23Z</time>
      </trkpt>
      <trkpt lat="43.60141" lon="6.64805">
        <ele>308.7</ele>
        <time>2022-09-13T13:55:27Z</time>
      </trkpt>
      <trkpt lat="43.60141" lon="6.64812">
        <ele>308.8</ele>
        <time>2022-09-13T13:55:31Z</time>
      </trkpt>
      <trkpt lat="43.60139" lon="6.64819">
        <ele>308.7</ele>
        <time>2022-09-13T13:55:35Z</time>
      </trkpt>
      <trkpt lat="43.60138" lon="6.64826">
        <ele>308.6</ele>
        <time>2022-09-13T13:55:40Z</time>
      </trkpt>
      <trkpt lat="43.60138" lon="6.64832">
        <ele>308.9</ele>
        <time>2022-09-13T13:55:44Z</time>
      </trkpt>
      <trkpt lat="43.60135" lon="6.64839">
        <ele>308.8</ele>
        <time>2022-09-13T13:55:48Z</time>
      </trkpt>
      <trkpt lat="43.60133" lon="6.64845">
        <ele>308.5</ele>
        <time>2022-09-13T13:55:52Z</time>
      </trkpt>
      <trkpt lat="43.6013" lon="6.6485">
        <ele>308.1</ele>
        <time>2022-09-13T13:55:56Z</time>
      </trkpt>
      <trkpt lat="43.60128" lon="6.64856">
        <ele>307.1</ele>
        <time>2022-09-13T13:56:00Z</time>
      </trkpt>
      <trkpt lat="43.60126" lon="6.64862">
        <ele>306</ele>
        <time>2022-09-13T13:56:05Z</time>
      </trkpt>
      <trkpt lat="43.60123" lon="6.64869">
        <ele>305.7</ele>
        <time>2022-09-13T13:56:09Z</time>
      </trkpt>
      <trkpt lat="43.60122" lon="6.64876">
        <ele>305.5</ele>
        <time>2022-09-13T13:56:13Z</time>
      </trkpt>
      <trkpt lat="43.6012" lon="6.64883">
        <ele>305.6</ele>
        <time>2022-09-13T13:56:17Z</time>
      </trkpt>
      <trkpt lat="43.60118" lon="6.64888">
        <ele>305.7</ele>
        <time>2022-09-13T13:56:21Z</time>
      </trkpt>
      <trkpt lat="43.60115" lon="6.64896">
        <ele>306</ele>
        <time>2022-09-13T13:56:26Z</time>
      </trkpt>
      <trkpt lat="43.60113" lon="6.64902">
        <ele>305.9</ele>
        <time>2022-09-13T13:56:30Z</time>
      </trkpt>
      <trkpt lat="43.60112" lon="6.64908">
        <ele>306</ele>
        <time>2022-09-13T13:56:34Z</time>
      </trkpt>
      <trkpt lat="43.6011" lon="6.64915">
        <ele>305.8</ele>
        <time>2022-09-13T13:56:38Z</time>
      </trkpt>
      <trkpt lat="43.60107" lon="6.64921">
        <ele>305.7</ele>
        <time>2022-09-13T13:56:42Z</time>
      </trkpt>
      <trkpt lat="43.60105" lon="6.64927">
        <ele>305.5</ele>
        <time>2022-09-13T13:56:47Z</time>
      </trkpt>
      <trkpt lat="43.60104" lon="6.64934">
        <ele>305.3</ele>
        <time>2022-09-13T13:56:52Z</time>
      </trkpt>
      <trkpt lat="43.60103" lon="6.64941">
        <ele>305.4</ele>
        <time>2022-09-13T13:56:56Z</time>
      </trkpt>
      <trkpt lat="43.60101" lon="6.64947">
        <ele>305.5</ele>
        <time>2022-09-13T13:57:00Z</time>
      </trkpt>
      <trkpt lat="43.60099" lon="6.64953">
        <ele>305.5</ele>
        <time>2022-09-13T13:57:03Z</time>
      </trkpt>
      <trkpt lat="43.60097" lon="6.64959">
        <ele>305.5</ele>
        <time>2022-09-13T13:57:07Z</time>
      </trkpt>
      <trkpt lat="43.60095" lon="6.64967">
        <ele>305.2</ele>
        <time>2022-09-13T13:57:12Z</time>
      </trkpt>
      <trkpt lat="43.60092" lon="6.64973">
        <ele>305</ele>
        <time>2022-09-13T13:57:16Z</time>
      </trkpt>
      <trkpt lat="43.6009" lon="6.64978">
        <ele>304.8</ele>
        <time>2022-09-13T13:57:19Z</time>
      </trkpt>
      <trkpt lat="43.60087" lon="6.64985">
        <ele>304.6</ele>
        <time>2022-09-13T13:57:23Z</time>
      </trkpt>
      <trkpt lat="43.60085" lon="6.64991">
        <ele>304.6</ele>
        <time>2022-09-13T13:57:27Z</time>
      </trkpt>
      <trkpt lat="43.60084" lon="6.64997">
        <ele>304.5</ele>
        <time>2022-09-13T13:57:31Z</time>
      </trkpt>
      <trkpt lat="43.60081" lon="6.65003">
        <ele>304.7</ele>
        <time>2022-09-13T13:57:36Z</time>
      </trkpt>
      <trkpt lat="43.60079" lon="6.65009">
        <ele>304.7</ele>
        <time>2022-09-13T13:57:40Z</time>
      </trkpt>
      <trkpt lat="43.60077" lon="6.65015">
        <ele>304.9</ele>
        <time>2022-09-13T13:57:44Z</time>
      </trkpt>
      <trkpt lat="43.60076" lon="6.65023">
        <ele>305.2</ele>
        <time>2022-09-13T13:57:49Z</time>
      </trkpt>
      <trkpt lat="43.60074" lon="6.65029">
        <ele>305.4</ele>
        <time>2022-09-13T13:57:53Z</time>
      </trkpt>
      <trkpt lat="43.60072" lon="6.65036">
        <ele>305.4</ele>
        <time>2022-09-13T13:57:57Z</time>
      </trkpt>
      <trkpt lat="43.60071" lon="6.65043">
        <ele>305.2</ele>
        <time>2022-09-13T13:58:01Z</time>
      </trkpt>
      <trkpt lat="43.60069" lon="6.65049">
        <ele>304.8</ele>
        <time>2022-09-13T13:58:06Z</time>
      </trkpt>
      <trkpt lat="43.60067" lon="6.65056">
        <ele>303.7</ele>
        <time>2022-09-13T13:58:11Z</time>
      </trkpt>
      <trkpt lat="43.60065" lon="6.65063">
        <ele>302.6</ele>
        <time>2022-09-13T13:58:15Z</time>
      </trkpt>
      <trkpt lat="43.60063" lon="6.65069">
        <ele>301.5</ele>
        <time>2022-09-13T13:58:19Z</time>
      </trkpt>
      <trkpt lat="43.60061" lon="6.65074">
        <ele>300.3</ele>
        <time>2022-09-13T13:58:23Z</time>
      </trkpt>
      <trkpt lat="43.60059" lon="6.65081">
        <ele>299.3</ele>
        <time>2022-09-13T13:58:28Z</time>
      </trkpt>
      <trkpt lat="43.60058" lon="6.65088">
        <ele>297.9</ele>
        <time>2022-09-13T13:58:32Z</time>
      </trkpt>
      <trkpt lat="43.60056" lon="6.65095">
        <ele>296.7</ele>
        <time>2022-09-13T13:58:36Z</time>
      </trkpt>
      <trkpt lat="43.60057" lon="6.65101">
        <ele>295.3</ele>
        <time>2022-09-13T13:58:40Z</time>
      </trkpt>
      <trkpt lat="43.60061" lon="6.65106">
        <ele>294.6</ele>
        <time>2022-09-13T13:58:45Z</time>
      </trkpt>
      <trkpt lat="43.60065" lon="6.65109">
        <ele>294.8</ele>
        <time>2022-09-13T13:58:50Z</time>
      </trkpt>
      <trkpt lat="43.6007" lon="6.65111">
        <ele>295.5</ele>
        <time>2022-09-13T13:58:55Z</time>
      </trkpt>
      <trkpt lat="43.60075" lon="6.65113">
        <ele>296.4</ele>
        <time>2022-09-13T13:59:00Z</time>
      </trkpt>
      <trkpt lat="43.6008" lon="6.65115">
        <ele>296.7</ele>
        <time>2022-09-13T13:59:05Z</time>
      </trkpt>
      <trkpt lat="43.60084" lon="6.65119">
        <ele>297.2</ele>
        <time>2022-09-13T13:59:09Z</time>
      </trkpt>
      <trkpt lat="43.60088" lon="6.65124">
        <ele>296.8</ele>
        <time>2022-09-13T13:59:13Z</time>
      </trkpt>
      <trkpt lat="43.60092" lon="6.65129">
        <ele>296.1</ele>
        <time>2022-09-13T13:59:18Z</time>
      </trkpt>
      <trkpt lat="43.60095" lon="6.65134">
        <ele>295.8</ele>
        <time>2022-09-13T13:59:23Z</time>
      </trkpt>
      <trkpt lat="43.60098" lon="6.6514">
        <ele>296.2</ele>
        <time>2022-09-13T13:59:29Z</time>
      </trkpt>
      <trkpt lat="43.601" lon="6.65146">
        <ele>296.4</ele>
        <time>2022-09-13T13:59:33Z</time>
      </trkpt>
      <trkpt lat="43.60101" lon="6.65153">
        <ele>296.4</ele>
        <time>2022-09-13T13:59:38Z</time>
      </trkpt>
      <trkpt lat="43.60101" lon="6.65161">
        <ele>296.5</ele>
        <time>2022-09-13T13:59:42Z</time>
      </trkpt>
      <trkpt lat="43.60101" lon="6.65168">
        <ele>296.6</ele>
        <time>2022-09-13T13:59:46Z</time>
      </trkpt>
      <trkpt lat="43.60101" lon="6.65176">
        <ele>296.5</ele>
        <time>2022-09-13T13:59:50Z</time>
      </trkpt>
      <trkpt lat="43.601" lon="6.65184">
        <ele>296.6</ele>
        <time>2022-09-13T13:59:54Z</time>
      </trkpt>
      <trkpt lat="43.60098" lon="6.65191">
        <ele>296.7</ele>
        <time>2022-09-13T13:59:58Z</time>
      </trkpt>
      <trkpt lat="43.60097" lon="6.65197">
        <ele>297.2</ele>
        <time>2022-09-13T14:00:02Z</time>
      </trkpt>
      <trkpt lat="43.60096" lon="6.65204">
        <ele>297.3</ele>
        <time>2022-09-13T14:00:06Z</time>
      </trkpt>
      <trkpt lat="43.60095" lon="6.65211">
        <ele>297.6</ele>
        <time>2022-09-13T14:00:10Z</time>
      </trkpt>
      <trkpt lat="43.60092" lon="6.65216">
        <ele>298.1</ele>
        <time>2022-09-13T14:00:14Z</time>
      </trkpt>
      <trkpt lat="43.60089" lon="6.65222">
        <ele>298.1</ele>
        <time>2022-09-13T14:00:19Z</time>
      </trkpt>
      <trkpt lat="43.60087" lon="6.65229">
        <ele>297.7</ele>
        <time>2022-09-13T14:00:23Z</time>
      </trkpt>
      <trkpt lat="43.60085" lon="6.65235">
        <ele>297.9</ele>
        <time>2022-09-13T14:00:27Z</time>
      </trkpt>
      <trkpt lat="43.60084" lon="6.65241">
        <ele>297.7</ele>
        <time>2022-09-13T14:00:33Z</time>
      </trkpt>
      <trkpt lat="43.60082" lon="6.65247">
        <ele>298.2</ele>
        <time>2022-09-13T14:00:41Z</time>
      </trkpt>
      <trkpt lat="43.60078" lon="6.65249">
        <ele>299.4</ele>
        <time>2022-09-13T14:00:59Z</time>
      </trkpt>
      <trkpt lat="43.60073" lon="6.65253">
        <ele>300.2</ele>
        <time>2022-09-13T14:01:08Z</time>
      </trkpt>
      <trkpt lat="43.60069" lon="6.65258">
        <ele>299.8</ele>
        <time>2022-09-13T14:01:13Z</time>
      </trkpt>
      <trkpt lat="43.60066" lon="6.65262">
        <ele>299.4</ele>
        <time>2022-09-13T14:01:17Z</time>
      </trkpt>
      <trkpt lat="43.60062" lon="6.65267">
        <ele>298.9</ele>
        <time>2022-09-13T14:01:21Z</time>
      </trkpt>
      <trkpt lat="43.60058" lon="6.65272">
        <ele>297.8</ele>
        <time>2022-09-13T14:01:26Z</time>
      </trkpt>
      <trkpt lat="43.60055" lon="6.65277">
        <ele>296.6</ele>
        <time>2022-09-13T14:01:33Z</time>
      </trkpt>
      <trkpt lat="43.60052" lon="6.65283">
        <ele>296.2</ele>
        <time>2022-09-13T14:01:39Z</time>
      </trkpt>
      <trkpt lat="43.60049" lon="6.65287">
        <ele>295.3</ele>
        <time>2022-09-13T14:01:45Z</time>
      </trkpt>
      <trkpt lat="43.60045" lon="6.6529">
        <ele>294.1</ele>
        <time>2022-09-13T14:01:50Z</time>
      </trkpt>
      <trkpt lat="43.60041" lon="6.65294">
        <ele>293.4</ele>
        <time>2022-09-13T14:01:54Z</time>
      </trkpt>
      <trkpt lat="43.60036" lon="6.65297">
        <ele>292.6</ele>
        <time>2022-09-13T14:02:00Z</time>
      </trkpt>
      <trkpt lat="43.60032" lon="6.653">
        <ele>292.3</ele>
        <time>2022-09-13T14:02:04Z</time>
      </trkpt>
      <trkpt lat="43.60026" lon="6.65302">
        <ele>291.8</ele>
        <time>2022-09-13T14:02:09Z</time>
      </trkpt>
      <trkpt lat="43.60022" lon="6.65304">
        <ele>291.1</ele>
        <time>2022-09-13T14:02:13Z</time>
      </trkpt>
      <trkpt lat="43.60017" lon="6.65306">
        <ele>289.7</ele>
        <time>2022-09-13T14:02:18Z</time>
      </trkpt>
      <trkpt lat="43.60013" lon="6.65309">
        <ele>289.2</ele>
        <time>2022-09-13T14:02:22Z</time>
      </trkpt>
      <trkpt lat="43.60009" lon="6.65312">
        <ele>289.1</ele>
        <time>2022-09-13T14:02:26Z</time>
      </trkpt>
      <trkpt lat="43.60005" lon="6.65316">
        <ele>288.7</ele>
        <time>2022-09-13T14:02:30Z</time>
      </trkpt>
      <trkpt lat="43.60001" lon="6.65319">
        <ele>288.3</ele>
        <time>2022-09-13T14:02:34Z</time>
      </trkpt>
      <trkpt lat="43.59996" lon="6.65321">
        <ele>287.8</ele>
        <time>2022-09-13T14:02:38Z</time>
      </trkpt>
      <trkpt lat="43.59992" lon="6.65325">
        <ele>287.5</ele>
        <time>2022-09-13T14:02:43Z</time>
      </trkpt>
      <trkpt lat="43.59987" lon="6.65327">
        <ele>287.1</ele>
        <time>2022-09-13T14:02:48Z</time>
      </trkpt>
      <trkpt lat="43.59982" lon="6.6533">
        <ele>287.3</ele>
        <time>2022-09-13T14:02:53Z</time>
      </trkpt>
      <trkpt lat="43.59977" lon="6.65333">
        <ele>286.8</ele>
        <time>2022-09-13T14:02:57Z</time>
      </trkpt>
      <trkpt lat="43.59972" lon="6.65336">
        <ele>286.3</ele>
        <time>2022-09-13T14:03:01Z</time>
      </trkpt>
      <trkpt lat="43.59967" lon="6.65338">
        <ele>286</ele>
        <time>2022-09-13T14:03:06Z</time>
      </trkpt>
      <trkpt lat="43.59962" lon="6.65341">
        <ele>285.3</ele>
        <time>2022-09-13T14:03:11Z</time>
      </trkpt>
      <trkpt lat="43.59959" lon="6.65344">
        <ele>285.2</ele>
        <time>2022-09-13T14:03:15Z</time>
      </trkpt>
      <trkpt lat="43.59955" lon="6.65348">
        <ele>285.6</ele>
        <time>2022-09-13T14:03:19Z</time>
      </trkpt>
      <trkpt lat="43.5995" lon="6.65352">
        <ele>285.9</ele>
        <time>2022-09-13T14:03:23Z</time>
      </trkpt>
      <trkpt lat="43.59945" lon="6.65356">
        <ele>286.8</ele>
        <time>2022-09-13T14:03:27Z</time>
      </trkpt>
      <trkpt lat="43.59941" lon="6.65361">
        <ele>287.4</ele>
        <time>2022-09-13T14:03:31Z</time>
      </trkpt>
      <trkpt lat="43.59938" lon="6.65366">
        <ele>287.8</ele>
        <time>2022-09-13T14:03:36Z</time>
      </trkpt>
      <trkpt lat="43.59934" lon="6.65372">
        <ele>287.5</ele>
        <time>2022-09-13T14:03:41Z</time>
      </trkpt>
      <trkpt lat="43.59931" lon="6.65378">
        <ele>288</ele>
        <time>2022-09-13T14:03:46Z</time>
      </trkpt>
      <trkpt lat="43.59927" lon="6.65381">
        <ele>288.3</ele>
        <time>2022-09-13T14:03:51Z</time>
      </trkpt>
      <trkpt lat="43.59924" lon="6.65386">
        <ele>288.2</ele>
        <time>2022-09-13T14:03:56Z</time>
      </trkpt>
      <trkpt lat="43.5992" lon="6.65391">
        <ele>288.5</ele>
        <time>2022-09-13T14:04:00Z</time>
      </trkpt>
      <trkpt lat="43.59916" lon="6.65396">
        <ele>289.2</ele>
        <time>2022-09-13T14:04:05Z</time>
      </trkpt>
      <trkpt lat="43.59912" lon="6.65401">
        <ele>289.1</ele>
        <time>2022-09-13T14:04:10Z</time>
      </trkpt>
      <trkpt lat="43.59907" lon="6.65405">
        <ele>288.5</ele>
        <time>2022-09-13T14:04:14Z</time>
      </trkpt>
      <trkpt lat="43.59903" lon="6.6541">
        <ele>287.8</ele>
        <time>2022-09-13T14:04:19Z</time>
      </trkpt>
      <trkpt lat="43.599" lon="6.65415">
        <ele>287.7</ele>
        <time>2022-09-13T14:04:23Z</time>
      </trkpt>
      <trkpt lat="43.59896" lon="6.6542">
        <ele>287.3</ele>
        <time>2022-09-13T14:04:27Z</time>
      </trkpt>
      <trkpt lat="43.59892" lon="6.65425">
        <ele>286.6</ele>
        <time>2022-09-13T14:04:32Z</time>
      </trkpt>
      <trkpt lat="43.59888" lon="6.65428">
        <ele>286.9</ele>
        <time>2022-09-13T14:04:36Z</time>
      </trkpt>
      <trkpt lat="43.59884" lon="6.65432">
        <ele>287.4</ele>
        <time>2022-09-13T14:04:40Z</time>
      </trkpt>
      <trkpt lat="43.59881" lon="6.65437">
        <ele>288.1</ele>
        <time>2022-09-13T14:04:46Z</time>
      </trkpt>
      <trkpt lat="43.59877" lon="6.65441">
        <ele>288.1</ele>
        <time>2022-09-13T14:04:51Z</time>
      </trkpt>
      <trkpt lat="43.59874" lon="6.65446">
        <ele>288.2</ele>
        <time>2022-09-13T14:04:55Z</time>
      </trkpt>
      <trkpt lat="43.5987" lon="6.6545">
        <ele>287.7</ele>
        <time>2022-09-13T14:05:00Z</time>
      </trkpt>
      <trkpt lat="43.59865" lon="6.65453">
        <ele>287.3</ele>
        <time>2022-09-13T14:05:04Z</time>
      </trkpt>
      <trkpt lat="43.59861" lon="6.65456">
        <ele>287.2</ele>
        <time>2022-09-13T14:05:08Z</time>
      </trkpt>
      <trkpt lat="43.59856" lon="6.65459">
        <ele>287</ele>
        <time>2022-09-13T14:05:14Z</time>
      </trkpt>
      <trkpt lat="43.59852" lon="6.65462">
        <ele>287.2</ele>
        <time>2022-09-13T14:05:18Z</time>
      </trkpt>
      <trkpt lat="43.59849" lon="6.65467">
        <ele>287.8</ele>
        <time>2022-09-13T14:05:22Z</time>
      </trkpt>
      <trkpt lat="43.59845" lon="6.65471">
        <ele>288.5</ele>
        <time>2022-09-13T14:05:26Z</time>
      </trkpt>
      <trkpt lat="43.59841" lon="6.65474">
        <ele>289</ele>
        <time>2022-09-13T14:05:30Z</time>
      </trkpt>
      <trkpt lat="43.59837" lon="6.65478">
        <ele>288.9</ele>
        <time>2022-09-13T14:05:34Z</time>
      </trkpt>
      <trkpt lat="43.59832" lon="6.65483">
        <ele>289.2</ele>
        <time>2022-09-13T14:05:38Z</time>
      </trkpt>
      <trkpt lat="43.59827" lon="6.65485">
        <ele>289.2</ele>
        <time>2022-09-13T14:05:42Z</time>
      </trkpt>
      <trkpt lat="43.59823" lon="6.65489">
        <ele>289.6</ele>
        <time>2022-09-13T14:05:47Z</time>
      </trkpt>
      <trkpt lat="43.59819" lon="6.65492">
        <ele>289.7</ele>
        <time>2022-09-13T14:05:53Z</time>
      </trkpt>
      <trkpt lat="43.59815" lon="6.65495">
        <ele>289.6</ele>
        <time>2022-09-13T14:05:57Z</time>
      </trkpt>
      <trkpt lat="43.5981" lon="6.65501">
        <ele>289.7</ele>
        <time>2022-09-13T14:06:02Z</time>
      </trkpt>
      <trkpt lat="43.59806" lon="6.65505">
        <ele>289.7</ele>
        <time>2022-09-13T14:06:06Z</time>
      </trkpt>
      <trkpt lat="43.59803" lon="6.65509">
        <ele>288.9</ele>
        <time>2022-09-13T14:06:10Z</time>
      </trkpt>
      <trkpt lat="43.59799" lon="6.65514">
        <ele>289.1</ele>
        <time>2022-09-13T14:06:15Z</time>
      </trkpt>
      <trkpt lat="43.59794" lon="6.65517">
        <ele>289.3</ele>
        <time>2022-09-13T14:06:20Z</time>
      </trkpt>
      <trkpt lat="43.59789" lon="6.6552">
        <ele>289.2</ele>
        <time>2022-09-13T14:06:24Z</time>
      </trkpt>
      <trkpt lat="43.59785" lon="6.65523">
        <ele>289</ele>
        <time>2022-09-13T14:06:28Z</time>
      </trkpt>
      <trkpt lat="43.59779" lon="6.65526">
        <ele>288.7</ele>
        <time>2022-09-13T14:06:32Z</time>
      </trkpt>
      <trkpt lat="43.59775" lon="6.65529">
        <ele>288.9</ele>
        <time>2022-09-13T14:06:36Z</time>
      </trkpt>
      <trkpt lat="43.5977" lon="6.65532">
        <ele>288.7</ele>
        <time>2022-09-13T14:06:41Z</time>
      </trkpt>
      <trkpt lat="43.59766" lon="6.65534">
        <ele>288.7</ele>
        <time>2022-09-13T14:06:45Z</time>
      </trkpt>
      <trkpt lat="43.59761" lon="6.65536">
        <ele>288.6</ele>
        <time>2022-09-13T14:06:50Z</time>
      </trkpt>
      <trkpt lat="43.59755" lon="6.65539">
        <ele>288.6</ele>
        <time>2022-09-13T14:06:55Z</time>
      </trkpt>
      <trkpt lat="43.59751" lon="6.65541">
        <ele>288.6</ele>
        <time>2022-09-13T14:07:00Z</time>
      </trkpt>
      <trkpt lat="43.59747" lon="6.65544">
        <ele>288.4</ele>
        <time>2022-09-13T14:07:06Z</time>
      </trkpt>
      <trkpt lat="43.59744" lon="6.6555">
        <ele>288.5</ele>
        <time>2022-09-13T14:07:11Z</time>
      </trkpt>
      <trkpt lat="43.5974" lon="6.65555">
        <ele>289</ele>
        <time>2022-09-13T14:07:17Z</time>
      </trkpt>
      <trkpt lat="43.59739" lon="6.6556">
        <ele>289.4</ele>
        <time>2022-09-13T14:07:22Z</time>
      </trkpt>
      <trkpt lat="43.59735" lon="6.65566">
        <ele>289.6</ele>
        <time>2022-09-13T14:07:29Z</time>
      </trkpt>
      <trkpt lat="43.59732" lon="6.65572">
        <ele>288.9</ele>
        <time>2022-09-13T14:07:34Z</time>
      </trkpt>
      <trkpt lat="43.5973" lon="6.65579">
        <ele>288.5</ele>
        <time>2022-09-13T14:07:41Z</time>
      </trkpt>
      <trkpt lat="43.59729" lon="6.65586">
        <ele>288.6</ele>
        <time>2022-09-13T14:07:45Z</time>
      </trkpt>
      <trkpt lat="43.59729" lon="6.65592">
        <ele>288.6</ele>
        <time>2022-09-13T14:07:49Z</time>
      </trkpt>
      <trkpt lat="43.59728" lon="6.656">
        <ele>288.6</ele>
        <time>2022-09-13T14:07:54Z</time>
      </trkpt>
      <trkpt lat="43.59726" lon="6.65606">
        <ele>288.9</ele>
        <time>2022-09-13T14:08:00Z</time>
      </trkpt>
      <trkpt lat="43.59722" lon="6.65611">
        <ele>288.7</ele>
        <time>2022-09-13T14:08:05Z</time>
      </trkpt>
      <trkpt lat="43.59719" lon="6.65615">
        <ele>289.2</ele>
        <time>2022-09-13T14:08:24Z</time>
      </trkpt>
      <trkpt lat="43.59716" lon="6.6562">
        <ele>289.3</ele>
        <time>2022-09-13T14:08:29Z</time>
      </trkpt>
      <trkpt lat="43.59712" lon="6.65625">
        <ele>288.1</ele>
        <time>2022-09-13T14:08:36Z</time>
      </trkpt>
      <trkpt lat="43.59708" lon="6.65629">
        <ele>287.2</ele>
        <time>2022-09-13T14:08:42Z</time>
      </trkpt>
      <trkpt lat="43.59705" lon="6.65635">
        <ele>286.5</ele>
        <time>2022-09-13T14:08:48Z</time>
      </trkpt>
      <trkpt lat="43.59702" lon="6.6564">
        <ele>286.6</ele>
        <time>2022-09-13T14:08:53Z</time>
      </trkpt>
      <trkpt lat="43.59701" lon="6.65646">
        <ele>286.4</ele>
        <time>2022-09-13T14:08:59Z</time>
      </trkpt>
      <trkpt lat="43.59699" lon="6.65653">
        <ele>286</ele>
        <time>2022-09-13T14:09:05Z</time>
      </trkpt>
      <trkpt lat="43.59696" lon="6.6566">
        <ele>285.8</ele>
        <time>2022-09-13T14:09:10Z</time>
      </trkpt>
      <trkpt lat="43.59694" lon="6.65666">
        <ele>285.1</ele>
        <time>2022-09-13T14:09:15Z</time>
      </trkpt>
      <trkpt lat="43.59693" lon="6.65673">
        <ele>285.3</ele>
        <time>2022-09-13T14:09:21Z</time>
      </trkpt>
      <trkpt lat="43.59692" lon="6.6568">
        <ele>285.1</ele>
        <time>2022-09-13T14:09:26Z</time>
      </trkpt>
      <trkpt lat="43.5969" lon="6.65686">
        <ele>284.6</ele>
        <time>2022-09-13T14:09:31Z</time>
      </trkpt>
      <trkpt lat="43.59687" lon="6.65693">
        <ele>283.8</ele>
        <time>2022-09-13T14:09:36Z</time>
      </trkpt>
      <trkpt lat="43.59686" lon="6.657">
        <ele>284.4</ele>
        <time>2022-09-13T14:09:41Z</time>
      </trkpt>
      <trkpt lat="43.59684" lon="6.65706">
        <ele>285.6</ele>
        <time>2022-09-13T14:09:46Z</time>
      </trkpt>
      <trkpt lat="43.59682" lon="6.65712">
        <ele>286.2</ele>
        <time>2022-09-13T14:09:52Z</time>
      </trkpt>
      <trkpt lat="43.5968" lon="6.65718">
        <ele>286.6</ele>
        <time>2022-09-13T14:09:57Z</time>
      </trkpt>
      <trkpt lat="43.59677" lon="6.65724">
        <ele>286.9</ele>
        <time>2022-09-13T14:10:01Z</time>
      </trkpt>
      <trkpt lat="43.59674" lon="6.65729">
        <ele>287</ele>
        <time>2022-09-13T14:10:05Z</time>
      </trkpt>
      <trkpt lat="43.5967" lon="6.65734">
        <ele>287</ele>
        <time>2022-09-13T14:10:09Z</time>
      </trkpt>
      <trkpt lat="43.59668" lon="6.6574">
        <ele>286.5</ele>
        <time>2022-09-13T14:10:13Z</time>
      </trkpt>
      <trkpt lat="43.59666" lon="6.65746">
        <ele>286.3</ele>
        <time>2022-09-13T14:10:17Z</time>
      </trkpt>
      <trkpt lat="43.59664" lon="6.65752">
        <ele>286.4</ele>
        <time>2022-09-13T14:10:22Z</time>
      </trkpt>
      <trkpt lat="43.59664" lon="6.65759">
        <ele>286.9</ele>
        <time>2022-09-13T14:10:28Z</time>
      </trkpt>
      <trkpt lat="43.59663" lon="6.65766">
        <ele>286.7</ele>
        <time>2022-09-13T14:10:33Z</time>
      </trkpt>
      <trkpt lat="43.5966" lon="6.65772">
        <ele>286.8</ele>
        <time>2022-09-13T14:10:37Z</time>
      </trkpt>
      <trkpt lat="43.59657" lon="6.65779">
        <ele>286.1</ele>
        <time>2022-09-13T14:10:41Z</time>
      </trkpt>
      <trkpt lat="43.59655" lon="6.65785">
        <ele>285.8</ele>
        <time>2022-09-13T14:10:46Z</time>
      </trkpt>
      <trkpt lat="43.59653" lon="6.65792">
        <ele>285.6</ele>
        <time>2022-09-13T14:10:51Z</time>
      </trkpt>
      <trkpt lat="43.59651" lon="6.65799">
        <ele>285.5</ele>
        <time>2022-09-13T14:10:56Z</time>
      </trkpt>
      <trkpt lat="43.5965" lon="6.65805">
        <ele>285.4</ele>
        <time>2022-09-13T14:11:00Z</time>
      </trkpt>
      <trkpt lat="43.59648" lon="6.65811">
        <ele>285.8</ele>
        <time>2022-09-13T14:11:05Z</time>
      </trkpt>
      <trkpt lat="43.59647" lon="6.65818">
        <ele>286.6</ele>
        <time>2022-09-13T14:11:11Z</time>
      </trkpt>
      <trkpt lat="43.59646" lon="6.65824">
        <ele>287.7</ele>
        <time>2022-09-13T14:11:15Z</time>
      </trkpt>
      <trkpt lat="43.59646" lon="6.65831">
        <ele>288.8</ele>
        <time>2022-09-13T14:11:19Z</time>
      </trkpt>
      <trkpt lat="43.59643" lon="6.65836">
        <ele>288.8</ele>
        <time>2022-09-13T14:11:24Z</time>
      </trkpt>
      <trkpt lat="43.59643" lon="6.65843">
        <ele>288.9</ele>
        <time>2022-09-13T14:11:29Z</time>
      </trkpt>
      <trkpt lat="43.59643" lon="6.6585">
        <ele>289.7</ele>
        <time>2022-09-13T14:11:33Z</time>
      </trkpt>
      <trkpt lat="43.59643" lon="6.65857">
        <ele>290.2</ele>
        <time>2022-09-13T14:11:37Z</time>
      </trkpt>
      <trkpt lat="43.59643" lon="6.65864">
        <ele>290.2</ele>
        <time>2022-09-13T14:11:42Z</time>
      </trkpt>
      <trkpt lat="43.59644" lon="6.65871">
        <ele>289.5</ele>
        <time>2022-09-13T14:11:49Z</time>
      </trkpt>
      <trkpt lat="43.59646" lon="6.65877">
        <ele>289.9</ele>
        <time>2022-09-13T14:11:53Z</time>
      </trkpt>
      <trkpt lat="43.59649" lon="6.65882">
        <ele>290.8</ele>
        <time>2022-09-13T14:11:57Z</time>
      </trkpt>
      <trkpt lat="43.59651" lon="6.65889">
        <ele>292</ele>
        <time>2022-09-13T14:12:03Z</time>
      </trkpt>
      <trkpt lat="43.59654" lon="6.65894">
        <ele>292.1</ele>
        <time>2022-09-13T14:12:09Z</time>
      </trkpt>
      <trkpt lat="43.59657" lon="6.659">
        <ele>292.6</ele>
        <time>2022-09-13T14:12:14Z</time>
      </trkpt>
      <trkpt lat="43.59659" lon="6.65906">
        <ele>293</ele>
        <time>2022-09-13T14:12:18Z</time>
      </trkpt>
      <trkpt lat="43.5966" lon="6.65913">
        <ele>292.6</ele>
        <time>2022-09-13T14:12:22Z</time>
      </trkpt>
      <trkpt lat="43.59658" lon="6.65919">
        <ele>291.7</ele>
        <time>2022-09-13T14:12:26Z</time>
      </trkpt>
      <trkpt lat="43.59654" lon="6.65924">
        <ele>290.9</ele>
        <time>2022-09-13T14:12:30Z</time>
      </trkpt>
      <trkpt lat="43.59651" lon="6.6593">
        <ele>289.8</ele>
        <time>2022-09-13T14:12:34Z</time>
      </trkpt>
      <trkpt lat="43.59649" lon="6.65936">
        <ele>288.7</ele>
        <time>2022-09-13T14:12:39Z</time>
      </trkpt>
      <trkpt lat="43.59645" lon="6.65941">
        <ele>287.9</ele>
        <time>2022-09-13T14:12:44Z</time>
      </trkpt>
      <trkpt lat="43.59642" lon="6.65945">
        <ele>288.1</ele>
        <time>2022-09-13T14:12:50Z</time>
      </trkpt>
      <trkpt lat="43.59638" lon="6.6595">
        <ele>288.7</ele>
        <time>2022-09-13T14:12:55Z</time>
      </trkpt>
      <trkpt lat="43.59635" lon="6.65955">
        <ele>287.7</ele>
        <time>2022-09-13T14:13:01Z</time>
      </trkpt>
      <trkpt lat="43.59631" lon="6.65958">
        <ele>286.1</ele>
        <time>2022-09-13T14:13:08Z</time>
      </trkpt>
      <trkpt lat="43.59627" lon="6.65962">
        <ele>286.1</ele>
        <time>2022-09-13T14:13:23Z</time>
      </trkpt>
      <trkpt lat="43.59623" lon="6.65965">
        <ele>287.5</ele>
        <time>2022-09-13T14:13:29Z</time>
      </trkpt>
      <trkpt lat="43.59618" lon="6.65969">
        <ele>289</ele>
        <time>2022-09-13T14:13:35Z</time>
      </trkpt>
      <trkpt lat="43.59614" lon="6.65974">
        <ele>289.7</ele>
        <time>2022-09-13T14:13:40Z</time>
      </trkpt>
      <trkpt lat="43.5961" lon="6.65977">
        <ele>290.1</ele>
        <time>2022-09-13T14:13:44Z</time>
      </trkpt>
      <trkpt lat="43.59606" lon="6.65982">
        <ele>290.1</ele>
        <time>2022-09-13T14:13:48Z</time>
      </trkpt>
      <trkpt lat="43.59603" lon="6.65988">
        <ele>289.7</ele>
        <time>2022-09-13T14:13:54Z</time>
      </trkpt>
      <trkpt lat="43.59599" lon="6.65993">
        <ele>289.6</ele>
        <time>2022-09-13T14:14:00Z</time>
      </trkpt>
      <trkpt lat="43.59596" lon="6.65998">
        <ele>290.1</ele>
        <time>2022-09-13T14:14:05Z</time>
      </trkpt>
      <trkpt lat="43.59595" lon="6.66004">
        <ele>290.7</ele>
        <time>2022-09-13T14:14:11Z</time>
      </trkpt>
      <trkpt lat="43.59595" lon="6.66011">
        <ele>290.7</ele>
        <time>2022-09-13T14:14:17Z</time>
      </trkpt>
      <trkpt lat="43.59595" lon="6.66018">
        <ele>291.1</ele>
        <time>2022-09-13T14:14:22Z</time>
      </trkpt>
      <trkpt lat="43.59596" lon="6.66025">
        <ele>291.1</ele>
        <time>2022-09-13T14:14:27Z</time>
      </trkpt>
      <trkpt lat="43.59597" lon="6.66031">
        <ele>291.2</ele>
        <time>2022-09-13T14:14:32Z</time>
      </trkpt>
      <trkpt lat="43.59598" lon="6.66038">
        <ele>291.3</ele>
        <time>2022-09-13T14:14:37Z</time>
      </trkpt>
      <trkpt lat="43.59596" lon="6.66046">
        <ele>291.5</ele>
        <time>2022-09-13T14:14:43Z</time>
      </trkpt>
      <trkpt lat="43.59594" lon="6.66052">
        <ele>291.5</ele>
        <time>2022-09-13T14:14:47Z</time>
      </trkpt>
      <trkpt lat="43.59591" lon="6.66058">
        <ele>291.5</ele>
        <time>2022-09-13T14:14:52Z</time>
      </trkpt>
      <trkpt lat="43.59587" lon="6.66063">
        <ele>291.9</ele>
        <time>2022-09-13T14:14:59Z</time>
      </trkpt>
      <trkpt lat="43.59583" lon="6.66066">
        <ele>291.4</ele>
        <time>2022-09-13T14:15:05Z</time>
      </trkpt>
      <trkpt lat="43.59578" lon="6.66069">
        <ele>290.8</ele>
        <time>2022-09-13T14:15:10Z</time>
      </trkpt>
      <trkpt lat="43.59573" lon="6.66071">
        <ele>289.9</ele>
        <time>2022-09-13T14:15:15Z</time>
      </trkpt>
      <trkpt lat="43.59568" lon="6.66074">
        <ele>289.2</ele>
        <time>2022-09-13T14:15:20Z</time>
      </trkpt>
      <trkpt lat="43.59564" lon="6.66076">
        <ele>289.1</ele>
        <time>2022-09-13T14:15:25Z</time>
      </trkpt>
      <trkpt lat="43.59559" lon="6.66079">
        <ele>290.6</ele>
        <time>2022-09-13T14:15:31Z</time>
      </trkpt>
      <trkpt lat="43.59555" lon="6.66083">
        <ele>291.7</ele>
        <time>2022-09-13T14:15:36Z</time>
      </trkpt>
      <trkpt lat="43.59552" lon="6.66087">
        <ele>292.4</ele>
        <time>2022-09-13T14:15:40Z</time>
      </trkpt>
      <trkpt lat="43.59547" lon="6.6609">
        <ele>293.8</ele>
        <time>2022-09-13T14:15:45Z</time>
      </trkpt>
      <trkpt lat="43.59543" lon="6.66093">
        <ele>294.2</ele>
        <time>2022-09-13T14:15:51Z</time>
      </trkpt>
      <trkpt lat="43.59538" lon="6.66095">
        <ele>294.7</ele>
        <time>2022-09-13T14:15:57Z</time>
      </trkpt>
      <trkpt lat="43.59534" lon="6.66098">
        <ele>295.9</ele>
        <time>2022-09-13T14:16:03Z</time>
      </trkpt>
      <trkpt lat="43.5953" lon="6.66101">
        <ele>296.7</ele>
        <time>2022-09-13T14:16:08Z</time>
      </trkpt>
      <trkpt lat="43.59527" lon="6.66106">
        <ele>298</ele>
        <time>2022-09-13T14:16:15Z</time>
      </trkpt>
      <trkpt lat="43.59523" lon="6.66111">
        <ele>298.4</ele>
        <time>2022-09-13T14:16:20Z</time>
      </trkpt>
      <trkpt lat="43.5952" lon="6.66117">
        <ele>298.9</ele>
        <time>2022-09-13T14:16:25Z</time>
      </trkpt>
      <trkpt lat="43.59518" lon="6.66123">
        <ele>299.3</ele>
        <time>2022-09-13T14:16:30Z</time>
      </trkpt>
      <trkpt lat="43.59516" lon="6.66129">
        <ele>300</ele>
        <time>2022-09-13T14:16:38Z</time>
      </trkpt>
      <trkpt lat="43.5951" lon="6.66129">
        <ele>300.2</ele>
        <time>2022-09-13T14:16:42Z</time>
      </trkpt>
      <trkpt lat="43.59505" lon="6.66128">
        <ele>300</ele>
        <time>2022-09-13T14:16:46Z</time>
      </trkpt>
      <trkpt lat="43.595" lon="6.66127">
        <ele>300.8</ele>
        <time>2022-09-13T14:16:51Z</time>
      </trkpt>
      <trkpt lat="43.59495" lon="6.66126">
        <ele>301.7</ele>
        <time>2022-09-13T14:16:56Z</time>
      </trkpt>
      <trkpt lat="43.5949" lon="6.66125">
        <ele>302.4</ele>
        <time>2022-09-13T14:17:01Z</time>
      </trkpt>
      <trkpt lat="43.59485" lon="6.66122">
        <ele>302.7</ele>
        <time>2022-09-13T14:17:06Z</time>
      </trkpt>
      <trkpt lat="43.5948" lon="6.66119">
        <ele>302.7</ele>
        <time>2022-09-13T14:17:13Z</time>
      </trkpt>
      <trkpt lat="43.59475" lon="6.66119">
        <ele>302.8</ele>
        <time>2022-09-13T14:17:19Z</time>
      </trkpt>
      <trkpt lat="43.59471" lon="6.66118">
        <ele>303.4</ele>
        <time>2022-09-13T14:17:23Z</time>
      </trkpt>
      <trkpt lat="43.59466" lon="6.66116">
        <ele>304.4</ele>
        <time>2022-09-13T14:17:27Z</time>
      </trkpt>
      <trkpt lat="43.59461" lon="6.66113">
        <ele>304.8</ele>
        <time>2022-09-13T14:17:31Z</time>
      </trkpt>
      <trkpt lat="43.59457" lon="6.66109">
        <ele>303.5</ele>
        <time>2022-09-13T14:17:45Z</time>
      </trkpt>
      <trkpt lat="43.59453" lon="6.66105">
        <ele>302.6</ele>
        <time>2022-09-13T14:17:52Z</time>
      </trkpt>
      <trkpt lat="43.59449" lon="6.66103">
        <ele>301.8</ele>
        <time>2022-09-13T14:18:12Z</time>
      </trkpt>
      <trkpt lat="43.59444" lon="6.66101">
        <ele>301.9</ele>
        <time>2022-09-13T14:18:18Z</time>
      </trkpt>
      <trkpt lat="43.5944" lon="6.66098">
        <ele>302.1</ele>
        <time>2022-09-13T14:18:23Z</time>
      </trkpt>
      <trkpt lat="43.59435" lon="6.66096">
        <ele>302.2</ele>
        <time>2022-09-13T14:18:28Z</time>
      </trkpt>
      <trkpt lat="43.59431" lon="6.66095">
        <ele>302.1</ele>
        <time>2022-09-13T14:18:33Z</time>
      </trkpt>
      <trkpt lat="43.59426" lon="6.66095">
        <ele>301.8</ele>
        <time>2022-09-13T14:18:38Z</time>
      </trkpt>
      <trkpt lat="43.59421" lon="6.66093">
        <ele>301.4</ele>
        <time>2022-09-13T14:18:42Z</time>
      </trkpt>
      <trkpt lat="43.59416" lon="6.66089">
        <ele>301.4</ele>
        <time>2022-09-13T14:18:46Z</time>
      </trkpt>
      <trkpt lat="43.59412" lon="6.66088">
        <ele>300.6</ele>
        <time>2022-09-13T14:18:52Z</time>
      </trkpt>
      <trkpt lat="43.59406" lon="6.66088">
        <ele>300.7</ele>
        <time>2022-09-13T14:18:56Z</time>
      </trkpt>
      <trkpt lat="43.59401" lon="6.66087">
        <ele>300.4</ele>
        <time>2022-09-13T14:19:00Z</time>
      </trkpt>
      <trkpt lat="43.59395" lon="6.66088">
        <ele>300</ele>
        <time>2022-09-13T14:19:05Z</time>
      </trkpt>
      <trkpt lat="43.5939" lon="6.66088">
        <ele>299.7</ele>
        <time>2022-09-13T14:19:09Z</time>
      </trkpt>
      <trkpt lat="43.59385" lon="6.66087">
        <ele>299.7</ele>
        <time>2022-09-13T14:19:15Z</time>
      </trkpt>
      <trkpt lat="43.59381" lon="6.66087">
        <ele>299.1</ele>
        <time>2022-09-13T14:19:19Z</time>
      </trkpt>
      <trkpt lat="43.59376" lon="6.66088">
        <ele>297.9</ele>
        <time>2022-09-13T14:19:24Z</time>
      </trkpt>
      <trkpt lat="43.59371" lon="6.66088">
        <ele>297.6</ele>
        <time>2022-09-13T14:19:28Z</time>
      </trkpt>
      <trkpt lat="43.59366" lon="6.66087">
        <ele>297.2</ele>
        <time>2022-09-13T14:19:32Z</time>
      </trkpt>
      <trkpt lat="43.59361" lon="6.66086">
        <ele>294.9</ele>
        <time>2022-09-13T14:19:41Z</time>
      </trkpt>
      <trkpt lat="43.59356" lon="6.66087">
        <ele>294.1</ele>
        <time>2022-09-13T14:19:46Z</time>
      </trkpt>
      <trkpt lat="43.59351" lon="6.66087">
        <ele>293.4</ele>
        <time>2022-09-13T14:19:52Z</time>
      </trkpt>
      <trkpt lat="43.59345" lon="6.66087">
        <ele>293</ele>
        <time>2022-09-13T14:19:56Z</time>
      </trkpt>
      <trkpt lat="43.5934" lon="6.66085">
        <ele>293.8</ele>
        <time>2022-09-13T14:20:00Z</time>
      </trkpt>
      <trkpt lat="43.59336" lon="6.66086">
        <ele>294.3</ele>
        <time>2022-09-13T14:20:04Z</time>
      </trkpt>
      <trkpt lat="43.5933" lon="6.66085">
        <ele>294.2</ele>
        <time>2022-09-13T14:20:09Z</time>
      </trkpt>
      <trkpt lat="43.59326" lon="6.66086">
        <ele>293.6</ele>
        <time>2022-09-13T14:20:13Z</time>
      </trkpt>
      <trkpt lat="43.59321" lon="6.66086">
        <ele>293.3</ele>
        <time>2022-09-13T14:20:17Z</time>
      </trkpt>
      <trkpt lat="43.59316" lon="6.66085">
        <ele>292.4</ele>
        <time>2022-09-13T14:20:21Z</time>
      </trkpt>
      <trkpt lat="43.59311" lon="6.66086">
        <ele>292</ele>
        <time>2022-09-13T14:20:26Z</time>
      </trkpt>
      <trkpt lat="43.59305" lon="6.66086">
        <ele>292.4</ele>
        <time>2022-09-13T14:20:30Z</time>
      </trkpt>
      <trkpt lat="43.593" lon="6.66086">
        <ele>292.7</ele>
        <time>2022-09-13T14:20:34Z</time>
      </trkpt>
      <trkpt lat="43.59294" lon="6.66086">
        <ele>292.5</ele>
        <time>2022-09-13T14:20:38Z</time>
      </trkpt>
      <trkpt lat="43.59289" lon="6.66085">
        <ele>292.6</ele>
        <time>2022-09-13T14:20:41Z</time>
      </trkpt>
      <trkpt lat="43.59285" lon="6.66083">
        <ele>292.8</ele>
        <time>2022-09-13T14:20:44Z</time>
      </trkpt>
      <trkpt lat="43.5928" lon="6.66079">
        <ele>292.8</ele>
        <time>2022-09-13T14:20:48Z</time>
      </trkpt>
      <trkpt lat="43.59276" lon="6.66075">
        <ele>292.3</ele>
        <time>2022-09-13T14:20:52Z</time>
      </trkpt>
      <trkpt lat="43.59272" lon="6.66071">
        <ele>292</ele>
        <time>2022-09-13T14:20:56Z</time>
      </trkpt>
      <trkpt lat="43.59268" lon="6.66068">
        <ele>291.5</ele>
        <time>2022-09-13T14:21:00Z</time>
      </trkpt>
      <trkpt lat="43.59264" lon="6.66063">
        <ele>291.2</ele>
        <time>2022-09-13T14:21:04Z</time>
      </trkpt>
      <trkpt lat="43.5926" lon="6.66059">
        <ele>291.8</ele>
        <time>2022-09-13T14:21:09Z</time>
      </trkpt>
      <trkpt lat="43.59256" lon="6.66054">
        <ele>291.4</ele>
        <time>2022-09-13T14:21:14Z</time>
      </trkpt>
      <trkpt lat="43.59252" lon="6.6605">
        <ele>291</ele>
        <time>2022-09-13T14:21:18Z</time>
      </trkpt>
      <trkpt lat="43.59248" lon="6.66046">
        <ele>290.5</ele>
        <time>2022-09-13T14:21:23Z</time>
      </trkpt>
      <trkpt lat="43.59243" lon="6.66042">
        <ele>290.5</ele>
        <time>2022-09-13T14:21:27Z</time>
      </trkpt>
      <trkpt lat="43.59239" lon="6.66037">
        <ele>290.9</ele>
        <time>2022-09-13T14:21:32Z</time>
      </trkpt>
      <trkpt lat="43.59235" lon="6.66033">
        <ele>291.7</ele>
        <time>2022-09-13T14:21:36Z</time>
      </trkpt>
      <trkpt lat="43.59231" lon="6.66027">
        <ele>292.6</ele>
        <time>2022-09-13T14:21:40Z</time>
      </trkpt>
      <trkpt lat="43.59228" lon="6.66021">
        <ele>293.2</ele>
        <time>2022-09-13T14:21:44Z</time>
      </trkpt>
      <trkpt lat="43.59224" lon="6.66016">
        <ele>294</ele>
        <time>2022-09-13T14:21:49Z</time>
      </trkpt>
      <trkpt lat="43.5922" lon="6.66012">
        <ele>294.3</ele>
        <time>2022-09-13T14:21:53Z</time>
      </trkpt>
      <trkpt lat="43.59216" lon="6.66008">
        <ele>294.5</ele>
        <time>2022-09-13T14:21:58Z</time>
      </trkpt>
      <trkpt lat="43.59212" lon="6.66002">
        <ele>294.8</ele>
        <time>2022-09-13T14:22:03Z</time>
      </trkpt>
      <trkpt lat="43.59211" lon="6.65995">
        <ele>294.5</ele>
        <time>2022-09-13T14:22:09Z</time>
      </trkpt>
      <trkpt lat="43.59207" lon="6.65991">
        <ele>294.7</ele>
        <time>2022-09-13T14:22:16Z</time>
      </trkpt>
      <trkpt lat="43.59205" lon="6.65985">
        <ele>294.7</ele>
        <time>2022-09-13T14:22:21Z</time>
      </trkpt>
      <trkpt lat="43.59202" lon="6.65979">
        <ele>293.7</ele>
        <time>2022-09-13T14:22:27Z</time>
      </trkpt>
      <trkpt lat="43.59199" lon="6.65973">
        <ele>292.6</ele>
        <time>2022-09-13T14:22:33Z</time>
      </trkpt>
      <trkpt lat="43.59195" lon="6.65969">
        <ele>292.1</ele>
        <time>2022-09-13T14:22:38Z</time>
      </trkpt>
      <trkpt lat="43.59191" lon="6.65965">
        <ele>291.1</ele>
        <time>2022-09-13T14:22:44Z</time>
      </trkpt>
      <trkpt lat="43.59187" lon="6.65962">
        <ele>290.4</ele>
        <time>2022-09-13T14:22:48Z</time>
      </trkpt>
      <trkpt lat="43.59182" lon="6.65958">
        <ele>289.5</ele>
        <time>2022-09-13T14:22:53Z</time>
      </trkpt>
      <trkpt lat="43.59178" lon="6.65953">
        <ele>289.2</ele>
        <time>2022-09-13T14:22:58Z</time>
      </trkpt>
      <trkpt lat="43.59174" lon="6.65949">
        <ele>288.7</ele>
        <time>2022-09-13T14:23:03Z</time>
      </trkpt>
      <trkpt lat="43.5917" lon="6.65944">
        <ele>288.9</ele>
        <time>2022-09-13T14:23:09Z</time>
      </trkpt>
      <trkpt lat="43.59167" lon="6.6594">
        <ele>289.1</ele>
        <time>2022-09-13T14:23:14Z</time>
      </trkpt>
      <trkpt lat="43.59164" lon="6.65935">
        <ele>289</ele>
        <time>2022-09-13T14:23:19Z</time>
      </trkpt>
      <trkpt lat="43.59162" lon="6.65927">
        <ele>288.2</ele>
        <time>2022-09-13T14:23:24Z</time>
      </trkpt>
      <trkpt lat="43.59159" lon="6.65922">
        <ele>287.1</ele>
        <time>2022-09-13T14:23:31Z</time>
      </trkpt>
      <trkpt lat="43.59155" lon="6.65918">
        <ele>286</ele>
        <time>2022-09-13T14:23:36Z</time>
      </trkpt>
      <trkpt lat="43.59151" lon="6.65914">
        <ele>285.1</ele>
        <time>2022-09-13T14:23:41Z</time>
      </trkpt>
      <trkpt lat="43.59147" lon="6.6591">
        <ele>284.6</ele>
        <time>2022-09-13T14:23:45Z</time>
      </trkpt>
      <trkpt lat="43.59142" lon="6.65906">
        <ele>283.8</ele>
        <time>2022-09-13T14:23:50Z</time>
      </trkpt>
      <trkpt lat="43.59138" lon="6.65904">
        <ele>283.6</ele>
        <time>2022-09-13T14:23:55Z</time>
      </trkpt>
      <trkpt lat="43.59133" lon="6.65904">
        <ele>283.2</ele>
        <time>2022-09-13T14:24:02Z</time>
      </trkpt>
      <trkpt lat="43.59129" lon="6.65902">
        <ele>283.8</ele>
        <time>2022-09-13T14:24:07Z</time>
      </trkpt>
      <trkpt lat="43.59124" lon="6.65901">
        <ele>284.7</ele>
        <time>2022-09-13T14:24:11Z</time>
      </trkpt>
      <trkpt lat="43.59119" lon="6.65899">
        <ele>285.6</ele>
        <time>2022-09-13T14:24:16Z</time>
      </trkpt>
      <trkpt lat="43.59115" lon="6.65896">
        <ele>286.3</ele>
        <time>2022-09-13T14:24:20Z</time>
      </trkpt>
      <trkpt lat="43.5911" lon="6.65893">
        <ele>286.4</ele>
        <time>2022-09-13T14:24:25Z</time>
      </trkpt>
      <trkpt lat="43.59106" lon="6.65889">
        <ele>286.3</ele>
        <time>2022-09-13T14:24:29Z</time>
      </trkpt>
      <trkpt lat="43.59102" lon="6.65887">
        <ele>286.5</ele>
        <time>2022-09-13T14:24:34Z</time>
      </trkpt>
      <trkpt lat="43.59098" lon="6.65885">
        <ele>286.5</ele>
        <time>2022-09-13T14:24:39Z</time>
      </trkpt>
      <trkpt lat="43.59095" lon="6.6588">
        <ele>286.4</ele>
        <time>2022-09-13T14:24:45Z</time>
      </trkpt>
      <trkpt lat="43.59094" lon="6.65873">
        <ele>286.7</ele>
        <time>2022-09-13T14:24:52Z</time>
      </trkpt>
      <trkpt lat="43.59095" lon="6.65867">
        <ele>286.5</ele>
        <time>2022-09-13T14:24:56Z</time>
      </trkpt>
      <trkpt lat="43.59096" lon="6.6586">
        <ele>286.5</ele>
        <time>2022-09-13T14:25:01Z</time>
      </trkpt>
      <trkpt lat="43.59097" lon="6.65854">
        <ele>286.4</ele>
        <time>2022-09-13T14:25:06Z</time>
      </trkpt>
      <trkpt lat="43.59098" lon="6.65847">
        <ele>285.5</ele>
        <time>2022-09-13T14:25:11Z</time>
      </trkpt>
      <trkpt lat="43.59099" lon="6.65841">
        <ele>285.7</ele>
        <time>2022-09-13T14:25:16Z</time>
      </trkpt>
      <trkpt lat="43.59102" lon="6.65836">
        <ele>284.9</ele>
        <time>2022-09-13T14:25:21Z</time>
      </trkpt>
      <trkpt lat="43.59104" lon="6.65829">
        <ele>284.3</ele>
        <time>2022-09-13T14:25:27Z</time>
      </trkpt>
      <trkpt lat="43.59106" lon="6.65823">
        <ele>284.3</ele>
        <time>2022-09-13T14:25:32Z</time>
      </trkpt>
      <trkpt lat="43.59108" lon="6.65816">
        <ele>284.2</ele>
        <time>2022-09-13T14:25:36Z</time>
      </trkpt>
      <trkpt lat="43.59111" lon="6.65811">
        <ele>284</ele>
        <time>2022-09-13T14:25:40Z</time>
      </trkpt>
      <trkpt lat="43.59115" lon="6.65806">
        <ele>283.8</ele>
        <time>2022-09-13T14:25:44Z</time>
      </trkpt>
      <trkpt lat="43.59118" lon="6.65801">
        <ele>284</ele>
        <time>2022-09-13T14:25:48Z</time>
      </trkpt>
      <trkpt lat="43.59122" lon="6.65796">
        <ele>283.8</ele>
        <time>2022-09-13T14:25:53Z</time>
      </trkpt>
      <trkpt lat="43.59126" lon="6.65791">
        <ele>283.5</ele>
        <time>2022-09-13T14:25:58Z</time>
      </trkpt>
      <trkpt lat="43.5913" lon="6.65787">
        <ele>283.3</ele>
        <time>2022-09-13T14:26:05Z</time>
      </trkpt>
      <trkpt lat="43.59134" lon="6.65782">
        <ele>283.4</ele>
        <time>2022-09-13T14:26:10Z</time>
      </trkpt>
      <trkpt lat="43.59138" lon="6.65779">
        <ele>283</ele>
        <time>2022-09-13T14:26:14Z</time>
      </trkpt>
      <trkpt lat="43.59142" lon="6.65776">
        <ele>282.2</ele>
        <time>2022-09-13T14:26:18Z</time>
      </trkpt>
      <trkpt lat="43.59145" lon="6.65771">
        <ele>281.9</ele>
        <time>2022-09-13T14:26:24Z</time>
      </trkpt>
      <trkpt lat="43.59146" lon="6.65764">
        <ele>281.8</ele>
        <time>2022-09-13T14:26:31Z</time>
      </trkpt>
      <trkpt lat="43.59147" lon="6.65758">
        <ele>282.3</ele>
        <time>2022-09-13T14:26:37Z</time>
      </trkpt>
      <trkpt lat="43.59144" lon="6.65751">
        <ele>281.7</ele>
        <time>2022-09-13T14:26:44Z</time>
      </trkpt>
      <trkpt lat="43.5914" lon="6.65748">
        <ele>280.9</ele>
        <time>2022-09-13T14:26:50Z</time>
      </trkpt>
      <trkpt lat="43.59138" lon="6.65743">
        <ele>279.5</ele>
        <time>2022-09-13T14:26:56Z</time>
      </trkpt>
      <trkpt lat="43.59136" lon="6.65737">
        <ele>278.1</ele>
        <time>2022-09-13T14:27:03Z</time>
      </trkpt>
      <trkpt lat="43.59132" lon="6.65731">
        <ele>276.6</ele>
        <time>2022-09-13T14:27:08Z</time>
      </trkpt>
      <trkpt lat="43.59129" lon="6.65727">
        <ele>275.4</ele>
        <time>2022-09-13T14:27:12Z</time>
      </trkpt>
      <trkpt lat="43.59126" lon="6.65721">
        <ele>275</ele>
        <time>2022-09-13T14:27:17Z</time>
      </trkpt>
      <trkpt lat="43.59123" lon="6.65716">
        <ele>274.3</ele>
        <time>2022-09-13T14:27:22Z</time>
      </trkpt>
      <trkpt lat="43.5912" lon="6.65711">
        <ele>274.1</ele>
        <time>2022-09-13T14:27:27Z</time>
      </trkpt>
      <trkpt lat="43.59117" lon="6.65705">
        <ele>273.1</ele>
        <time>2022-09-13T14:27:32Z</time>
      </trkpt>
      <trkpt lat="43.59113" lon="6.657">
        <ele>272.4</ele>
        <time>2022-09-13T14:27:37Z</time>
      </trkpt>
      <trkpt lat="43.59109" lon="6.65696">
        <ele>272.1</ele>
        <time>2022-09-13T14:27:41Z</time>
      </trkpt>
      <trkpt lat="43.59105" lon="6.65693">
        <ele>271.7</ele>
        <time>2022-09-13T14:27:46Z</time>
      </trkpt>
      <trkpt lat="43.591" lon="6.6569">
        <ele>271.5</ele>
        <time>2022-09-13T14:27:51Z</time>
      </trkpt>
      <trkpt lat="43.59096" lon="6.65686">
        <ele>270.7</ele>
        <time>2022-09-13T14:27:56Z</time>
      </trkpt>
      <trkpt lat="43.59093" lon="6.65681">
        <ele>270.2</ele>
        <time>2022-09-13T14:28:01Z</time>
      </trkpt>
      <trkpt lat="43.5909" lon="6.65675">
        <ele>270.1</ele>
        <time>2022-09-13T14:28:06Z</time>
      </trkpt>
      <trkpt lat="43.59087" lon="6.65671">
        <ele>270.5</ele>
        <time>2022-09-13T14:28:10Z</time>
      </trkpt>
      <trkpt lat="43.59084" lon="6.65666">
        <ele>270.7</ele>
        <time>2022-09-13T14:28:14Z</time>
      </trkpt>
      <trkpt lat="43.5908" lon="6.6566">
        <ele>270.1</ele>
        <time>2022-09-13T14:28:19Z</time>
      </trkpt>
      <trkpt lat="43.59077" lon="6.65656">
        <ele>269.2</ele>
        <time>2022-09-13T14:28:23Z</time>
      </trkpt>
      <trkpt lat="43.59073" lon="6.65651">
        <ele>268.5</ele>
        <time>2022-09-13T14:28:28Z</time>
      </trkpt>
      <trkpt lat="43.5907" lon="6.65645">
        <ele>268.3</ele>
        <time>2022-09-13T14:28:34Z</time>
      </trkpt>
      <trkpt lat="43.59065" lon="6.65641">
        <ele>268.3</ele>
        <time>2022-09-13T14:28:40Z</time>
      </trkpt>
      <trkpt lat="43.59061" lon="6.65639">
        <ele>268</ele>
        <time>2022-09-13T14:28:46Z</time>
      </trkpt>
      <trkpt lat="43.59058" lon="6.65635">
        <ele>268.4</ele>
        <time>2022-09-13T14:28:51Z</time>
      </trkpt>
      <trkpt lat="43.59054" lon="6.65631">
        <ele>268.3</ele>
        <time>2022-09-13T14:28:56Z</time>
      </trkpt>
      <trkpt lat="43.5905" lon="6.65627">
        <ele>268.1</ele>
        <time>2022-09-13T14:29:01Z</time>
      </trkpt>
      <trkpt lat="43.59047" lon="6.65621">
        <ele>268.1</ele>
        <time>2022-09-13T14:29:07Z</time>
      </trkpt>
      <trkpt lat="43.59045" lon="6.65616">
        <ele>267.3</ele>
        <time>2022-09-13T14:29:11Z</time>
      </trkpt>
      <trkpt lat="43.59041" lon="6.65611">
        <ele>266.7</ele>
        <time>2022-09-13T14:29:16Z</time>
      </trkpt>
      <trkpt lat="43.5904" lon="6.65605">
        <ele>266.2</ele>
        <time>2022-09-13T14:29:21Z</time>
      </trkpt>
      <trkpt lat="43.59037" lon="6.65599">
        <ele>266.1</ele>
        <time>2022-09-13T14:29:27Z</time>
      </trkpt>
      <trkpt lat="43.59035" lon="6.65592">
        <ele>265.8</ele>
        <time>2022-09-13T14:29:32Z</time>
      </trkpt>
      <trkpt lat="43.59032" lon="6.65588">
        <ele>265.6</ele>
        <time>2022-09-13T14:29:36Z</time>
      </trkpt>
      <trkpt lat="43.5903" lon="6.65582">
        <ele>265.6</ele>
        <time>2022-09-13T14:29:41Z</time>
      </trkpt>
      <trkpt lat="43.5903" lon="6.65576">
        <ele>265.8</ele>
        <time>2022-09-13T14:29:45Z</time>
      </trkpt>
      <trkpt lat="43.59028" lon="6.65569">
        <ele>265.9</ele>
        <time>2022-09-13T14:29:52Z</time>
      </trkpt>
      <trkpt lat="43.59026" lon="6.65563">
        <ele>265</ele>
        <time>2022-09-13T14:29:58Z</time>
      </trkpt>
      <trkpt lat="43.59025" lon="6.65556">
        <ele>264.5</ele>
        <time>2022-09-13T14:30:03Z</time>
      </trkpt>
      <trkpt lat="43.59028" lon="6.65549">
        <ele>264.5</ele>
        <time>2022-09-13T14:30:07Z</time>
      </trkpt>
      <trkpt lat="43.59032" lon="6.65546">
        <ele>265</ele>
        <time>2022-09-13T14:30:12Z</time>
      </trkpt>
      <trkpt lat="43.59036" lon="6.65541">
        <ele>265.2</ele>
        <time>2022-09-13T14:30:17Z</time>
      </trkpt>
      <trkpt lat="43.59039" lon="6.65535">
        <ele>265.1</ele>
        <time>2022-09-13T14:30:23Z</time>
      </trkpt>
      <trkpt lat="43.59043" lon="6.65532">
        <ele>265.2</ele>
        <time>2022-09-13T14:30:27Z</time>
      </trkpt>
      <trkpt lat="43.59048" lon="6.65531">
        <ele>265.4</ele>
        <time>2022-09-13T14:30:32Z</time>
      </trkpt>
      <trkpt lat="43.59051" lon="6.65526">
        <ele>266.1</ele>
        <time>2022-09-13T14:30:39Z</time>
      </trkpt>
      <trkpt lat="43.59053" lon="6.6552">
        <ele>266.2</ele>
        <time>2022-09-13T14:30:45Z</time>
      </trkpt>
      <trkpt lat="43.59056" lon="6.65514">
        <ele>266.5</ele>
        <time>2022-09-13T14:30:50Z</time>
      </trkpt>
      <trkpt lat="43.59059" lon="6.65509">
        <ele>266.5</ele>
        <time>2022-09-13T14:30:54Z</time>
      </trkpt>
      <trkpt lat="43.59064" lon="6.65507">
        <ele>266.7</ele>
        <time>2022-09-13T14:30:59Z</time>
      </trkpt>
      <trkpt lat="43.59068" lon="6.65502">
        <ele>266.6</ele>
        <time>2022-09-13T14:31:04Z</time>
      </trkpt>
      <trkpt lat="43.59072" lon="6.65498">
        <ele>266.2</ele>
        <time>2022-09-13T14:31:09Z</time>
      </trkpt>
      <trkpt lat="43.59076" lon="6.65495">
        <ele>266.1</ele>
        <time>2022-09-13T14:31:14Z</time>
      </trkpt>
      <trkpt lat="43.59081" lon="6.65493">
        <ele>265.9</ele>
        <time>2022-09-13T14:31:19Z</time>
      </trkpt>
      <trkpt lat="43.59085" lon="6.6549">
        <ele>266.3</ele>
        <time>2022-09-13T14:31:24Z</time>
      </trkpt>
      <trkpt lat="43.59089" lon="6.65487">
        <ele>266.8</ele>
        <time>2022-09-13T14:31:29Z</time>
      </trkpt>
      <trkpt lat="43.59094" lon="6.65485">
        <ele>267.4</ele>
        <time>2022-09-13T14:31:34Z</time>
      </trkpt>
      <trkpt lat="43.59098" lon="6.6548">
        <ele>267.7</ele>
        <time>2022-09-13T14:31:41Z</time>
      </trkpt>
      <trkpt lat="43.59099" lon="6.65473">
        <ele>267.3</ele>
        <time>2022-09-13T14:31:47Z</time>
      </trkpt>
      <trkpt lat="43.591" lon="6.65467">
        <ele>266.6</ele>
        <time>2022-09-13T14:31:51Z</time>
      </trkpt>
      <trkpt lat="43.59103" lon="6.6546">
        <ele>266</ele>
        <time>2022-09-13T14:31:56Z</time>
      </trkpt>
      <trkpt lat="43.59106" lon="6.65455">
        <ele>265.5</ele>
        <time>2022-09-13T14:32:01Z</time>
      </trkpt>
      <trkpt lat="43.59111" lon="6.6545">
        <ele>264.8</ele>
        <time>2022-09-13T14:32:06Z</time>
      </trkpt>
      <trkpt lat="43.59116" lon="6.65448">
        <ele>264.2</ele>
        <time>2022-09-13T14:32:11Z</time>
      </trkpt>
      <trkpt lat="43.5912" lon="6.65444">
        <ele>264.2</ele>
        <time>2022-09-13T14:32:17Z</time>
      </trkpt>
      <trkpt lat="43.59121" lon="6.65438">
        <ele>264.1</ele>
        <time>2022-09-13T14:32:24Z</time>
      </trkpt>
      <trkpt lat="43.59122" lon="6.65431">
        <ele>264.2</ele>
        <time>2022-09-13T14:32:28Z</time>
      </trkpt>
      <trkpt lat="43.59125" lon="6.65425">
        <ele>263.9</ele>
        <time>2022-09-13T14:32:33Z</time>
      </trkpt>
      <trkpt lat="43.59129" lon="6.65423">
        <ele>263.5</ele>
        <time>2022-09-13T14:32:38Z</time>
      </trkpt>
      <trkpt lat="43.59132" lon="6.65418">
        <ele>263.7</ele>
        <time>2022-09-13T14:32:49Z</time>
      </trkpt>
      <trkpt lat="43.59134" lon="6.65412">
        <ele>263.8</ele>
        <time>2022-09-13T14:32:54Z</time>
      </trkpt>
      <trkpt lat="43.59134" lon="6.65406">
        <ele>263.7</ele>
        <time>2022-09-13T14:32:59Z</time>
      </trkpt>
      <trkpt lat="43.59135" lon="6.65399">
        <ele>262.8</ele>
        <time>2022-09-13T14:33:06Z</time>
      </trkpt>
      <trkpt lat="43.59135" lon="6.65393">
        <ele>262.3</ele>
        <time>2022-09-13T14:33:12Z</time>
      </trkpt>
      <trkpt lat="43.59135" lon="6.65386">
        <ele>261.3</ele>
        <time>2022-09-13T14:33:18Z</time>
      </trkpt>
      <trkpt lat="43.59132" lon="6.6538">
        <ele>261</ele>
        <time>2022-09-13T14:33:24Z</time>
      </trkpt>
      <trkpt lat="43.59131" lon="6.65373">
        <ele>260.3</ele>
        <time>2022-09-13T14:33:30Z</time>
      </trkpt>
      <trkpt lat="43.5913" lon="6.65366">
        <ele>260.4</ele>
        <time>2022-09-13T14:33:35Z</time>
      </trkpt>
      <trkpt lat="43.5913" lon="6.65359">
        <ele>260.7</ele>
        <time>2022-09-13T14:33:41Z</time>
      </trkpt>
      <trkpt lat="43.5913" lon="6.65352">
        <ele>261.3</ele>
        <time>2022-09-13T14:33:48Z</time>
      </trkpt>
      <trkpt lat="43.59127" lon="6.65347">
        <ele>261.2</ele>
        <time>2022-09-13T14:33:55Z</time>
      </trkpt>
      <trkpt lat="43.59124" lon="6.65341">
        <ele>260.4</ele>
        <time>2022-09-13T14:34:01Z</time>
      </trkpt>
      <trkpt lat="43.59121" lon="6.65336">
        <ele>260</ele>
        <time>2022-09-13T14:34:06Z</time>
      </trkpt>
      <trkpt lat="43.59118" lon="6.65331">
        <ele>259.9</ele>
        <time>2022-09-13T14:34:11Z</time>
      </trkpt>
      <trkpt lat="43.59115" lon="6.65325">
        <ele>259.5</ele>
        <time>2022-09-13T14:34:15Z</time>
      </trkpt>
      <trkpt lat="43.59113" lon="6.6532">
        <ele>258.7</ele>
        <time>2022-09-13T14:34:20Z</time>
      </trkpt>
      <trkpt lat="43.59109" lon="6.65315">
        <ele>258</ele>
        <time>2022-09-13T14:34:25Z</time>
      </trkpt>
      <trkpt lat="43.59105" lon="6.6531">
        <ele>257.5</ele>
        <time>2022-09-13T14:34:29Z</time>
      </trkpt>
      <trkpt lat="43.59101" lon="6.65306">
        <ele>257.4</ele>
        <time>2022-09-13T14:34:34Z</time>
      </trkpt>
      <trkpt lat="43.59097" lon="6.65301">
        <ele>256.5</ele>
        <time>2022-09-13T14:34:39Z</time>
      </trkpt>
      <trkpt lat="43.59093" lon="6.65297">
        <ele>256.5</ele>
        <time>2022-09-13T14:34:44Z</time>
      </trkpt>
      <trkpt lat="43.59089" lon="6.65294">
        <ele>256.5</ele>
        <time>2022-09-13T14:34:49Z</time>
      </trkpt>
      <trkpt lat="43.59085" lon="6.6529">
        <ele>256.5</ele>
        <time>2022-09-13T14:34:54Z</time>
      </trkpt>
      <trkpt lat="43.59082" lon="6.65283">
        <ele>256.2</ele>
        <time>2022-09-13T14:34:59Z</time>
      </trkpt>
      <trkpt lat="43.59078" lon="6.65278">
        <ele>255.9</ele>
        <time>2022-09-13T14:35:04Z</time>
      </trkpt>
      <trkpt lat="43.59074" lon="6.65275">
        <ele>256</ele>
        <time>2022-09-13T14:35:09Z</time>
      </trkpt>
      <trkpt lat="43.5907" lon="6.65271">
        <ele>256.2</ele>
        <time>2022-09-13T14:35:14Z</time>
      </trkpt>
      <trkpt lat="43.59066" lon="6.65265">
        <ele>255.5</ele>
        <time>2022-09-13T14:35:19Z</time>
      </trkpt>
      <trkpt lat="43.59063" lon="6.65259">
        <ele>255.2</ele>
        <time>2022-09-13T14:35:24Z</time>
      </trkpt>
      <trkpt lat="43.59059" lon="6.65254">
        <ele>255.2</ele>
        <time>2022-09-13T14:35:29Z</time>
      </trkpt>
      <trkpt lat="43.59055" lon="6.65252">
        <ele>255.3</ele>
        <time>2022-09-13T14:35:35Z</time>
      </trkpt>
      <trkpt lat="43.5905" lon="6.65249">
        <ele>255.9</ele>
        <time>2022-09-13T14:35:41Z</time>
      </trkpt>
      <trkpt lat="43.59046" lon="6.65246">
        <ele>255.5</ele>
        <time>2022-09-13T14:35:46Z</time>
      </trkpt>
      <trkpt lat="43.59041" lon="6.65244">
        <ele>255</ele>
        <time>2022-09-13T14:35:52Z</time>
      </trkpt>
      <trkpt lat="43.59036" lon="6.65244">
        <ele>253.7</ele>
        <time>2022-09-13T14:35:59Z</time>
      </trkpt>
      <trkpt lat="43.59031" lon="6.65243">
        <ele>252.3</ele>
        <time>2022-09-13T14:36:04Z</time>
      </trkpt>
      <trkpt lat="43.59026" lon="6.65245">
        <ele>252.1</ele>
        <time>2022-09-13T14:36:10Z</time>
      </trkpt>
      <trkpt lat="43.59022" lon="6.65248">
        <ele>251.6</ele>
        <time>2022-09-13T14:36:16Z</time>
      </trkpt>
      <trkpt lat="43.59017" lon="6.65249">
        <ele>251.4</ele>
        <time>2022-09-13T14:36:20Z</time>
      </trkpt>
      <trkpt lat="43.59012" lon="6.6525">
        <ele>250.9</ele>
        <time>2022-09-13T14:36:24Z</time>
      </trkpt>
      <trkpt lat="43.59007" lon="6.65249">
        <ele>250.2</ele>
        <time>2022-09-13T14:36:31Z</time>
      </trkpt>
      <trkpt lat="43.59002" lon="6.6525">
        <ele>249.8</ele>
        <time>2022-09-13T14:36:35Z</time>
      </trkpt>
      <trkpt lat="43.58997" lon="6.6525">
        <ele>249.6</ele>
        <time>2022-09-13T14:36:40Z</time>
      </trkpt>
      <trkpt lat="43.58992" lon="6.65252">
        <ele>249.3</ele>
        <time>2022-09-13T14:36:45Z</time>
      </trkpt>
      <trkpt lat="43.58987" lon="6.65254">
        <ele>249.9</ele>
        <time>2022-09-13T14:36:51Z</time>
      </trkpt>
      <trkpt lat="43.58982" lon="6.65253">
        <ele>249.3</ele>
        <time>2022-09-13T14:36:56Z</time>
      </trkpt>
      <trkpt lat="43.58976" lon="6.65253">
        <ele>249.6</ele>
        <time>2022-09-13T14:37:01Z</time>
      </trkpt>
      <trkpt lat="43.58971" lon="6.65253">
        <ele>250</ele>
        <time>2022-09-13T14:37:05Z</time>
      </trkpt>
      <trkpt lat="43.58966" lon="6.65254">
        <ele>250.7</ele>
        <time>2022-09-13T14:37:10Z</time>
      </trkpt>
      <trkpt lat="43.58961" lon="6.65254">
        <ele>250.9</ele>
        <time>2022-09-13T14:37:15Z</time>
      </trkpt>
      <trkpt lat="43.58956" lon="6.65255">
        <ele>250.9</ele>
        <time>2022-09-13T14:37:20Z</time>
      </trkpt>
      <trkpt lat="43.58951" lon="6.65256">
        <ele>251.2</ele>
        <time>2022-09-13T14:37:24Z</time>
      </trkpt>
      <trkpt lat="43.58945" lon="6.65256">
        <ele>251.8</ele>
        <time>2022-09-13T14:37:28Z</time>
      </trkpt>
      <trkpt lat="43.5894" lon="6.65256">
        <ele>252.4</ele>
        <time>2022-09-13T14:37:34Z</time>
      </trkpt>
      <trkpt lat="43.58935" lon="6.65255">
        <ele>252.1</ele>
        <time>2022-09-13T14:37:40Z</time>
      </trkpt>
      <trkpt lat="43.58929" lon="6.65254">
        <ele>252.2</ele>
        <time>2022-09-13T14:37:45Z</time>
      </trkpt>
      <trkpt lat="43.58925" lon="6.65253">
        <ele>252</ele>
        <time>2022-09-13T14:37:49Z</time>
      </trkpt>
      <trkpt lat="43.5892" lon="6.65253">
        <ele>251.1</ele>
        <time>2022-09-13T14:37:54Z</time>
      </trkpt>
      <trkpt lat="43.58915" lon="6.65252">
        <ele>249.9</ele>
        <time>2022-09-13T14:37:58Z</time>
      </trkpt>
      <trkpt lat="43.58909" lon="6.65251">
        <ele>249</ele>
        <time>2022-09-13T14:38:03Z</time>
      </trkpt>
      <trkpt lat="43.58903" lon="6.6525">
        <ele>249</ele>
        <time>2022-09-13T14:38:08Z</time>
      </trkpt>
      <trkpt lat="43.58899" lon="6.65249">
        <ele>249.3</ele>
        <time>2022-09-13T14:38:12Z</time>
      </trkpt>
      <trkpt lat="43.58893" lon="6.65248">
        <ele>249.2</ele>
        <time>2022-09-13T14:38:17Z</time>
      </trkpt>
      <trkpt lat="43.58889" lon="6.65245">
        <ele>249.6</ele>
        <time>2022-09-13T14:38:21Z</time>
      </trkpt>
      <trkpt lat="43.58887" lon="6.6524">
        <ele>249.6</ele>
        <time>2022-09-13T14:38:25Z</time>
      </trkpt>
      <trkpt lat="43.58888" lon="6.65234">
        <ele>249.2</ele>
        <time>2022-09-13T14:38:36Z</time>
      </trkpt>
      <trkpt lat="43.58891" lon="6.65229">
        <ele>249.5</ele>
        <time>2022-09-13T14:38:42Z</time>
      </trkpt>
      <trkpt lat="43.58893" lon="6.65223">
        <ele>249.3</ele>
        <time>2022-09-13T14:38:49Z</time>
      </trkpt>
      <trkpt lat="43.58893" lon="6.65217">
        <ele>248.8</ele>
        <time>2022-09-13T14:38:54Z</time>
      </trkpt>
      <trkpt lat="43.58895" lon="6.65211">
        <ele>248.1</ele>
        <time>2022-09-13T14:38:59Z</time>
      </trkpt>
      <trkpt lat="43.58899" lon="6.65206">
        <ele>248.2</ele>
        <time>2022-09-13T14:39:05Z</time>
      </trkpt>
      <trkpt lat="43.58902" lon="6.65202">
        <ele>249.1</ele>
        <time>2022-09-13T14:39:11Z</time>
      </trkpt>
      <trkpt lat="43.58906" lon="6.65197">
        <ele>249.4</ele>
        <time>2022-09-13T14:39:16Z</time>
      </trkpt>
      <trkpt lat="43.58909" lon="6.65191">
        <ele>250.2</ele>
        <time>2022-09-13T14:39:21Z</time>
      </trkpt>
      <trkpt lat="43.58909" lon="6.65185">
        <ele>250.6</ele>
        <time>2022-09-13T14:39:29Z</time>
      </trkpt>
      <trkpt lat="43.58907" lon="6.65179">
        <ele>249.8</ele>
        <time>2022-09-13T14:39:36Z</time>
      </trkpt>
      <trkpt lat="43.58904" lon="6.65174">
        <ele>249.8</ele>
        <time>2022-09-13T14:39:41Z</time>
      </trkpt>
      <trkpt lat="43.58901" lon="6.65168">
        <ele>249.5</ele>
        <time>2022-09-13T14:39:48Z</time>
      </trkpt>
      <trkpt lat="43.58899" lon="6.65162">
        <ele>250</ele>
        <time>2022-09-13T14:42:35Z</time>
      </trkpt>
      <trkpt lat="43.58896" lon="6.65157">
        <ele>249.6</ele>
        <time>2022-09-13T14:42:40Z</time>
      </trkpt>
      <trkpt lat="43.58893" lon="6.65152">
        <ele>249.5</ele>
        <time>2022-09-13T14:42:45Z</time>
      </trkpt>
      <trkpt lat="43.58891" lon="6.65144">
        <ele>250</ele>
        <time>2022-09-13T14:42:50Z</time>
      </trkpt>
      <trkpt lat="43.5889" lon="6.65137">
        <ele>250.7</ele>
        <time>2022-09-13T14:42:55Z</time>
      </trkpt>
      <trkpt lat="43.58887" lon="6.65132">
        <ele>250.8</ele>
        <time>2022-09-13T14:43:00Z</time>
      </trkpt>
      <trkpt lat="43.58884" lon="6.65127">
        <ele>250.8</ele>
        <time>2022-09-13T14:43:07Z</time>
      </trkpt>
      <trkpt lat="43.58883" lon="6.65121">
        <ele>250.8</ele>
        <time>2022-09-13T14:43:12Z</time>
      </trkpt>
      <trkpt lat="43.58883" lon="6.65114">
        <ele>250.6</ele>
        <time>2022-09-13T14:43:17Z</time>
      </trkpt>
      <trkpt lat="43.58883" lon="6.65107">
        <ele>250.6</ele>
        <time>2022-09-13T14:43:23Z</time>
      </trkpt>
      <trkpt lat="43.58884" lon="6.65101">
        <ele>250.1</ele>
        <time>2022-09-13T14:43:29Z</time>
      </trkpt>
      <trkpt lat="43.58884" lon="6.65094">
        <ele>249.8</ele>
        <time>2022-09-13T14:43:35Z</time>
      </trkpt>
      <trkpt lat="43.58884" lon="6.65087">
        <ele>249.8</ele>
        <time>2022-09-13T14:43:41Z</time>
      </trkpt>
      <trkpt lat="43.58885" lon="6.65079">
        <ele>250.1</ele>
        <time>2022-09-13T14:43:46Z</time>
      </trkpt>
      <trkpt lat="43.58884" lon="6.65073">
        <ele>250.7</ele>
        <time>2022-09-13T14:43:53Z</time>
      </trkpt>
      <trkpt lat="43.58883" lon="6.65066">
        <ele>251.2</ele>
        <time>2022-09-13T14:43:57Z</time>
      </trkpt>
      <trkpt lat="43.58882" lon="6.6506">
        <ele>251.3</ele>
        <time>2022-09-13T14:44:01Z</time>
      </trkpt>
      <trkpt lat="43.58881" lon="6.65054">
        <ele>251.4</ele>
        <time>2022-09-13T14:44:05Z</time>
      </trkpt>
      <trkpt lat="43.58882" lon="6.65046">
        <ele>251.6</ele>
        <time>2022-09-13T14:44:10Z</time>
      </trkpt>
      <trkpt lat="43.58882" lon="6.6504">
        <ele>252.1</ele>
        <time>2022-09-13T14:44:15Z</time>
      </trkpt>
      <trkpt lat="43.58882" lon="6.65033">
        <ele>252.9</ele>
        <time>2022-09-13T14:44:21Z</time>
      </trkpt>
      <trkpt lat="43.58881" lon="6.65027">
        <ele>252.5</ele>
        <time>2022-09-13T14:44:26Z</time>
      </trkpt>
      <trkpt lat="43.58881" lon="6.65021">
        <ele>252.1</ele>
        <time>2022-09-13T14:44:33Z</time>
      </trkpt>
      <trkpt lat="43.58879" lon="6.65014">
        <ele>251.5</ele>
        <time>2022-09-13T14:44:39Z</time>
      </trkpt>
      <trkpt lat="43.58878" lon="6.65007">
        <ele>251.5</ele>
        <time>2022-09-13T14:44:43Z</time>
      </trkpt>
      <trkpt lat="43.58878" lon="6.65">
        <ele>251.5</ele>
        <time>2022-09-13T14:44:47Z</time>
      </trkpt>
      <trkpt lat="43.58878" lon="6.64993">
        <ele>251.7</ele>
        <time>2022-09-13T14:44:52Z</time>
      </trkpt>
      <trkpt lat="43.58879" lon="6.64985">
        <ele>252</ele>
        <time>2022-09-13T14:44:59Z</time>
      </trkpt>
      <trkpt lat="43.58881" lon="6.64978">
        <ele>252</ele>
        <time>2022-09-13T14:45:03Z</time>
      </trkpt>
      <trkpt lat="43.58883" lon="6.64973">
        <ele>251.7</ele>
        <time>2022-09-13T14:45:08Z</time>
      </trkpt>
      <trkpt lat="43.58886" lon="6.64967">
        <ele>252.1</ele>
        <time>2022-09-13T14:45:13Z</time>
      </trkpt>
      <trkpt lat="43.58888" lon="6.6496">
        <ele>252.8</ele>
        <time>2022-09-13T14:45:18Z</time>
      </trkpt>
      <trkpt lat="43.58889" lon="6.64953">
        <ele>254</ele>
        <time>2022-09-13T14:45:23Z</time>
      </trkpt>
      <trkpt lat="43.58889" lon="6.64947">
        <ele>254.3</ele>
        <time>2022-09-13T14:45:27Z</time>
      </trkpt>
      <trkpt lat="43.58889" lon="6.64941">
        <ele>255.1</ele>
        <time>2022-09-13T14:45:32Z</time>
      </trkpt>
      <trkpt lat="43.58889" lon="6.64935">
        <ele>254.5</ele>
        <time>2022-09-13T14:45:38Z</time>
      </trkpt>
      <trkpt lat="43.58886" lon="6.64929">
        <ele>253.8</ele>
        <time>2022-09-13T14:45:45Z</time>
      </trkpt>
      <trkpt lat="43.58887" lon="6.64922">
        <ele>253</ele>
        <time>2022-09-13T14:45:49Z</time>
      </trkpt>
      <trkpt lat="43.58889" lon="6.64916">
        <ele>252.8</ele>
        <time>2022-09-13T14:45:53Z</time>
      </trkpt>
      <trkpt lat="43.58892" lon="6.64911">
        <ele>252.8</ele>
        <time>2022-09-13T14:45:59Z</time>
      </trkpt>
      <trkpt lat="43.58893" lon="6.64905">
        <ele>252.7</ele>
        <time>2022-09-13T14:46:07Z</time>
      </trkpt>
      <trkpt lat="43.58895" lon="6.64898">
        <ele>253.3</ele>
        <time>2022-09-13T14:46:13Z</time>
      </trkpt>
      <trkpt lat="43.58897" lon="6.64892">
        <ele>253.6</ele>
        <time>2022-09-13T14:46:18Z</time>
      </trkpt>
      <trkpt lat="43.589" lon="6.64886">
        <ele>254.2</ele>
        <time>2022-09-13T14:46:23Z</time>
      </trkpt>
      <trkpt lat="43.58903" lon="6.6488">
        <ele>253.8</ele>
        <time>2022-09-13T14:46:30Z</time>
      </trkpt>
      <trkpt lat="43.58905" lon="6.64874">
        <ele>253.3</ele>
        <time>2022-09-13T14:46:35Z</time>
      </trkpt>
      <trkpt lat="43.58907" lon="6.64866">
        <ele>253.3</ele>
        <time>2022-09-13T14:46:39Z</time>
      </trkpt>
      <trkpt lat="43.5891" lon="6.6486">
        <ele>253.9</ele>
        <time>2022-09-13T14:46:44Z</time>
      </trkpt>
      <trkpt lat="43.58913" lon="6.64855">
        <ele>254.3</ele>
        <time>2022-09-13T14:46:48Z</time>
      </trkpt>
      <trkpt lat="43.58916" lon="6.6485">
        <ele>254.6</ele>
        <time>2022-09-13T14:46:53Z</time>
      </trkpt>
      <trkpt lat="43.58918" lon="6.64845">
        <ele>254.5</ele>
        <time>2022-09-13T14:46:58Z</time>
      </trkpt>
      <trkpt lat="43.58919" lon="6.64838">
        <ele>254.8</ele>
        <time>2022-09-13T14:47:03Z</time>
      </trkpt>
      <trkpt lat="43.58922" lon="6.64832">
        <ele>255.1</ele>
        <time>2022-09-13T14:47:07Z</time>
      </trkpt>
      <trkpt lat="43.58923" lon="6.64826">
        <ele>255.9</ele>
        <time>2022-09-13T14:47:14Z</time>
      </trkpt>
      <trkpt lat="43.58922" lon="6.6482">
        <ele>255.5</ele>
        <time>2022-09-13T14:47:20Z</time>
      </trkpt>
      <trkpt lat="43.5892" lon="6.64814">
        <ele>255.5</ele>
        <time>2022-09-13T14:47:25Z</time>
      </trkpt>
      <trkpt lat="43.58916" lon="6.64809">
        <ele>255.2</ele>
        <time>2022-09-13T14:47:30Z</time>
      </trkpt>
      <trkpt lat="43.58914" lon="6.64803">
        <ele>255.4</ele>
        <time>2022-09-13T14:47:34Z</time>
      </trkpt>
      <trkpt lat="43.58914" lon="6.64797">
        <ele>255.5</ele>
        <time>2022-09-13T14:47:38Z</time>
      </trkpt>
      <trkpt lat="43.58915" lon="6.6479">
        <ele>256.3</ele>
        <time>2022-09-13T14:47:44Z</time>
      </trkpt>
      <trkpt lat="43.58914" lon="6.64783">
        <ele>256.3</ele>
        <time>2022-09-13T14:47:49Z</time>
      </trkpt>
      <trkpt lat="43.58915" lon="6.64776">
        <ele>257</ele>
        <time>2022-09-13T14:47:54Z</time>
      </trkpt>
      <trkpt lat="43.58915" lon="6.6477">
        <ele>257.7</ele>
        <time>2022-09-13T14:48:01Z</time>
      </trkpt>
      <trkpt lat="43.58912" lon="6.64763">
        <ele>257.7</ele>
        <time>2022-09-13T14:48:08Z</time>
      </trkpt>
      <trkpt lat="43.58909" lon="6.64758">
        <ele>258.1</ele>
        <time>2022-09-13T14:48:13Z</time>
      </trkpt>
      <trkpt lat="43.58907" lon="6.64752">
        <ele>258</ele>
        <time>2022-09-13T14:48:21Z</time>
      </trkpt>
      <trkpt lat="43.58904" lon="6.64746">
        <ele>258.9</ele>
        <time>2022-09-13T14:48:28Z</time>
      </trkpt>
      <trkpt lat="43.589" lon="6.64741">
        <ele>260.7</ele>
        <time>2022-09-13T14:48:34Z</time>
      </trkpt>
      <trkpt lat="43.58898" lon="6.64735">
        <ele>261</ele>
        <time>2022-09-13T14:48:39Z</time>
      </trkpt>
      <trkpt lat="43.58897" lon="6.64729">
        <ele>261</ele>
        <time>2022-09-13T14:48:43Z</time>
      </trkpt>
      <trkpt lat="43.58897" lon="6.64722">
        <ele>261.1</ele>
        <time>2022-09-13T14:48:48Z</time>
      </trkpt>
      <trkpt lat="43.58898" lon="6.64715">
        <ele>261.1</ele>
        <time>2022-09-13T14:48:53Z</time>
      </trkpt>
      <trkpt lat="43.58899" lon="6.64708">
        <ele>262.2</ele>
        <time>2022-09-13T14:48:59Z</time>
      </trkpt>
      <trkpt lat="43.58901" lon="6.64702">
        <ele>263.2</ele>
        <time>2022-09-13T14:49:05Z</time>
      </trkpt>
      <trkpt lat="43.58905" lon="6.64697">
        <ele>263.7</ele>
        <time>2022-09-13T14:49:13Z</time>
      </trkpt>
      <trkpt lat="43.58909" lon="6.64694">
        <ele>264.2</ele>
        <time>2022-09-13T14:49:18Z</time>
      </trkpt>
      <trkpt lat="43.58914" lon="6.64692">
        <ele>265.5</ele>
        <time>2022-09-13T14:49:24Z</time>
      </trkpt>
      <trkpt lat="43.58918" lon="6.64689">
        <ele>266.8</ele>
        <time>2022-09-13T14:49:30Z</time>
      </trkpt>
      <trkpt lat="43.58923" lon="6.64686">
        <ele>268.2</ele>
        <time>2022-09-13T14:49:36Z</time>
      </trkpt>
      <trkpt lat="43.58927" lon="6.64683">
        <ele>268.9</ele>
        <time>2022-09-13T14:49:42Z</time>
      </trkpt>
      <trkpt lat="43.58932" lon="6.64681">
        <ele>268.6</ele>
        <time>2022-09-13T14:49:47Z</time>
      </trkpt>
      <trkpt lat="43.58937" lon="6.64681">
        <ele>268.2</ele>
        <time>2022-09-13T14:49:53Z</time>
      </trkpt>
      <trkpt lat="43.58942" lon="6.64678">
        <ele>268.5</ele>
        <time>2022-09-13T14:50:00Z</time>
      </trkpt>
      <trkpt lat="43.58947" lon="6.64675">
        <ele>269.1</ele>
        <time>2022-09-13T14:50:06Z</time>
      </trkpt>
      <trkpt lat="43.58952" lon="6.64673">
        <ele>269.9</ele>
        <time>2022-09-13T14:50:12Z</time>
      </trkpt>
      <trkpt lat="43.58955" lon="6.64669">
        <ele>270.7</ele>
        <time>2022-09-13T14:50:20Z</time>
      </trkpt>
      <trkpt lat="43.58957" lon="6.64663">
        <ele>271.3</ele>
        <time>2022-09-13T14:50:26Z</time>
      </trkpt>
      <trkpt lat="43.58958" lon="6.64656">
        <ele>271.7</ele>
        <time>2022-09-13T14:50:32Z</time>
      </trkpt>
      <trkpt lat="43.58959" lon="6.64651">
        <ele>272.3</ele>
        <time>2022-09-13T14:50:37Z</time>
      </trkpt>
      <trkpt lat="43.58961" lon="6.64643">
        <ele>272.4</ele>
        <time>2022-09-13T14:50:43Z</time>
      </trkpt>
      <trkpt lat="43.58962" lon="6.64637">
        <ele>272.2</ele>
        <time>2022-09-13T14:50:50Z</time>
      </trkpt>
      <trkpt lat="43.58965" lon="6.64631">
        <ele>272</ele>
        <time>2022-09-13T14:50:59Z</time>
      </trkpt>
      <trkpt lat="43.58967" lon="6.64625">
        <ele>270.8</ele>
        <time>2022-09-13T14:51:09Z</time>
      </trkpt>
      <trkpt lat="43.58968" lon="6.64618">
        <ele>269.8</ele>
        <time>2022-09-13T14:51:15Z</time>
      </trkpt>
      <trkpt lat="43.58969" lon="6.64611">
        <ele>269.7</ele>
        <time>2022-09-13T14:51:20Z</time>
      </trkpt>
      <trkpt lat="43.5897" lon="6.64604">
        <ele>270.5</ele>
        <time>2022-09-13T14:51:28Z</time>
      </trkpt>
      <trkpt lat="43.58969" lon="6.64598">
        <ele>271.4</ele>
        <time>2022-09-13T14:51:33Z</time>
      </trkpt>
      <trkpt lat="43.58971" lon="6.64591">
        <ele>272.8</ele>
        <time>2022-09-13T14:51:38Z</time>
      </trkpt>
      <trkpt lat="43.58973" lon="6.64585">
        <ele>274.4</ele>
        <time>2022-09-13T14:51:44Z</time>
      </trkpt>
      <trkpt lat="43.58974" lon="6.64578">
        <ele>275.8</ele>
        <time>2022-09-13T14:51:51Z</time>
      </trkpt>
      <trkpt lat="43.58975" lon="6.64573">
        <ele>277</ele>
        <time>2022-09-13T14:51:59Z</time>
      </trkpt>
      <trkpt lat="43.58976" lon="6.64566">
        <ele>277.4</ele>
        <time>2022-09-13T14:52:04Z</time>
      </trkpt>
      <trkpt lat="43.58978" lon="6.6456">
        <ele>278</ele>
        <time>2022-09-13T14:52:08Z</time>
      </trkpt>
      <trkpt lat="43.5898" lon="6.64554">
        <ele>279.3</ele>
        <time>2022-09-13T14:52:16Z</time>
      </trkpt>
      <trkpt lat="43.58983" lon="6.64549">
        <ele>279.7</ele>
        <time>2022-09-13T14:52:24Z</time>
      </trkpt>
      <trkpt lat="43.58987" lon="6.64544">
        <ele>279.8</ele>
        <time>2022-09-13T14:52:31Z</time>
      </trkpt>
      <trkpt lat="43.5899" lon="6.6454">
        <ele>279.8</ele>
        <time>2022-09-13T14:52:36Z</time>
      </trkpt>
      <trkpt lat="43.58994" lon="6.64536">
        <ele>279.6</ele>
        <time>2022-09-13T14:52:41Z</time>
      </trkpt>
      <trkpt lat="43.58998" lon="6.6453">
        <ele>279.4</ele>
        <time>2022-09-13T14:52:46Z</time>
      </trkpt>
      <trkpt lat="43.59002" lon="6.64526">
        <ele>279.5</ele>
        <time>2022-09-13T14:52:53Z</time>
      </trkpt>
      <trkpt lat="43.59006" lon="6.64521">
        <ele>280.2</ele>
        <time>2022-09-13T14:52:59Z</time>
      </trkpt>
      <trkpt lat="43.59011" lon="6.64517">
        <ele>280.7</ele>
        <time>2022-09-13T14:53:04Z</time>
      </trkpt>
      <trkpt lat="43.59014" lon="6.64513">
        <ele>281.3</ele>
        <time>2022-09-13T14:53:09Z</time>
      </trkpt>
      <trkpt lat="43.59018" lon="6.64508">
        <ele>281.9</ele>
        <time>2022-09-13T14:53:14Z</time>
      </trkpt>
      <trkpt lat="43.59021" lon="6.64504">
        <ele>281.4</ele>
        <time>2022-09-13T14:53:20Z</time>
      </trkpt>
      <trkpt lat="43.59024" lon="6.64498">
        <ele>280.4</ele>
        <time>2022-09-13T14:53:26Z</time>
      </trkpt>
      <trkpt lat="43.59026" lon="6.64491">
        <ele>279.5</ele>
        <time>2022-09-13T14:53:33Z</time>
      </trkpt>
      <trkpt lat="43.59026" lon="6.64484">
        <ele>279.2</ele>
        <time>2022-09-13T14:53:38Z</time>
      </trkpt>
      <trkpt lat="43.59026" lon="6.64478">
        <ele>279.8</ele>
        <time>2022-09-13T14:53:43Z</time>
      </trkpt>
      <trkpt lat="43.59028" lon="6.64471">
        <ele>280.4</ele>
        <time>2022-09-13T14:53:48Z</time>
      </trkpt>
      <trkpt lat="43.59029" lon="6.64465">
        <ele>281.7</ele>
        <time>2022-09-13T14:53:55Z</time>
      </trkpt>
      <trkpt lat="43.59031" lon="6.64459">
        <ele>281.7</ele>
        <time>2022-09-13T14:53:59Z</time>
      </trkpt>
      <trkpt lat="43.59034" lon="6.64453">
        <ele>281.9</ele>
        <time>2022-09-13T14:54:03Z</time>
      </trkpt>
      <trkpt lat="43.59036" lon="6.64446">
        <ele>281.3</ele>
        <time>2022-09-13T14:54:08Z</time>
      </trkpt>
      <trkpt lat="43.59039" lon="6.6444">
        <ele>281</ele>
        <time>2022-09-13T14:54:13Z</time>
      </trkpt>
      <trkpt lat="43.59042" lon="6.64435">
        <ele>280.5</ele>
        <time>2022-09-13T14:54:17Z</time>
      </trkpt>
      <trkpt lat="43.59046" lon="6.6443">
        <ele>280.8</ele>
        <time>2022-09-13T14:54:22Z</time>
      </trkpt>
      <trkpt lat="43.59049" lon="6.64425">
        <ele>280.8</ele>
        <time>2022-09-13T14:54:26Z</time>
      </trkpt>
      <trkpt lat="43.59052" lon="6.64419">
        <ele>280.8</ele>
        <time>2022-09-13T14:54:31Z</time>
      </trkpt>
      <trkpt lat="43.59055" lon="6.64413">
        <ele>281</ele>
        <time>2022-09-13T14:54:35Z</time>
      </trkpt>
      <trkpt lat="43.59058" lon="6.64409">
        <ele>281.5</ele>
        <time>2022-09-13T14:54:39Z</time>
      </trkpt>
      <trkpt lat="43.59061" lon="6.64404">
        <ele>281.7</ele>
        <time>2022-09-13T14:54:43Z</time>
      </trkpt>
      <trkpt lat="43.59065" lon="6.64399">
        <ele>281.7</ele>
        <time>2022-09-13T14:54:48Z</time>
      </trkpt>
      <trkpt lat="43.59068" lon="6.64394">
        <ele>281.6</ele>
        <time>2022-09-13T14:54:53Z</time>
      </trkpt>
      <trkpt lat="43.59071" lon="6.64389">
        <ele>281.8</ele>
        <time>2022-09-13T14:54:58Z</time>
      </trkpt>
      <trkpt lat="43.59073" lon="6.64381">
        <ele>282.1</ele>
        <time>2022-09-13T14:55:04Z</time>
      </trkpt>
      <trkpt lat="43.59074" lon="6.64374">
        <ele>282.3</ele>
        <time>2022-09-13T14:55:09Z</time>
      </trkpt>
      <trkpt lat="43.59075" lon="6.64367">
        <ele>281.4</ele>
        <time>2022-09-13T14:55:14Z</time>
      </trkpt>
      <trkpt lat="43.59076" lon="6.64361">
        <ele>281.4</ele>
        <time>2022-09-13T14:55:18Z</time>
      </trkpt>
      <trkpt lat="43.59078" lon="6.64354">
        <ele>281.1</ele>
        <time>2022-09-13T14:55:22Z</time>
      </trkpt>
      <trkpt lat="43.59081" lon="6.64349">
        <ele>281.3</ele>
        <time>2022-09-13T14:55:26Z</time>
      </trkpt>
      <trkpt lat="43.59085" lon="6.64345">
        <ele>280.7</ele>
        <time>2022-09-13T14:55:31Z</time>
      </trkpt>
      <trkpt lat="43.59087" lon="6.64339">
        <ele>279.7</ele>
        <time>2022-09-13T14:55:36Z</time>
      </trkpt>
      <trkpt lat="43.59088" lon="6.64333">
        <ele>278.9</ele>
        <time>2022-09-13T14:55:40Z</time>
      </trkpt>
      <trkpt lat="43.59089" lon="6.64326">
        <ele>278.4</ele>
        <time>2022-09-13T14:55:44Z</time>
      </trkpt>
      <trkpt lat="43.59091" lon="6.6432">
        <ele>278.1</ele>
        <time>2022-09-13T14:55:48Z</time>
      </trkpt>
      <trkpt lat="43.59093" lon="6.64314">
        <ele>278.1</ele>
        <time>2022-09-13T14:55:52Z</time>
      </trkpt>
      <trkpt lat="43.59094" lon="6.64308">
        <ele>277.8</ele>
        <time>2022-09-13T14:55:56Z</time>
      </trkpt>
      <trkpt lat="43.59097" lon="6.64301">
        <ele>277.9</ele>
        <time>2022-09-13T14:56:01Z</time>
      </trkpt>
      <trkpt lat="43.59099" lon="6.64296">
        <ele>278.3</ele>
        <time>2022-09-13T14:56:05Z</time>
      </trkpt>
      <trkpt lat="43.59103" lon="6.6429">
        <ele>278.9</ele>
        <time>2022-09-13T14:56:10Z</time>
      </trkpt>
      <trkpt lat="43.59106" lon="6.64284">
        <ele>278.8</ele>
        <time>2022-09-13T14:56:15Z</time>
      </trkpt>
      <trkpt lat="43.59109" lon="6.64279">
        <ele>278.5</ele>
        <time>2022-09-13T14:56:21Z</time>
      </trkpt>
      <trkpt lat="43.59111" lon="6.64274">
        <ele>278.5</ele>
        <time>2022-09-13T14:56:25Z</time>
      </trkpt>
      <trkpt lat="43.59114" lon="6.64268">
        <ele>278.1</ele>
        <time>2022-09-13T14:56:30Z</time>
      </trkpt>
      <trkpt lat="43.59117" lon="6.64262">
        <ele>278.4</ele>
        <time>2022-09-13T14:56:35Z</time>
      </trkpt>
      <trkpt lat="43.5912" lon="6.64256">
        <ele>278.2</ele>
        <time>2022-09-13T14:56:40Z</time>
      </trkpt>
      <trkpt lat="43.59124" lon="6.6425">
        <ele>278.4</ele>
        <time>2022-09-13T14:56:45Z</time>
      </trkpt>
      <trkpt lat="43.59127" lon="6.64245">
        <ele>278.2</ele>
        <time>2022-09-13T14:56:49Z</time>
      </trkpt>
      <trkpt lat="43.5913" lon="6.64238">
        <ele>277.9</ele>
        <time>2022-09-13T14:56:55Z</time>
      </trkpt>
      <trkpt lat="43.59133" lon="6.64234">
        <ele>277.5</ele>
        <time>2022-09-13T14:56:59Z</time>
      </trkpt>
      <trkpt lat="43.59136" lon="6.64228">
        <ele>276.9</ele>
        <time>2022-09-13T14:57:04Z</time>
      </trkpt>
      <trkpt lat="43.59139" lon="6.64222">
        <ele>276.9</ele>
        <time>2022-09-13T14:57:09Z</time>
      </trkpt>
      <trkpt lat="43.59143" lon="6.64218">
        <ele>276.8</ele>
        <time>2022-09-13T14:57:14Z</time>
      </trkpt>
      <trkpt lat="43.59147" lon="6.64215">
        <ele>276.2</ele>
        <time>2022-09-13T14:57:23Z</time>
      </trkpt>
      <trkpt lat="43.59152" lon="6.64212">
        <ele>276.4</ele>
        <time>2022-09-13T14:57:29Z</time>
      </trkpt>
      <trkpt lat="43.59157" lon="6.64208">
        <ele>276.2</ele>
        <time>2022-09-13T14:57:33Z</time>
      </trkpt>
      <trkpt lat="43.59161" lon="6.64204">
        <ele>275.9</ele>
        <time>2022-09-13T14:57:37Z</time>
      </trkpt>
      <trkpt lat="43.59166" lon="6.64199">
        <ele>275.6</ele>
        <time>2022-09-13T14:57:41Z</time>
      </trkpt>
      <trkpt lat="43.5917" lon="6.64195">
        <ele>275.5</ele>
        <time>2022-09-13T14:57:45Z</time>
      </trkpt>
      <trkpt lat="43.59174" lon="6.6419">
        <ele>275.4</ele>
        <time>2022-09-13T14:57:49Z</time>
      </trkpt>
      <trkpt lat="43.59175" lon="6.64183">
        <ele>275.4</ele>
        <time>2022-09-13T14:57:53Z</time>
      </trkpt>
      <trkpt lat="43.59174" lon="6.64176">
        <ele>275.5</ele>
        <time>2022-09-13T14:57:57Z</time>
      </trkpt>
      <trkpt lat="43.59172" lon="6.64171">
        <ele>275.9</ele>
        <time>2022-09-13T14:58:00Z</time>
      </trkpt>
      <trkpt lat="43.59169" lon="6.64165">
        <ele>276.3</ele>
        <time>2022-09-13T14:58:03Z</time>
      </trkpt>
      <trkpt lat="43.59166" lon="6.64159">
        <ele>276.9</ele>
        <time>2022-09-13T14:58:07Z</time>
      </trkpt>
      <trkpt lat="43.59164" lon="6.64154">
        <ele>277.6</ele>
        <time>2022-09-13T14:58:10Z</time>
      </trkpt>
      <trkpt lat="43.59161" lon="6.64148">
        <ele>278</ele>
        <time>2022-09-13T14:58:14Z</time>
      </trkpt>
      <trkpt lat="43.59158" lon="6.64142">
        <ele>278</ele>
        <time>2022-09-13T14:58:19Z</time>
      </trkpt>
      <trkpt lat="43.59154" lon="6.64136">
        <ele>277.9</ele>
        <time>2022-09-13T14:58:23Z</time>
      </trkpt>
      <trkpt lat="43.59151" lon="6.64131">
        <ele>277.8</ele>
        <time>2022-09-13T14:58:27Z</time>
      </trkpt>
      <trkpt lat="43.59147" lon="6.64125">
        <ele>277.7</ele>
        <time>2022-09-13T14:58:32Z</time>
      </trkpt>
      <trkpt lat="43.59144" lon="6.6412">
        <ele>277.6</ele>
        <time>2022-09-13T14:58:36Z</time>
      </trkpt>
      <trkpt lat="43.59142" lon="6.64115">
        <ele>277.8</ele>
        <time>2022-09-13T14:58:40Z</time>
      </trkpt>
      <trkpt lat="43.59139" lon="6.64109">
        <ele>278.2</ele>
        <time>2022-09-13T14:58:44Z</time>
      </trkpt>
      <trkpt lat="43.59137" lon="6.64102">
        <ele>278.9</ele>
        <time>2022-09-13T14:58:49Z</time>
      </trkpt>
      <trkpt lat="43.59132" lon="6.64099">
        <ele>279.2</ele>
        <time>2022-09-13T14:58:55Z</time>
      </trkpt>
      <trkpt lat="43.59127" lon="6.64096">
        <ele>279.5</ele>
        <time>2022-09-13T14:59:02Z</time>
      </trkpt>
      <trkpt lat="43.59122" lon="6.64093">
        <ele>279.7</ele>
        <time>2022-09-13T14:59:07Z</time>
      </trkpt>
      <trkpt lat="43.59118" lon="6.64091">
        <ele>280.8</ele>
        <time>2022-09-13T14:59:12Z</time>
      </trkpt>
      <trkpt lat="43.59113" lon="6.64088">
        <ele>281.7</ele>
        <time>2022-09-13T14:59:18Z</time>
      </trkpt>
      <trkpt lat="43.59109" lon="6.64085">
        <ele>281.8</ele>
        <time>2022-09-13T14:59:23Z</time>
      </trkpt>
      <trkpt lat="43.59105" lon="6.64083">
        <ele>281.6</ele>
        <time>2022-09-13T14:59:28Z</time>
      </trkpt>
      <trkpt lat="43.591" lon="6.64081">
        <ele>280.4</ele>
        <time>2022-09-13T14:59:33Z</time>
      </trkpt>
      <trkpt lat="43.59095" lon="6.64079">
        <ele>279.9</ele>
        <time>2022-09-13T14:59:38Z</time>
      </trkpt>
    </trkseg>
  </trk>
</gpx>